Provisional Data: Little Chiques Creek near Mount Joy, PA


Please select a monitoring station.
Please select start date.
Please select start date.

Toggle Unit: C/F Toggle Unit: C/F
Sample Time Temperature (C) Temperature (F) Specific Conductivity (mS/cm) pH   Turbidity (NTU+) DO (mg/L)
10/20/2020 12:00:00 AM 12.82 55.076 0.431 7.57 -2.21 8.48
10/20/2020 12:15:00 AM 12.82 55.076 0.432 7.57 -2.7 8.46
10/20/2020 12:30:00 AM 12.83 55.094 0.431 7.57 -2.53 8.44
10/20/2020 12:45:00 AM 12.82 55.076 0.431 7.56 -0.75 8.41
10/20/2020 1:00:00 AM 12.82 55.076 0.431 7.56 -2.09 8.4
10/20/2020 1:15:00 AM 12.82 55.076 0.431 7.56 -2.69 8.38
10/20/2020 1:30:00 AM 12.83 55.094 0.431 7.56 -1.95 8.31
10/20/2020 1:45:00 AM 12.83 55.094 0.431 7.56 -2.38 8.27
10/20/2020 2:00:00 AM 12.84 55.112 0.431 7.56 -2.6 8.34
10/20/2020 2:15:00 AM 12.84 55.112 0.431 7.56 -2.16 8.33
10/20/2020 2:30:00 AM 12.83 55.094 0.431 7.56 -2.46 8.32
10/20/2020 2:45:00 AM 12.83 55.094 0.431 7.55 -2.64 8.26
10/20/2020 3:00:00 AM 12.83 55.094 0.431 7.56 -2.52 8.24
10/20/2020 3:15:00 AM 12.83 55.094 0.431 7.55 -2.4 8.19
10/20/2020 3:30:00 AM 12.83 55.094 0.431 7.55 -2.64 8.22
10/20/2020 3:45:00 AM 12.82 55.076 0.432 7.55 -1.96 8.21
10/20/2020 4:00:00 AM 12.83 55.094 0.431 7.55 -1.06 8.15
10/20/2020 4:15:00 AM 12.83 55.094 0.432 7.55 -2.67 8.15
10/20/2020 4:30:00 AM 12.83 55.094 0.432 7.55 -2.45 8.09
10/20/2020 4:45:00 AM 12.84 55.112 0.432 7.54 -1.91 8.08
10/20/2020 5:00:00 AM 12.84 55.112 0.431 7.55 -1.59 8.14
10/20/2020 5:15:00 AM 12.84 55.112 0.432 7.55 -2.07 8.1
10/20/2020 5:30:00 AM 12.86 55.148 0.431 7.54 -2.68 8.12
10/20/2020 5:45:00 AM 12.87 55.166 0.432 7.54 -2.15 8.08
10/20/2020 6:00:00 AM 12.88 55.184 0.431 7.54 -1.74 8.09
10/20/2020 6:15:00 AM 12.89 55.202 0.432 7.54 -2.01 8.05
10/20/2020 6:30:00 AM 12.9 55.22 0.432 7.54 -1.58 8.03
10/20/2020 6:45:00 AM 12.91 55.238 0.432 7.54 -2.23 8.06
10/20/2020 7:00:00 AM 12.93 55.274 0.433 7.54 -2.56 8.03
10/20/2020 7:15:00 AM 12.95 55.31 0.432 7.54 -1.6 8.04
10/20/2020 7:30:00 AM 12.96 55.328 0.432 7.54 -1.41 8.04
10/20/2020 7:45:00 AM 12.96 55.328 0.432 7.54 -1.69 7.99
10/20/2020 8:00:00 AM 12.97 55.346 0.432 7.54 -2.32 8.05
10/20/2020 8:15:00 AM 13 55.4 0.432 7.54 -2.32 8.08
10/20/2020 8:30:00 AM 13.02 55.436 0.432 7.54 -2.86 8.11
10/20/2020 8:45:00 AM 13.05 55.49 0.433 7.55 -2.98 8.13
10/20/2020 9:00:00 AM 13.08 55.544 0.432 7.55 -2.68 8.18
10/20/2020 9:15:00 AM 11.38 52.484 0.375 6.55 -2.75 7.15
10/20/2020 9:30:00 AM -99999.99 -179968 -99999.99 -99999.99 -99999.99 -99999.99
10/20/2020 9:45:00 AM -99999.99 -179968 -99999.99 -99999.99 -99999.99 -99999.99
10/20/2020 10:00:00 AM -99999.99 -179968 -99999.99 -99999.99 -99999.99 -99999.99
10/20/2020 10:15:00 AM -99999.99 -179968 -99999.99 -99999.99 -99999.99 -99999.99
10/20/2020 10:30:00 AM -99999.99 -179968 -99999.99 -99999.99 -99999.99 -99999.99
10/20/2020 10:45:00 AM -99999.99 -179968 -99999.99 -99999.99 -99999.99 -99999.99
10/20/2020 11:00:00 AM -99999.99 -179968 -99999.99 -99999.99 -99999.99 -99999.99
10/20/2020 11:15:00 AM -99999.99 -179968 -99999.99 -99999.99 -99999.99 -99999.99
10/20/2020 11:30:00 AM 14.02 57.236 0.46 7.53 4.76 9.4
10/20/2020 11:45:00 AM 13.97 57.146 0.433 7.57 4.7 9.57
10/20/2020 12:00:00 PM 14.07 57.326 0.431 7.61 3.55 9.82
10/20/2020 12:15:00 PM 14.22 57.596 0.431 7.63 2.75 9.92
10/20/2020 12:30:00 PM 14.38 57.884 0.43 7.65 2.73 9.94
10/20/2020 12:45:00 PM 14.49 58.082 0.431 7.67 3.06 10.03
10/20/2020 1:00:00 PM 14.58 58.244 0.431 7.68 2.53 9.97
10/20/2020 1:15:00 PM 14.73 58.514 0.431 7.7 2.54 10.01
10/20/2020 1:30:00 PM 14.85 58.73 0.43 7.69 2.74 10.02
10/20/2020 1:45:00 PM 14.99 58.982 0.43 7.71 2.57 10.05
10/20/2020 2:00:00 PM 15.14 59.252 0.43 7.72 2.7 10.03
10/20/2020 2:15:00 PM 15.3 59.54 0.431 7.72 2.61 10.03
10/20/2020 2:30:00 PM 15.41 59.738 0.43 7.73 2.76 9.97
10/20/2020 2:45:00 PM 15.46 59.828 0.431 7.71 2.41 9.86
10/20/2020 3:00:00 PM 15.6 60.08 0.43 7.73 2.52 9.97
10/20/2020 3:15:00 PM 15.64 60.152 0.43 7.73 2.77 9.94
10/20/2020 3:30:00 PM 15.67 60.206 0.431 7.72 2.48 9.74
10/20/2020 3:45:00 PM 15.69 60.242 0.43 7.72 2.81 9.76
10/20/2020 4:00:00 PM 15.73 60.314 0.43 7.72 2.8 9.75
10/20/2020 4:15:00 PM 15.74 60.332 0.43 7.72 2.73 9.68
10/20/2020 4:30:00 PM 15.73 60.314 0.431 7.71 2.6 9.55
10/20/2020 4:45:00 PM 15.73 60.314 0.431 7.7 2.41 9.55
10/20/2020 5:00:00 PM 15.7 60.26 0.431 7.7 2.73 9.34
10/20/2020 5:15:00 PM 15.64 60.152 0.431 7.68 2.79 9.26
10/20/2020 5:30:00 PM 15.59 60.062 0.432 7.68 2.64 9.21
10/20/2020 5:45:00 PM 15.54 59.972 0.431 7.67 2.48 9.08
10/20/2020 6:00:00 PM 15.48 59.864 0.432 7.65 2.38 8.97
10/20/2020 6:15:00 PM 15.44 59.792 0.432 7.64 2.65 8.91
10/20/2020 6:30:00 PM 15.39 59.702 0.432 7.64 2.32 8.77
10/20/2020 6:45:00 PM 15.35 59.63 0.431 7.63 2.1 8.63
10/20/2020 7:00:00 PM 15.27 59.486 0.431 7.61 2.56 8.56
10/20/2020 7:15:00 PM 15.22 59.396 0.431 7.61 2.51 8.52
10/20/2020 7:30:00 PM 15.16 59.288 0.432 7.6 2.66 8.41
10/20/2020 7:45:00 PM 15.11 59.198 0.431 7.59 2.59 8.36
10/20/2020 8:00:00 PM 15.07 59.126 0.432 7.57 2.63 8.31
10/20/2020 8:15:00 PM 13.02 55.436 0.375 6.57 2.28 7.11
10/20/2020 8:30:00 PM 14.7 58.46 0.423 7.43 2.59 8.07
10/20/2020 8:45:00 PM 14.89 58.802 0.43 7.55 2.65 8.14
10/20/2020 9:00:00 PM 14.88 58.784 0.431 7.56 2.66 8.1
10/20/2020 9:15:00 PM 14.87 58.766 0.43 7.55 3.77 8.05
10/20/2020 9:30:00 PM 12.86 55.148 0.374 6.55 2.16 6.98
10/20/2020 9:45:00 PM 14.52 58.136 0.424 7.42 2.75 7.89
10/20/2020 10:00:00 PM 14.72 58.496 0.429 7.52 2.56 7.94
10/20/2020 10:15:00 PM 14.73 58.514 0.431 7.53 2.49 7.97
10/20/2020 10:30:00 PM 14.69 58.442 0.43 7.54 2.45 7.99
10/20/2020 10:45:00 PM 14.67 58.406 0.431 7.54 2.65 7.95
10/20/2020 11:00:00 PM 14.65 58.37 0.43 7.54 2.97 7.92
10/20/2020 11:15:00 PM 14.63 58.334 0.431 7.54 2.63 7.92
10/20/2020 11:30:00 PM 14.58 58.244 0.432 7.53 2.56 7.89
10/20/2020 11:45:00 PM 14.55 58.19 0.432 7.54 2.6 7.91
10/21/2020 12:00:00 AM 14.52 58.136 0.432 7.53 2.95 7.9
10/21/2020 12:15:00 AM 14.49 58.082 0.432 7.53 3.12 7.89
10/21/2020 12:30:00 AM 14.47 58.046 0.431 7.53 2.61 7.89
10/21/2020 12:45:00 AM 14.45 58.01 0.432 7.53 2.83 7.9
10/21/2020 1:00:00 AM 14.42 57.956 0.432 7.53 2.62 7.88
10/21/2020 1:15:00 AM 14.4 57.92 0.432 7.52 2.92 7.87
10/21/2020 1:30:00 AM 14.39 57.902 0.432 7.52 2.73 7.81
10/21/2020 1:45:00 AM 14.37 57.866 0.431 7.52 2.8 7.8
10/21/2020 2:00:00 AM 14.35 57.83 0.432 7.52 2.9 7.78
10/21/2020 2:15:00 AM 14.33 57.794 0.431 7.52 2.89 7.77
10/21/2020 2:30:00 AM 14.32 57.776 0.431 7.52 2.53 7.79
10/21/2020 2:45:00 AM 14.33 57.794 0.432 7.52 2.57 7.75
10/21/2020 3:00:00 AM 14.33 57.794 0.431 7.52 2.79 7.75
10/21/2020 3:15:00 AM 14.33 57.794 0.432 7.51 2.4 7.68
10/21/2020 3:30:00 AM 14.34 57.812 0.433 7.51 2.38 7.71
10/21/2020 3:45:00 AM 14.36 57.848 0.431 7.51 2.48 7.71
10/21/2020 4:00:00 AM 14.37 57.866 0.432 7.51 2.43 7.67
10/21/2020 4:15:00 AM 14.37 57.866 0.432 7.51 2.46 7.68
10/21/2020 4:30:00 AM 14.4 57.92 0.431 7.51 2.57 7.65
10/21/2020 4:45:00 AM 14.4 57.92 0.431 7.51 2.53 7.65
10/21/2020 5:00:00 AM 14.41 57.938 0.432 7.51 2.5 7.61
10/21/2020 5:15:00 AM 14.43 57.974 0.432 7.51 2.52 7.63
10/21/2020 5:30:00 AM 14.44 57.992 0.432 7.51 2.49 7.61
10/21/2020 5:45:00 AM 14.46 58.028 0.433 7.51 2.85 7.62
10/21/2020 6:00:00 AM 14.47 58.046 0.431 7.51 2.69 7.6
10/21/2020 6:15:00 AM 14.47 58.046 0.432 7.5 3.16 7.55
10/21/2020 6:30:00 AM 14.46 58.028 0.432 7.5 2.91 7.56
10/21/2020 6:45:00 AM 14.46 58.028 0.432 7.5 2.71 7.56
10/21/2020 7:00:00 AM 14.46 58.028 0.433 7.5 2.71 7.58
10/21/2020 7:15:00 AM 14.48 58.064 0.432 7.5 2.95 7.53
10/21/2020 7:30:00 AM 14.48 58.064 0.433 7.5 2.64 7.55
10/21/2020 7:45:00 AM 14.45 58.01 0.433 7.5 2.38 7.55
10/21/2020 8:00:00 AM 14.45 58.01 0.433 7.5 2.41 7.52
10/21/2020 8:15:00 AM 14.47 58.046 0.434 7.5 2.53 7.5
10/21/2020 8:30:00 AM 14.46 58.028 0.432 7.5 2.55 7.54
10/21/2020 8:45:00 AM 14.46 58.028 0.433 7.5 2.34 7.59
10/21/2020 9:00:00 AM 14.46 58.028 0.433 7.5 2.46 7.58
10/21/2020 9:15:00 AM 14.47 58.046 0.434 7.51 2.4 7.62
10/21/2020 9:30:00 AM 14.48 58.064 0.433 7.51 2.5 7.65
10/21/2020 9:45:00 AM 14.5 58.1 0.432 7.51 2.29 7.71
10/21/2020 10:00:00 AM 14.52 58.136 0.434 7.52 2.54 7.82
10/21/2020 10:15:00 AM 14.55 58.19 0.433 7.52 2.33 7.91
10/21/2020 10:30:00 AM 14.58 58.244 0.434 7.52 2.31 7.83
10/21/2020 10:45:00 AM 14.61 58.298 0.432 7.54 2.44 8.05
10/21/2020 11:00:00 AM 14.67 58.406 0.432 7.54 2.44 8.12
10/21/2020 11:15:00 AM 14.72 58.496 0.433 7.56 2.59 8.27
10/21/2020 11:30:00 AM 14.8 58.64 0.433 7.57 2.41 8.35
10/21/2020 11:45:00 AM 14.86 58.748 0.432 7.57 2.47 8.54
10/21/2020 12:00:00 PM 14.94 58.892 0.433 7.59 2.48 8.69
10/21/2020 12:15:00 PM 15.02 59.036 0.432 7.61 2.44 8.84
10/21/2020 12:30:00 PM 15.11 59.198 0.432 7.61 2.32 8.83
10/21/2020 12:45:00 PM 15.17 59.306 0.434 7.62 2.22 8.93
10/21/2020 1:00:00 PM 15.24 59.432 0.432 7.62 2.22 9.02
10/21/2020 1:15:00 PM 15.34 59.612 0.432 7.63 2.31 9
10/21/2020 1:30:00 PM 15.45 59.81 0.431 7.64 2.34 9.17
10/21/2020 1:45:00 PM 15.57 60.026 0.431 7.67 2.59 9.26
10/21/2020 2:00:00 PM 15.68 60.224 0.432 7.66 2.97 9.27
10/21/2020 2:15:00 PM 15.78 60.404 0.432 7.66 2.91 9.13
10/21/2020 2:30:00 PM 15.86 60.548 0.432 7.65 2.4 9.22
10/21/2020 2:45:00 PM 15.95 60.71 0.431 7.65 2.4 9.21
10/21/2020 3:00:00 PM 16.05 60.89 0.431 7.66 2.46 9.19
10/21/2020 3:15:00 PM 16.12 61.016 0.43 7.67 2.39 9.16
10/21/2020 3:30:00 PM 16.16 61.088 0.432 7.66 2.64 8.76
10/21/2020 3:45:00 PM 16.28 61.304 0.432 7.67 2.28 9.01
10/21/2020 4:00:00 PM 16.31 61.358 0.432 7.66 2.5 8.93
10/21/2020 4:15:00 PM 16.4 61.52 0.431 7.65 2.53 8.93
10/21/2020 4:30:00 PM 16.43 61.574 0.432 7.66 2.59 8.74
10/21/2020 4:45:00 PM 16.41 61.538 0.432 7.63 2.51 8.7
10/21/2020 5:00:00 PM 16.42 61.556 0.431 7.63 2.42 8.49
10/21/2020 5:15:00 PM 16.43 61.574 0.432 7.64 2.53 8.51
10/21/2020 5:30:00 PM 16.38 61.484 0.432 7.61 2.41 8.48
10/21/2020 5:45:00 PM 16.32 61.376 0.432 7.61 2.55 8.33
10/21/2020 6:00:00 PM 16.26 61.268 0.432 7.59 2.75 8.14
10/21/2020 6:15:00 PM 16.21 61.178 0.432 7.58 2.45 8.18
10/21/2020 6:30:00 PM 16.17 61.106 0.432 7.58 2.22 8.12
10/21/2020 6:45:00 PM 16.11 60.998 0.432 7.58 3.06 8
10/21/2020 7:00:00 PM 16.07 60.926 0.432 7.56 2.56 7.88
10/21/2020 7:15:00 PM 16.01 60.818 0.432 7.56 2.41 7.83
10/21/2020 7:30:00 PM 15.94 60.692 0.432 7.55 2.22 7.74
10/21/2020 7:45:00 PM 15.91 60.638 0.432 7.54 2.61 7.66
10/21/2020 8:00:00 PM 15.83 60.494 0.432 7.53 2.46 7.63
10/21/2020 8:15:00 PM 15.78 60.404 0.432 7.53 2.41 7.6
10/21/2020 8:30:00 PM 15.72 60.296 0.433 7.52 2.46 7.57
10/21/2020 8:45:00 PM 15.67 60.206 0.435 7.51 33.54 7.4
10/21/2020 9:00:00 PM 15.63 60.134 0.433 7.51 7.69 7.51
10/21/2020 9:15:00 PM 15.58 60.044 0.433 7.51 3.97 7.52
10/21/2020 9:30:00 PM 15.54 59.972 0.433 7.51 3.11 7.5
10/21/2020 9:45:00 PM 15.52 59.936 0.433 7.51 2.75 7.42
10/21/2020 10:00:00 PM 15.49 59.882 0.433 7.51 2.66 7.42
10/21/2020 10:15:00 PM 15.45 59.81 0.433 7.5 2.84 7.44
10/21/2020 10:30:00 PM 15.41 59.738 0.433 7.5 2.95 7.4
10/21/2020 10:45:00 PM 15.37 59.666 0.433 7.5 2.8 7.39
10/21/2020 11:00:00 PM 15.34 59.612 0.432 7.5 3.15 7.37
10/21/2020 11:15:00 PM 15.31 59.558 0.434 7.49 2.92 7.36
10/21/2020 11:30:00 PM 15.29 59.522 0.433 7.49 2.97 7.38
10/21/2020 11:45:00 PM 15.27 59.486 0.432 7.49 2.65 7.39
10/22/2020 12:00:00 AM 15.26 59.468 0.433 7.49 2.75 7.32
10/22/2020 12:15:00 AM 15.24 59.432 0.433 7.5 2.92 7.37
10/22/2020 12:30:00 AM 15.24 59.432 0.433 7.5 2.82 7.35
10/22/2020 12:45:00 AM 15.23 59.414 0.432 7.49 2.44 7.31
10/22/2020 1:00:00 AM 15.22 59.396 0.433 7.49 2.61 7.35
10/22/2020 1:15:00 AM 15.23 59.414 0.433 7.49 2.85 7.25
10/22/2020 1:30:00 AM 15.22 59.396 0.432 7.49 2.68 7.31
10/22/2020 1:45:00 AM 15.22 59.396 0.432 7.49 2.77 7.3
10/22/2020 2:00:00 AM 15.23 59.414 0.432 7.49 2.75 7.27
10/22/2020 2:15:00 AM 15.23 59.414 0.432 7.48 2.99 7.23
10/22/2020 2:30:00 AM 15.24 59.432 0.433 7.48 3.15 7.24
10/22/2020 2:45:00 AM 15.25 59.45 0.432 7.48 2.98 7.23
10/22/2020 3:00:00 AM 15.25 59.45 0.433 7.47 2.97 7.18
10/22/2020 3:15:00 AM 15.26 59.468 0.432 7.48 7.56 7.2
10/22/2020 3:30:00 AM 15.27 59.486 0.432 7.48 3.98 7.15
10/22/2020 3:45:00 AM 15.27 59.486 0.432 7.47 3.03 7.1
10/22/2020 4:00:00 AM 15.26 59.468 0.432 7.47 2.97 7.15
10/22/2020 4:15:00 AM 15.26 59.468 0.434 7.46 3.27 7.1
10/22/2020 4:30:00 AM 15.27 59.486 0.433 7.46 35.39 7.05
10/22/2020 4:45:00 AM 15.27 59.486 0.432 7.47 9.12 7.14
10/22/2020 5:00:00 AM 15.27 59.486 0.431 7.47 4.04 7.12
10/22/2020 5:15:00 AM 15.28 59.504 0.432 7.46 3.1 7.08
10/22/2020 5:30:00 AM 15.28 59.504 0.433 7.47 3.1 7.08
10/22/2020 5:45:00 AM 15.29 59.522 0.432 7.47 2.57 7.08
10/22/2020 6:00:00 AM 15.28 59.504 0.432 7.46 2.75 7.08
10/22/2020 6:15:00 AM 15.27 59.486 0.432 7.46 2.68 7.08
10/22/2020 6:30:00 AM 15.28 59.504 0.431 7.47 2.69 7.06
10/22/2020 6:45:00 AM 15.29 59.522 0.433 7.47 2.76 6.99
10/22/2020 7:00:00 AM 15.26 59.468 0.434 7.45 2.75 7.03
10/22/2020 7:15:00 AM 15.25 59.45 0.433 7.46 2.85 7
10/22/2020 7:30:00 AM 15.24 59.432 0.432 7.45 2.52 7.02
10/22/2020 7:45:00 AM 15.24 59.432 0.433 7.46 2.37 6.97
10/22/2020 8:00:00 AM 15.25 59.45 0.433 7.46 2.53 6.96
10/22/2020 8:15:00 AM 15.25 59.45 0.433 7.46 2.71 7.01
10/22/2020 8:30:00 AM 15.23 59.414 0.432 7.46 2.4 6.99
10/22/2020 8:45:00 AM 15.23 59.414 0.433 7.46 2.57 7
10/22/2020 9:00:00 AM 15.24 59.432 0.433 7.46 2.48 7.14
10/22/2020 9:15:00 AM 15.25 59.45 0.433 7.46 2.19 7.19
10/22/2020 9:30:00 AM 15.27 59.486 0.433 7.47 2.22 7.15
10/22/2020 9:45:00 AM 15.29 59.522 0.434 7.47 4.08 7.27
10/22/2020 10:00:00 AM 15.31 59.558 0.434 7.48 2.66 7.39
10/22/2020 10:15:00 AM 15.35 59.63 0.434 7.48 2.42 7.39
10/22/2020 10:30:00 AM 15.37 59.666 0.435 7.49 2.34 7.53
10/22/2020 10:45:00 AM 15.43 59.774 0.434 7.5 2.55 7.64
10/22/2020 11:00:00 AM 15.46 59.828 0.434 7.51 2.57 7.77
10/22/2020 11:15:00 AM 15.51 59.918 0.433 7.53 2.51 7.85
10/22/2020 11:30:00 AM 15.53 59.954 0.434 7.53 2.33 7.9
10/22/2020 11:45:00 AM 15.56 60.008 0.434 7.53 16.07 7.91
10/22/2020 12:00:00 PM 15.61 60.098 0.433 7.54 4.95 8.09
10/22/2020 12:15:00 PM 15.65 60.17 0.433 7.55 3.04 8.15
10/22/2020 12:30:00 PM 15.69 60.242 0.433 7.56 3.24 8.16
10/22/2020 12:45:00 PM 15.73 60.314 0.432 7.56 2.67 8.15
10/22/2020 1:00:00 PM 15.77 60.386 0.433 7.56 2.72 8.16
10/22/2020 1:15:00 PM 15.79 60.422 0.433 7.57 2.49 8.21
10/22/2020 1:30:00 PM 15.84 60.512 0.433 7.57 2.7 8.28
10/22/2020 1:45:00 PM 15.88 60.584 0.432 7.58 2.63 8.32
10/22/2020 2:00:00 PM 15.95 60.71 0.432 7.59 3.14 8.43
10/22/2020 2:15:00 PM 16.04 60.872 0.431 7.59 2.8 8.57
10/22/2020 2:30:00 PM 15.48 59.864 0.414 7.29 2.47 8.23
10/22/2020 2:45:00 PM 16.14 61.052 0.429 7.57 2.48 8.64
10/22/2020 3:00:00 PM 16.25 61.25 0.432 7.6 2.59 8.54
10/22/2020 3:15:00 PM 16.35 61.43 0.431 7.63 2.96 8.69
10/22/2020 3:30:00 PM 14.24 57.632 0.374 6.62 2.03 7.62
10/22/2020 3:45:00 PM 16.16 61.088 0.423 7.5 2.51 8.6
10/22/2020 4:00:00 PM 16.47 61.646 0.429 7.61 2.59 8.65
10/22/2020 4:15:00 PM 16.56 61.808 0.431 7.62 2.96 8.55
10/22/2020 4:30:00 PM 16.62 61.916 0.43 7.59 2.71 8.47
10/22/2020 4:45:00 PM 16.64 61.952 0.431 7.61 2.53 8.42
10/22/2020 5:00:00 PM 16.63 61.934 0.432 7.58 2.57 8.27
10/22/2020 5:15:00 PM 16.63 61.934 0.432 7.57 2.68 8.12
10/22/2020 5:30:00 PM 16.65 61.97 0.431 7.59 2.54 8.12
10/22/2020 5:45:00 PM 16.62 61.916 0.431 7.58 2.58 7.99
10/22/2020 6:00:00 PM 16.58 61.844 0.432 7.57 2.85 7.87
10/22/2020 6:15:00 PM 16.54 61.772 0.431 7.56 2.66 7.81
10/22/2020 6:30:00 PM 16.52 61.736 0.431 7.55 2.32 7.72
10/22/2020 6:45:00 PM 16.45 61.61 0.432 7.53 2.25 7.66
10/22/2020 7:00:00 PM 16.42 61.556 0.431 7.52 2.33 7.6
10/22/2020 7:15:00 PM 16.37 61.466 0.432 7.52 2.24 7.5
10/22/2020 7:30:00 PM 14.15 57.47 0.377 6.51 2.1 6.4
10/22/2020 7:45:00 PM 15.98 60.764 0.425 7.38 2.64 7.14
10/22/2020 8:00:00 PM 14.06 57.308 0.376 6.51 2.48 6.3
10/22/2020 8:15:00 PM 15.85 60.53 0.425 7.37 2.68 7.09
10/22/2020 8:30:00 PM 16.05 60.89 0.43 7.48 2.9 7.21
10/22/2020 8:45:00 PM 16.02 60.836 0.431 7.49 2.97 7.14
10/22/2020 9:00:00 PM 15.97 60.746 0.432 7.49 2.85 7.18
10/22/2020 9:15:00 PM 15.91 60.638 0.431 7.49 2.81 7.16
10/22/2020 9:30:00 PM 15.86 60.548 0.432 7.49 2.88 7.13
10/22/2020 9:45:00 PM 13.7 56.66 0.375 6.49 2.39 6.2
10/22/2020 10:00:00 PM 15.47 59.846 0.426 7.34 2.6 6.94
10/22/2020 10:15:00 PM 15.68 60.224 0.431 7.46 2.85 7.09
10/22/2020 10:30:00 PM 15.66 60.188 0.432 7.48 3.05 7.12
10/22/2020 10:45:00 PM 15.61 60.098 0.434 7.48 3.09 7.14
10/22/2020 11:00:00 PM 15.57 60.026 0.433 7.46 2.89 7.17
10/22/2020 11:15:00 PM 15.53 59.954 0.431 7.47 2.81 7.14
10/22/2020 11:30:00 PM 15.51 59.918 0.431 7.48 3.28 7.13
10/22/2020 11:45:00 PM 13.41 56.138 0.375 6.48 3.02 6.14
10/23/2020 12:00:00 AM 15.16 59.288 0.424 7.34 3.38 7.02
10/23/2020 12:15:00 AM 15.35 59.63 0.431 7.46 3.41 7.11
10/23/2020 12:30:00 AM 15.35 59.63 0.432 7.47 3.55 7.16
10/23/2020 12:45:00 AM 15.32 59.576 0.432 7.47 3.34 7.11
10/23/2020 1:00:00 AM 15.29 59.522 0.432 7.48 3.42 7.13
10/23/2020 1:15:00 AM 15.26 59.468 0.433 7.47 3.07 7.13
10/23/2020 1:30:00 AM 15.22 59.396 0.432 7.47 3.11 7.11
10/23/2020 1:45:00 AM 15.19 59.342 0.432 7.47 3.42 7.14
10/23/2020 2:00:00 AM 15.15 59.27 0.432 7.47 3.28 7.16
10/23/2020 2:15:00 AM 15.13 59.234 0.433 7.47 3.77 7.12
10/23/2020 2:30:00 AM 15.09 59.162 0.432 7.47 3.08 7.12
10/23/2020 2:45:00 AM 15.06 59.108 0.431 7.46 2.94 7.12
10/23/2020 3:00:00 AM 15.04 59.072 0.431 7.47 2.89 7.13
10/23/2020 3:15:00 AM 14.99 58.982 0.433 7.47 2.83 7.1
10/23/2020 3:30:00 AM 14.96 58.928 0.431 7.47 2.81 7.09
10/23/2020 3:45:00 AM 14.97 58.946 0.431 7.47 2.78 7.12
10/23/2020 4:00:00 AM 14.96 58.928 0.432 7.47 3.04 7.09
10/23/2020 4:15:00 AM 14.94 58.892 0.431 7.47 2.94 7.11
10/23/2020 4:30:00 AM 14.94 58.892 0.432 7.46 3.79 7.07
10/23/2020 4:45:00 AM 14.94 58.892 0.431 7.47 3.05 7.09
10/23/2020 5:00:00 AM 14.96 58.928 0.432 7.47 3.12 7.04
10/23/2020 5:15:00 AM 14.96 58.928 0.431 7.47 2.87 7.06
10/23/2020 5:30:00 AM 14.97 58.946 0.431 7.47 2.78 7.09
10/23/2020 5:45:00 AM 14.99 58.982 0.43 7.47 2.82 7.09
10/23/2020 6:00:00 AM 14.99 58.982 0.431 7.46 3.28 7.05
10/23/2020 6:15:00 AM 15.01 59.018 0.431 7.46 3.05 7.06
10/23/2020 6:30:00 AM 15.01 59.018 0.432 7.46 2.92 7.07
10/23/2020 6:45:00 AM 15.01 59.018 0.431 7.46 2.8 7.03
10/23/2020 7:00:00 AM 15.02 59.036 0.433 7.46 2.81 7.02
10/23/2020 7:15:00 AM 15.03 59.054 0.432 7.46 2.81 7.03
10/23/2020 7:30:00 AM 15.04 59.072 0.432 7.46 2.75 7.02
10/23/2020 7:45:00 AM 15.04 59.072 0.433 7.46 2.88 6.91
10/23/2020 8:00:00 AM 15.06 59.108 0.433 7.46 3.84 6.99
10/23/2020 8:15:00 AM 15.07 59.126 0.432 7.46 3.35 7.03
10/23/2020 8:30:00 AM 15.07 59.126 0.432 7.46 7.5 7.04
10/23/2020 8:45:00 AM 15.09 59.162 0.432 7.46 3.44 7.05
10/23/2020 9:00:00 AM 15.1 59.18 0.433 7.46 2.72 7.15
10/23/2020 9:15:00 AM 15.11 59.198 0.432 7.47 2.32 7.21
10/23/2020 9:30:00 AM 15.15 59.27 0.433 7.48 3.19 7.29
10/23/2020 9:45:00 AM 15.19 59.342 0.433 7.48 2.54 7.33
10/23/2020 10:00:00 AM 15.24 59.432 0.432 7.49 2.32 7.44
10/23/2020 10:15:00 AM 15.28 59.504 0.433 7.5 2.37 7.55
10/23/2020 10:30:00 AM 15.35 59.63 0.432 7.51 29.49 7.57
10/23/2020 10:45:00 AM 15.4 59.72 0.432 7.52 6.41 7.78
10/23/2020 11:00:00 AM 15.46 59.828 0.432 7.53 2.94 7.88
10/23/2020 11:15:00 AM 15.55 59.99 0.432 7.54 2.39 7.88
10/23/2020 11:30:00 AM 15.64 60.152 0.432 7.56 2.37 8.13
10/23/2020 11:45:00 AM 15.72 60.296 0.432 7.57 2.26 8.24
10/23/2020 12:00:00 PM 15.81 60.458 0.432 7.58 2.33 8.34
10/23/2020 12:15:00 PM 15.88 60.584 0.432 7.57 2.3 8.32
10/23/2020 12:30:00 PM 15.99 60.782 0.431 7.59 2.27 8.39
10/23/2020 12:45:00 PM 16.07 60.926 0.432 7.59 2.46 8.4
10/23/2020 1:00:00 PM 16.21 61.178 0.431 7.61 2.6 8.52
10/23/2020 1:15:00 PM 16.36 61.448 0.43 7.62 2.5 8.64
10/23/2020 1:30:00 PM 16.48 61.664 0.431 7.62 2.46 8.64
10/23/2020 1:45:00 PM 16.59 61.862 0.431 7.6 2.91 8.4
10/23/2020 2:00:00 PM 16.71 62.078 0.431 7.59 2.48 8.47
10/23/2020 2:15:00 PM 16.86 62.348 0.431 7.62 2.77 8.51
10/23/2020 2:30:00 PM 16.95 62.51 0.43 7.61 2.8 8.6
10/23/2020 2:45:00 PM 17.15 62.87 0.43 7.62 2.53 8.62
10/23/2020 3:00:00 PM 17.26 63.068 0.431 7.62 2.83 8.6
10/23/2020 3:15:00 PM 17.26 63.068 0.431 7.6 2.55 8.42
10/23/2020 3:30:00 PM 17.29 63.122 0.431 7.61 3.06 8.28
10/23/2020 3:45:00 PM 17.35 63.23 0.43 7.6 2.54 8.31
10/23/2020 4:00:00 PM 17.36 63.248 0.431 7.58 2.37 8.17
10/23/2020 4:15:00 PM 17.4 63.32 0.431 7.6 2.41 8.06
10/23/2020 4:30:00 PM 17.4 63.32 0.431 7.58 2.29 7.85
10/23/2020 4:45:00 PM 17.39 63.302 0.432 7.57 2.49 7.86
10/23/2020 5:00:00 PM 17.34 63.212 0.432 7.56 2.33 7.89
10/23/2020 5:15:00 PM 17.34 63.212 0.432 7.58 2.38 7.76
10/23/2020 5:30:00 PM 17.26 63.068 0.432 7.57 2.38 7.61
10/23/2020 5:45:00 PM 17.22 62.996 0.432 7.55 2.33 7.54
10/23/2020 6:00:00 PM 17.18 62.924 0.432 7.53 2.25 7.44
10/23/2020 6:15:00 PM 17.1 62.78 0.432 7.54 2.23 7.35
10/23/2020 6:30:00 PM 17.04 62.672 0.433 7.53 2.2 7.31
10/23/2020 6:45:00 PM 17 62.6 0.433 7.53 2.23 7.24
10/23/2020 7:00:00 PM 16.92 62.456 0.432 7.52 2.55 7.22
10/23/2020 7:15:00 PM 16.85 62.33 0.433 7.51 2.23 7.02
10/23/2020 7:30:00 PM 16.79 62.222 0.435 7.52 2.51 7.03
10/23/2020 7:45:00 PM 16.71 62.078 0.433 7.51 2.28 7.01
10/23/2020 8:00:00 PM 16.65 61.97 0.432 7.5 2.41 6.94
10/23/2020 8:15:00 PM 16.59 61.862 0.432 7.48 2.38 6.88
10/23/2020 8:30:00 PM 16.53 61.754 0.434 7.48 2.23 6.85
10/23/2020 8:45:00 PM 16.48 61.664 0.433 7.47 2.36 6.81
10/23/2020 9:00:00 PM 16.42 61.556 0.433 7.48 2.45 6.77
10/23/2020 9:15:00 PM 16.38 61.484 0.432 7.47 2.48 6.65
10/23/2020 9:30:00 PM 16.33 61.394 0.432 7.47 2.52 6.67
10/23/2020 9:45:00 PM 16.28 61.304 0.432 7.47 2.58 6.68
10/23/2020 10:00:00 PM 16.25 61.25 0.433 7.47 2.59 6.63
10/23/2020 10:15:00 PM 16.21 61.178 0.436 7.47 2.68 6.66
10/23/2020 10:30:00 PM 16.17 61.106 0.434 7.46 2.68 6.68
10/23/2020 10:45:00 PM 16.14 61.052 0.433 7.46 2.82 6.62
10/23/2020 11:00:00 PM 16.14 61.052 0.434 7.46 2.63 6.66
10/23/2020 11:15:00 PM 13.98 57.164 0.376 6.47 2.09 5.74
10/23/2020 11:30:00 PM 15.81 60.458 0.425 7.33 2.57 6.49
10/23/2020 11:45:00 PM 16.04 60.872 0.432 7.45 2.63 6.6
10/24/2020 12:00:00 AM 16.04 60.872 0.433 7.46 2.54 6.59
10/24/2020 12:15:00 AM 16.03 60.854 0.432 7.46 2.81 6.59
10/24/2020 12:30:00 AM 16.01 60.818 0.433 7.46 3.15 6.59
10/24/2020 12:45:00 AM 16.02 60.836 0.432 7.45 2.63 6.5
10/24/2020 1:00:00 AM 16 60.8 0.433 7.45 2.44 6.58
10/24/2020 1:15:00 AM 15.98 60.764 0.433 7.45 3.14 6.53
10/24/2020 1:30:00 AM 15.96 60.728 0.433 7.45 2.92 6.57
10/24/2020 1:45:00 AM 15.94 60.692 0.433 7.45 2.59 6.5
10/24/2020 2:00:00 AM 15.91 60.638 0.432 7.45 2.43 6.56
10/24/2020 2:15:00 AM 15.89 60.602 0.432 7.45 2.65 6.53
10/24/2020 2:30:00 AM 15.87 60.566 0.432 7.45 2.73 6.46
10/24/2020 2:45:00 AM 15.83 60.494 0.433 7.45 2.56 6.52
10/24/2020 3:00:00 AM 15.79 60.422 0.434 7.45 2.8 6.53
10/24/2020 3:15:00 AM 15.76 60.368 0.434 7.45 2.78 6.54
10/24/2020 3:30:00 AM 15.72 60.296 0.433 7.45 2.9 6.48
10/24/2020 3:45:00 AM 15.69 60.242 0.435 7.45 2.78 6.51
10/24/2020 4:00:00 AM 15.67 60.206 0.434 7.45 2.74 6.47
10/24/2020 4:15:00 AM 15.62 60.116 0.434 7.45 2.72 6.48
10/24/2020 4:30:00 AM 15.59 60.062 0.433 7.45 2.78 6.53
10/24/2020 4:45:00 AM 15.58 60.044 0.433 7.45 2.66 6.5
10/24/2020 5:00:00 AM 15.55 59.99 0.433 7.45 2.39 6.49
10/24/2020 5:15:00 AM 15.53 59.954 0.433 7.45 2.38 6.54
10/24/2020 5:30:00 AM 15.51 59.918 0.433 7.45 2.72 6.51
10/24/2020 5:45:00 AM 15.5 59.9 0.434 7.45 2.37 6.53
10/24/2020 6:00:00 AM 15.49 59.882 0.434 7.44 2.54 6.51
10/24/2020 6:15:00 AM 15.49 59.882 0.434 7.44 2.73 6.48
10/24/2020 6:30:00 AM 15.49 59.882 0.433 7.44 2.67 6.51
10/24/2020 6:45:00 AM 15.49 59.882 0.433 7.44 2.68 6.52
10/24/2020 7:00:00 AM 15.49 59.882 0.434 7.44 2.58 6.49
10/24/2020 7:15:00 AM 15.51 59.918 0.434 7.44 2.61 6.46
10/24/2020 7:30:00 AM 15.5 59.9 0.437 7.43 3.32 6.33
10/24/2020 7:45:00 AM 15.5 59.9 0.435 7.44 2.86 6.45
10/24/2020 8:00:00 AM 15.5 59.9 0.433 7.44 2.75 6.46
10/24/2020 8:15:00 AM 15.52 59.936 0.435 7.44 3.12 6.45
10/24/2020 8:30:00 AM 15.52 59.936 0.434 7.44 2.78 6.46
10/24/2020 8:45:00 AM 15.52 59.936 0.434 7.44 2.68 6.47
10/24/2020 9:00:00 AM 15.53 59.954 0.434 7.44 2.64 6.48
10/24/2020 9:15:00 AM 15.55 59.99 0.433 7.45 2.5 6.6
10/24/2020 9:30:00 AM 15.59 60.062 0.434 7.45 2.59 6.58
10/24/2020 9:45:00 AM 15.61 60.098 0.435 7.46 2.28 6.73
10/24/2020 10:00:00 AM 15.66 60.188 0.435 7.46 2.09 6.84
10/24/2020 10:15:00 AM 15.74 60.332 0.435 7.47 2.19 6.98
10/24/2020 10:30:00 AM 15.79 60.422 0.435 7.48 2.44 7.14
10/24/2020 10:45:00 AM 15.83 60.494 0.434 7.48 2.25 7.23
10/24/2020 11:00:00 AM 15.91 60.638 0.433 7.5 2.47 7.35
10/24/2020 11:15:00 AM 15.94 60.692 0.433 7.5 2.37 7.42
10/24/2020 11:30:00 AM 15.99 60.782 0.433 7.52 2.37 7.53
10/24/2020 11:45:00 AM 16.03 60.854 0.433 7.52 2.41 7.6
10/24/2020 12:00:00 PM 16.1 60.98 0.435 7.52 2.3 7.52
10/24/2020 12:15:00 PM 14.03 57.254 0.376 6.53 1.74 6.64
10/24/2020 12:30:00 PM 15.94 60.692 0.425 7.4 2.17 7.53
10/24/2020 12:45:00 PM 16.21 61.178 0.432 7.51 2.24 7.65
10/24/2020 1:00:00 PM 16.29 61.322 0.432 7.55 2.26 7.73
10/24/2020 1:15:00 PM 16.28 61.304 0.433 7.53 2.28 7.51
10/24/2020 1:30:00 PM 16.33 61.394 0.433 7.54 2.35 7.8
10/24/2020 1:45:00 PM 16.35 61.43 0.434 7.53 2.15 7.62
10/24/2020 2:00:00 PM 16.34 61.412 0.433 7.52 2.9 7.37
10/24/2020 2:15:00 PM 16.38 61.484 0.433 7.54 2.4 7.53
10/24/2020 2:30:00 PM 16.43 61.574 0.434 7.54 2.25 7.69
10/24/2020 2:45:00 PM 16.46 61.628 0.433 7.54 2.36 7.72
10/24/2020 3:00:00 PM 16.45 61.61 0.433 7.55 2.25 7.68
10/24/2020 3:15:00 PM 16.45 61.61 0.433 7.55 2.29 7.65
10/24/2020 3:30:00 PM 16.46 61.628 0.432 7.58 2.37 7.73
10/24/2020 3:45:00 PM 16.44 61.592 0.433 7.57 2.15 7.73
10/24/2020 4:00:00 PM 16.41 61.538 0.433 7.56 5.74 7.62
10/24/2020 4:15:00 PM 16.38 61.484 0.432 7.56 2.81 7.82
10/24/2020 4:30:00 PM 16.32 61.376 0.434 7.56 2.27 7.71
10/24/2020 4:45:00 PM 16.27 61.286 0.433 7.56 2.29 7.73
10/24/2020 5:00:00 PM 16.22 61.196 0.432 7.56 2.38 7.76
10/24/2020 5:15:00 PM 16.17 61.106 0.432 7.56 2.39 7.71
10/24/2020 5:30:00 PM 16.11 60.998 0.432 7.55 2.46 7.59
10/24/2020 5:45:00 PM 16.05 60.89 0.433 7.55 2.21 7.57
10/24/2020 6:00:00 PM 15.96 60.728 0.432 7.55 2.37 7.52
10/24/2020 6:15:00 PM 15.89 60.602 0.432 7.55 2.22 7.42
10/24/2020 6:30:00 PM 15.81 60.458 0.432 7.54 2.68 7.35
10/24/2020 6:45:00 PM 15.72 60.296 0.434 7.53 2.37 7.23
10/24/2020 7:00:00 PM 15.65 60.17 0.434 7.54 2.3 7.19
10/24/2020 7:15:00 PM 15.59 60.062 0.434 7.52 2.17 6.98
10/24/2020 7:30:00 PM 15.49 59.882 0.433 7.52 2.27 6.98
10/24/2020 7:45:00 PM 15.42 59.756 0.433 7.51 2.29 6.99
10/24/2020 8:00:00 PM 15.36 59.648 0.434 7.51 2.46 6.96
10/24/2020 8:15:00 PM 15.27 59.486 0.434 7.5 4 6.94
10/24/2020 8:30:00 PM 15.19 59.342 0.433 7.5 2.69 6.95
10/24/2020 8:45:00 PM 15.13 59.234 0.434 7.5 2.58 6.91
10/24/2020 9:00:00 PM 15.07 59.126 0.432 7.5 2.44 6.92
10/24/2020 9:15:00 PM 15 59 0.433 7.5 2.38 6.87
10/24/2020 9:30:00 PM 14.91 58.838 0.433 7.5 2.77 6.88
10/24/2020 9:45:00 PM 14.84 58.712 0.434 7.49 2.57 6.83
10/24/2020 10:00:00 PM 14.76 58.568 0.434 7.49 2.61 6.87
10/24/2020 10:15:00 PM 14.69 58.442 0.433 7.48 2.55 6.89
10/24/2020 10:30:00 PM 14.61 58.298 0.433 7.47 2.63 6.9
10/24/2020 10:45:00 PM 14.55 58.19 0.434 7.48 2.63 6.91
10/24/2020 11:00:00 PM 14.5 58.1 0.433 7.48 2.75 6.92
10/24/2020 11:15:00 PM 14.43 57.974 0.434 7.49 2.68 6.91
10/24/2020 11:30:00 PM 14.36 57.848 0.434 7.48 3.13 6.85
10/24/2020 11:45:00 PM 14.28 57.704 0.433 7.48 2.76 6.95
10/25/2020 12:00:00 AM 14.24 57.632 0.433 7.48 2.96 6.89
10/25/2020 12:15:00 AM 14.18 57.524 0.433 7.48 2.58 6.94
10/25/2020 12:30:00 AM 14.13 57.434 0.434 7.48 2.65 6.89
10/25/2020 12:45:00 AM 14.07 57.326 0.434 7.48 2.64 6.92
10/25/2020 1:00:00 AM 14.01 57.218 0.433 7.48 2.72 6.86
10/25/2020 1:15:00 AM 13.95 57.11 0.434 7.48 2.6 6.93
10/25/2020 1:30:00 AM 13.9 57.02 0.434 7.48 2.83 6.95
10/25/2020 1:45:00 AM 13.83 56.894 0.434 7.48 2.58 6.98
10/25/2020 2:00:00 AM 13.78 56.804 0.433 7.48 2.79 6.95
10/25/2020 2:15:00 AM 13.72 56.696 0.433 7.48 2.8 6.98
10/25/2020 2:30:00 AM 13.67 56.606 0.433 7.48 2.7 6.98
10/25/2020 2:45:00 AM 13.61 56.498 0.432 7.48 2.83 7.01
10/25/2020 3:00:00 AM 13.56 56.408 0.433 7.48 2.68 6.99
10/25/2020 3:15:00 AM 13.52 56.336 0.433 7.48 2.54 6.99
10/25/2020 3:30:00 AM 13.44 56.192 0.434 7.48 2.53 7.01
10/25/2020 3:45:00 AM 13.38 56.084 0.433 7.48 2.72 7.08
10/25/2020 4:00:00 AM 13.35 56.03 0.433 7.48 2.81 7
10/25/2020 4:15:00 AM 13.27 55.886 0.434 7.48 3.05 7.07
10/25/2020 4:30:00 AM 13.23 55.814 0.433 7.48 3.2 7.07
10/25/2020 4:45:00 AM 13.17 55.706 0.433 7.48 2.92 7.07
10/25/2020 5:00:00 AM 13.11 55.598 0.434 7.48 3.24 7.07
10/25/2020 5:15:00 AM 13.05 55.49 0.434 7.48 3 7.11
10/25/2020 5:30:00 AM 12.99 55.382 0.434 7.48 3.56 7.12
10/25/2020 5:45:00 AM 12.95 55.31 0.433 7.48 3.04 7.14
10/25/2020 6:00:00 AM 12.93 55.274 0.434 7.48 2.82 7.08
10/25/2020 6:15:00 AM 12.89 55.202 0.435 7.48 2.64 7.13
10/25/2020 6:30:00 AM 12.81 55.058 0.434 7.48 3.11 7.14
10/25/2020 6:45:00 AM 12.79 55.022 0.434 7.48 2.97 7.09
10/25/2020 7:00:00 AM 12.76 54.968 0.435 7.48 3.42 7.12
10/25/2020 7:15:00 AM 12.71 54.878 0.435 7.48 4.2 7.1
10/25/2020 7:30:00 AM 12.67 54.806 0.436 7.48 6.51 7.18
10/25/2020 7:45:00 AM 12.65 54.77 0.435 7.49 3.66 7.18
10/25/2020 8:00:00 AM 12.61 54.698 0.436 7.48 2.83 7.16
10/25/2020 8:15:00 AM 12.57 54.626 0.435 7.49 3.51 7.25
10/25/2020 8:30:00 AM 12.57 54.626 0.435 7.49 2.84 7.23
10/25/2020 8:45:00 AM 12.55 54.59 0.435 7.49 2.74 7.3
10/25/2020 9:00:00 AM 12.52 54.536 0.436 7.49 2.72 7.35
10/25/2020 9:15:00 AM 12.48 54.464 0.435 7.5 2.72 7.47
10/25/2020 9:30:00 AM 12.51 54.518 0.435 7.5 2.68 7.5
10/25/2020 9:45:00 AM 12.53 54.554 0.434 7.51 2.57 7.65
10/25/2020 10:00:00 AM 12.54 54.572 0.434 7.52 2.59 7.76
10/25/2020 10:15:00 AM 12.52 54.536 0.435 7.53 2.52 7.86
10/25/2020 10:30:00 AM 12.53 54.554 0.435 7.54 2.63 8.05
10/25/2020 10:45:00 AM 12.55 54.59 0.434 7.54 2.43 8.19
10/25/2020 11:00:00 AM 12.58 54.644 0.435 7.55 2.67 8.31
10/25/2020 11:15:00 AM 12.6 54.68 0.434 7.56 2.5 8.41
10/25/2020 11:30:00 AM 12.62 54.716 0.435 7.57 2.4 8.48
10/25/2020 11:45:00 AM 12.62 54.716 0.434 7.59 2.55 8.72
10/25/2020 12:00:00 PM 12.68 54.824 0.435 7.6 2.81 8.78
10/25/2020 12:15:00 PM 12.71 54.878 0.433 7.6 2.71 8.95
10/25/2020 12:30:00 PM 12.72 54.896 0.433 7.61 2.49 9.01
10/25/2020 12:45:00 PM 12.7 54.86 0.433 7.62 2.46 9.07
10/25/2020 1:00:00 PM 12.69 54.842 0.433 7.62 2.41 9.04
10/25/2020 1:15:00 PM 12.7 54.86 0.433 7.62 2.27 9.08
10/25/2020 1:30:00 PM 12.72 54.896 0.434 7.63 2.29 9.14
10/25/2020 1:45:00 PM 12.71 54.878 0.433 7.63 2.49 9.19
10/25/2020 2:00:00 PM 12.73 54.914 0.432 7.63 2.87 9.13
10/25/2020 2:15:00 PM 12.71 54.878 0.432 7.64 2.37 9.23
10/25/2020 2:30:00 PM 12.67 54.806 0.433 7.65 2.31 9.32
10/25/2020 2:45:00 PM 12.65 54.77 0.433 7.65 2.29 9.32
10/25/2020 3:00:00 PM 12.63 54.734 0.432 7.65 2.22 9.32
10/25/2020 3:15:00 PM 12.6 54.68 0.431 7.65 2.23 9.27
10/25/2020 3:30:00 PM 12.57 54.626 0.43 7.64 2.36 9.2
10/25/2020 3:45:00 PM 12.56 54.608 0.431 7.63 2.12 9.16
10/25/2020 4:00:00 PM 12.52 54.536 0.431 7.63 2.09 9.11
10/25/2020 4:15:00 PM 12.52 54.536 0.429 7.62 2.16 9.08
10/25/2020 4:30:00 PM 12.49 54.482 0.429 7.62 2.15 8.98
10/25/2020 4:45:00 PM 12.46 54.428 0.43 7.61 2.03 8.92
10/25/2020 5:00:00 PM 12.42 54.356 0.431 7.61 2.3 8.91
10/25/2020 5:15:00 PM 12.4 54.32 0.431 7.61 2.28 8.91
10/25/2020 5:30:00 PM 12.35 54.23 0.431 7.6 2.27 8.78
10/25/2020 5:45:00 PM 12.34 54.212 0.43 7.59 2.15 8.7
10/25/2020 6:00:00 PM 12.29 54.122 0.432 7.59 2.2 8.66
10/25/2020 6:15:00 PM 12.25 54.05 0.43 7.58 2.18 8.58
10/25/2020 6:30:00 PM 12.24 54.032 0.431 7.57 2.19 8.48
10/25/2020 6:45:00 PM 12.2 53.96 0.43 7.57 2.2 8.44
10/25/2020 7:00:00 PM 12.16 53.888 0.431 7.56 2.26 8.38
10/25/2020 7:15:00 PM 12.13 53.834 0.431 7.55 2.19 8.28
10/25/2020 7:30:00 PM 12.12 53.816 0.432 7.55 2.25 8.25
10/25/2020 7:45:00 PM 12.08 53.744 0.431 7.54 2.18 8.17
10/25/2020 8:00:00 PM 12.04 53.672 0.431 7.54 2.2 8.22
10/25/2020 8:15:00 PM 12.01 53.618 0.431 7.54 2.06 8.15
10/25/2020 8:30:00 PM 11.96 53.528 0.43 7.53 2.12 8.13
10/25/2020 8:45:00 PM 11.91 53.438 0.431 7.53 2.18 8.07
10/25/2020 9:00:00 PM 11.88 53.384 0.431 7.53 2.4 8.12
10/25/2020 9:15:00 PM 11.86 53.348 0.431 7.52 2.56 8.1
10/25/2020 9:30:00 PM 11.84 53.312 0.43 7.52 3.54 8.07
10/25/2020 9:45:00 PM 11.81 53.258 0.43 7.53 2.75 8.1
10/25/2020 10:00:00 PM 11.82 53.276 0.43 7.52 2.24 8.06
10/25/2020 10:15:00 PM 11.78 53.204 0.43 7.52 2.3 8.04
10/25/2020 10:30:00 PM 11.74 53.132 0.43 7.52 2.19 8.09
10/25/2020 10:45:00 PM 11.72 53.096 0.429 7.52 2.35 8.11
10/25/2020 11:00:00 PM 11.71 53.078 0.428 7.52 2.38 8.09
10/25/2020 11:15:00 PM 11.69 53.042 0.429 7.52 2.09 8.07
10/25/2020 11:30:00 PM 11.66 52.988 0.43 7.52 2.22 8.08
10/25/2020 11:45:00 PM 11.66 52.988 0.429 7.52 2.16 8.08
10/26/2020 12:00:00 AM 11.62 52.916 0.428 7.52 2.32 8.07
10/26/2020 12:15:00 AM 11.61 52.898 0.428 7.51 2.24 8.05
10/26/2020 12:30:00 AM 11.62 52.916 0.429 7.51 2.22 8.06
10/26/2020 12:45:00 AM 11.59 52.862 0.429 7.51 2.27 8.04
10/26/2020 1:00:00 AM 11.59 52.862 0.429 7.51 2.16 8.02
10/26/2020 1:15:00 AM 11.56 52.808 0.429 7.51 2.14 8.08
10/26/2020 1:30:00 AM 11.57 52.826 0.427 7.51 2.28 8.07
10/26/2020 1:45:00 AM 11.55 52.79 0.427 7.51 2.2 8.05
10/26/2020 2:00:00 AM 11.56 52.808 0.427 7.51 2.11 8.03
10/26/2020 2:15:00 AM 11.56 52.808 0.428 7.51 2.24 8.04
10/26/2020 2:30:00 AM 11.56 52.808 0.428 7.5 10.76 7.92
10/26/2020 2:45:00 AM 11.56 52.808 0.428 7.5 3.72 7.94
10/26/2020 3:00:00 AM 11.53 52.754 0.427 7.5 2.33 8
10/26/2020 3:15:00 AM 11.52 52.736 0.428 7.5 2.44 7.99
10/26/2020 3:30:00 AM 11.53 52.754 0.428 7.5 2.78 7.91
10/26/2020 3:45:00 AM 11.51 52.718 0.427 7.5 36.35 7.89
10/26/2020 4:00:00 AM 11.5 52.7 0.427 7.5 8.01 7.99
10/26/2020 4:15:00 AM 11.5 52.7 0.428 7.5 3.33 7.98
10/26/2020 4:30:00 AM 11.5 52.7 0.427 7.5 2.67 7.97
10/26/2020 4:45:00 AM 11.49 52.682 0.426 7.5 2.19 7.87
10/26/2020 5:00:00 AM 11.48 52.664 0.427 7.5 2.23 7.93
10/26/2020 5:15:00 AM 11.46 52.628 0.426 7.5 2.33 7.9
10/26/2020 5:30:00 AM 11.45 52.61 0.426 7.5 2.25 7.92
10/26/2020 5:45:00 AM 11.43 52.574 0.427 7.5 2.26 7.91
10/26/2020 6:00:00 AM 11.45 52.61 0.427 7.5 2.14 7.92
10/26/2020 6:15:00 AM 11.43 52.574 0.426 7.5 2.31 7.92
10/26/2020 6:30:00 AM 11.41 52.538 0.427 7.5 2.33 7.93
10/26/2020 6:45:00 AM 11.41 52.538 0.427 7.5 2.24 7.9
10/26/2020 7:00:00 AM 11.42 52.556 0.427 7.5 2.25 7.89
10/26/2020 7:15:00 AM 11.4 52.52 0.426 7.5 2.43 7.95
10/26/2020 7:30:00 AM 11.37 52.466 0.426 7.5 2.67 7.95
10/26/2020 7:45:00 AM 11.36 52.448 0.426 7.5 2.7 7.93
10/26/2020 8:00:00 AM 11.36 52.448 0.426 7.5 2.36 7.91
10/26/2020 8:15:00 AM 11.36 52.448 0.426 7.5 2.31 7.95
10/26/2020 8:30:00 AM 11.35 52.43 0.426 7.5 2.39 7.98
10/26/2020 8:45:00 AM 11.35 52.43 0.425 7.5 2.19 8
10/26/2020 9:00:00 AM 11.37 52.466 0.425 7.5 2.18 8
10/26/2020 9:15:00 AM 11.39 52.502 0.424 7.5 2.07 8.07
10/26/2020 9:30:00 AM 11.4 52.52 0.425 7.5 2.06 8.15
10/26/2020 9:45:00 AM 11.46 52.628 0.424 7.51 2.17 8.23
10/26/2020 10:00:00 AM 11.49 52.682 0.423 7.52 1.98 8.34
10/26/2020 10:15:00 AM 11.54 52.772 0.425 7.52 2.03 8.41
10/26/2020 10:30:00 AM 11.59 52.862 0.425 7.54 2.01 8.56
10/26/2020 10:45:00 AM 11.65 52.97 0.424 7.54 2.22 8.66
10/26/2020 11:00:00 AM 11.68 53.024 0.424 7.55 2 8.73
10/26/2020 11:15:00 AM 11.73 53.114 0.425 7.56 2.06 8.83
10/26/2020 11:30:00 AM 11.78 53.204 0.425 7.56 2.13 8.86
10/26/2020 11:45:00 AM 11.79 53.222 0.425 7.57 2.2 8.93
10/26/2020 12:00:00 PM 11.86 53.348 0.423 7.57 2.19 8.99
10/26/2020 12:15:00 PM 11.89 53.402 0.424 7.58 2.36 9.06
10/26/2020 12:30:00 PM 11.91 53.438 0.423 7.59 2.19 9.1
10/26/2020 12:45:00 PM 11.94 53.492 0.423 7.59 2.13 9.17
10/26/2020 1:00:00 PM 11.98 53.564 0.423 7.6 2.24 9.21
10/26/2020 1:15:00 PM 12.02 53.636 0.423 7.6 2.19 9.28
10/26/2020 1:30:00 PM 12.08 53.744 0.423 7.61 2.23 9.28
10/26/2020 1:45:00 PM 12.1 53.78 0.423 7.61 2.94 9.36
10/26/2020 2:00:00 PM 12.15 53.87 0.423 7.62 2.52 9.42
10/26/2020 2:15:00 PM 12.17 53.906 0.422 7.63 2.27 9.44
10/26/2020 2:30:00 PM 12.18 53.924 0.422 7.62 2.04 9.42
10/26/2020 2:45:00 PM 12.19 53.942 0.422 7.61 2.2 9.4
10/26/2020 3:00:00 PM 12.2 53.96 0.421 7.62 3.07 9.35
10/26/2020 3:15:00 PM 12.22 53.996 0.423 7.63 4.21 9.36
10/26/2020 3:30:00 PM 12.26 54.068 0.422 7.62 2.9 9.28
10/26/2020 3:45:00 PM 12.25 54.05 0.422 7.62 2.5 9.28
10/26/2020 4:00:00 PM 12.25 54.05 0.423 7.62 2.21 9.24
10/26/2020 4:15:00 PM 12.26 54.068 0.423 7.61 2.52 9.18
10/26/2020 4:30:00 PM 12.28 54.104 0.423 7.61 2.26 9.14
10/26/2020 4:45:00 PM 12.28 54.104 0.422 7.6 2.28 9.02
10/26/2020 5:00:00 PM 12.27 54.086 0.422 7.6 2.24 9
10/26/2020 5:15:00 PM 12.27 54.086 0.423 7.59 2.38 8.94
10/26/2020 5:30:00 PM 12.28 54.104 0.422 7.59 2.3 8.89
10/26/2020 5:45:00 PM 12.28 54.104 0.422 7.58 2.5 8.8
10/26/2020 6:00:00 PM 12.27 54.086 0.423 7.58 2.3 8.74
10/26/2020 6:15:00 PM 12.28 54.104 0.423 7.57 2.19 8.65
10/26/2020 6:30:00 PM 12.27 54.086 0.422 7.56 2.33 8.57
10/26/2020 6:45:00 PM 12.26 54.068 0.423 7.56 2.41 8.55
10/26/2020 7:00:00 PM 12.26 54.068 0.423 7.56 2.22 8.53
10/26/2020 7:15:00 PM 12.28 54.104 0.423 7.55 2.23 8.41
10/26/2020 7:30:00 PM 12.26 54.068 0.423 7.55 2.23 8.41
10/26/2020 7:45:00 PM 12.26 54.068 0.422 7.54 2.25 8.35
10/26/2020 8:00:00 PM 12.26 54.068 0.422 7.54 2.46 8.31
10/26/2020 8:15:00 PM 12.26 54.068 0.423 7.53 2.26 8.29
10/26/2020 8:30:00 PM 12.28 54.104 0.423 7.54 2.22 8.27
10/26/2020 8:45:00 PM 12.27 54.086 0.421 7.53 2.22 8.29
10/26/2020 9:00:00 PM 12.26 54.068 0.422 7.53 2.07 8.25
10/26/2020 9:15:00 PM 12.27 54.086 0.421 7.53 2.3 8.22
10/26/2020 9:30:00 PM 12.27 54.086 0.422 7.53 2.13 8.19
10/26/2020 9:45:00 PM 12.27 54.086 0.421 7.52 2.29 8.17
10/26/2020 10:00:00 PM 12.29 54.122 0.421 7.52 2.2 8.12
10/26/2020 10:15:00 PM 12.28 54.104 0.421 7.52 2.62 8.15
10/26/2020 10:30:00 PM 12.29 54.122 0.422 7.52 2.32 8.09
10/26/2020 10:45:00 PM 12.28 54.104 0.421 7.52 2.37 8.09
10/26/2020 11:00:00 PM 12.28 54.104 0.42 7.52 2.2 8.14
10/26/2020 11:15:00 PM 12.3 54.14 0.42 7.52 2.31 8.14
10/26/2020 11:30:00 PM 12.31 54.158 0.42 7.52 2.49 8.08
10/26/2020 11:45:00 PM 12.3 54.14 0.422 7.52 2.34 8.1
10/27/2020 12:00:00 AM 12.29 54.122 0.421 7.52 2.19 8.12
10/27/2020 12:15:00 AM 12.29 54.122 0.421 7.52 2.3 8.15
10/27/2020 12:30:00 AM 12.3 54.14 0.42 7.52 2.31 8.09
10/27/2020 12:45:00 AM 12.31 54.158 0.42 7.52 2.4 8.09
10/27/2020 1:00:00 AM 12.29 54.122 0.42 7.52 2.22 8.12
10/27/2020 1:15:00 AM 12.31 54.158 0.42 7.52 2.22 8.07
10/27/2020 1:30:00 AM 12.3 54.14 0.42 7.52 2.35 7.95
10/27/2020 1:45:00 AM 12.27 54.086 0.42 7.52 2.33 8.04
10/27/2020 2:00:00 AM 12.25 54.05 0.42 7.52 3.62 8.01
10/27/2020 2:15:00 AM 12.26 54.068 0.419 7.52 2.72 8.01
10/27/2020 2:30:00 AM 12.25 54.05 0.42 7.52 2.77 8.01
10/27/2020 2:45:00 AM 12.25 54.05 0.42 7.51 2.76 7.96
10/27/2020 3:00:00 AM 12.23 54.014 0.42 7.51 2.7 7.97
10/27/2020 3:15:00 AM 12.22 53.996 0.419 7.51 2.47 7.95
10/27/2020 3:30:00 AM 12.21 53.978 0.42 7.51 2.29 8
10/27/2020 3:45:00 AM 12.21 53.978 0.421 7.51 2.51 7.95
10/27/2020 4:00:00 AM 12.21 53.978 0.42 7.51 2.46 7.91
10/27/2020 4:15:00 AM 12.21 53.978 0.421 7.5 2.31 7.91
10/27/2020 4:30:00 AM 12.21 53.978 0.421 7.5 2.32 7.93
10/27/2020 4:45:00 AM 12.22 53.996 0.42 7.51 2.35 7.9
10/27/2020 5:00:00 AM 12.22 53.996 0.42 7.51 2.3 7.9
10/27/2020 5:15:00 AM 12.21 53.978 0.421 7.51 2.76 7.88
10/27/2020 5:30:00 AM 12.21 53.978 0.421 7.5 2.37 7.86
10/27/2020 5:45:00 AM 12.21 53.978 0.421 7.5 2.28 7.85
10/27/2020 6:00:00 AM 12.2 53.96 0.42 7.5 2.33 7.9
10/27/2020 6:15:00 AM 12.2 53.96 0.421 7.5 2.25 7.9
10/27/2020 6:30:00 AM 12.2 53.96 0.421 7.5 2.29 7.92
10/27/2020 6:45:00 AM 12.22 53.996 0.421 7.5 2.22 7.89
10/27/2020 7:00:00 AM 12.22 53.996 0.421 7.5 2.41 7.88
10/27/2020 7:15:00 AM 12.22 53.996 0.42 7.49 3.59 7.79
10/27/2020 7:30:00 AM 12.21 53.978 0.42 7.49 3.14 7.79
10/27/2020 7:45:00 AM 12.22 53.996 0.42 7.5 2.69 7.79
10/27/2020 8:00:00 AM 12.21 53.978 0.42 7.5 2.53 7.8
10/27/2020 8:15:00 AM 12.21 53.978 0.421 7.5 2.42 7.82
10/27/2020 8:30:00 AM 12.22 53.996 0.421 7.5 2.34 7.8
10/27/2020 8:45:00 AM 12.23 54.014 0.421 7.5 2.35 7.81
10/27/2020 9:00:00 AM 12.23 54.014 0.42 7.5 2.52 7.93
10/27/2020 9:15:00 AM 12.24 54.032 0.42 7.51 2.29 7.95
10/27/2020 9:30:00 AM 12.28 54.104 0.42 7.52 2.29 8.08
10/27/2020 9:45:00 AM 12.31 54.158 0.421 7.52 2.24 8.22
10/27/2020 10:00:00 AM 12.34 54.212 0.42 7.53 2.32 8.29
10/27/2020 10:15:00 AM 12.36 54.248 0.419 7.54 2.52 8.49
10/27/2020 10:30:00 AM 12.38 54.284 0.419 7.55 2.43 8.6
10/27/2020 10:45:00 AM 12.4 54.32 0.42 7.57 2.41 8.7
10/27/2020 11:00:00 AM 12.48 54.464 0.419 7.58 2.18 8.82
10/27/2020 11:15:00 AM 12.62 54.716 0.42 7.58 2.23 8.93
10/27/2020 11:30:00 AM 11.04 51.872 0.365 6.58 1.95 7.76
10/27/2020 11:45:00 AM 12.57 54.626 0.412 7.47 2.22 8.93
10/27/2020 12:00:00 PM 12.87 55.166 0.419 7.59 2.24 9.12
10/27/2020 12:15:00 PM 13.01 55.418 0.419 7.61 2.31 9.16
10/27/2020 12:30:00 PM 13.08 55.544 0.419 7.62 2.21 9.3
10/27/2020 12:45:00 PM 13.16 55.688 0.42 7.63 2.52 9.26
10/27/2020 1:00:00 PM 13.28 55.904 0.419 7.64 2.61 9.21
10/27/2020 1:15:00 PM 13.44 56.192 0.419 7.65 2.58 9.31
10/27/2020 1:30:00 PM 13.57 56.426 0.42 7.64 2.96 9.35
10/27/2020 1:45:00 PM 13.73 56.714 0.419 7.66 6.23 9.55
10/27/2020 2:00:00 PM 13.84 56.912 0.419 7.68 4.35 9.58
10/27/2020 2:15:00 PM 13.91 57.038 0.419 7.67 3.04 9.55
10/27/2020 2:30:00 PM 13.95 57.11 0.419 7.66 2.32 9.49
10/27/2020 2:45:00 PM 13.98 57.164 0.42 7.66 2.21 9.47
10/27/2020 3:00:00 PM 14.01 57.218 0.419 7.68 2.47 9.38
10/27/2020 3:15:00 PM 14.05 57.29 0.418 7.7 2.11 9.47
10/27/2020 3:30:00 PM 14.03 57.254 0.419 7.69 2.08 9.3
10/27/2020 3:45:00 PM 14.05 57.29 0.419 7.69 2.34 9.33
10/27/2020 4:00:00 PM 14.03 57.254 0.42 7.69 3.46 9.33
10/27/2020 4:15:00 PM 14.01 57.218 0.418 7.67 2983.94 9.23
10/27/2020 4:30:00 PM 13.98 57.164 0.424 7.64 415.75 8.91
10/27/2020 4:45:00 PM 13.94 57.092 0.421 7.65 83.6 9.07
10/27/2020 5:00:00 PM 13.9 57.02 0.421 7.66 14.46 9.12
10/27/2020 5:15:00 PM 13.85 56.93 0.421 7.66 3.67 9.05
10/27/2020 5:30:00 PM 13.8 56.84 0.42 7.64 2.25 8.94
10/27/2020 5:45:00 PM 13.76 56.768 0.42 7.63 1.92 8.78
10/27/2020 6:00:00 PM 13.69 56.642 0.42 7.62 2.09 8.73
10/27/2020 6:15:00 PM 13.63 56.534 0.42 7.62 1.81 8.69
10/27/2020 6:30:00 PM 13.58 56.444 0.421 7.61 1.8 8.63
10/27/2020 6:45:00 PM 13.54 56.372 0.42 7.61 1.78 8.57
10/27/2020 7:00:00 PM 13.49 56.282 0.42 7.6 1.87 8.42
10/27/2020 7:15:00 PM 13.44 56.192 0.421 7.59 2.06 8.32
10/27/2020 7:30:00 PM 13.41 56.138 0.42 7.59 1.91 8.31
10/27/2020 7:45:00 PM 13.37 56.066 0.421 7.57 1.95 8.21
10/27/2020 8:00:00 PM 13.34 56.012 0.422 7.57 1.9 8.16
10/27/2020 8:15:00 PM 11.55 52.79 0.366 6.57 1.47 7.09
10/27/2020 8:30:00 PM 13.05 55.49 0.415 7.42 1.78 7.95
10/27/2020 8:45:00 PM 13.23 55.814 0.421 7.54 1.89 8.1
10/27/2020 9:00:00 PM 13.24 55.832 0.421 7.55 1.82 8.12
10/27/2020 9:15:00 PM 13.24 55.832 0.42 7.55 1.84 8.12
10/27/2020 9:30:00 PM 13.23 55.814 0.423 7.55 2.26 8.09
10/27/2020 9:45:00 PM 13.22 55.796 0.421 7.54 1.98 8
10/27/2020 10:00:00 PM 13.22 55.796 0.422 7.54 1.98 8
10/27/2020 10:15:00 PM 13.19 55.742 0.422 7.54 2.1 7.99
10/27/2020 10:30:00 PM 13.18 55.724 0.421 7.54 2 8.05
10/27/2020 10:45:00 PM 13.19 55.742 0.422 7.54 1.91 8.02
10/27/2020 11:00:00 PM 13.18 55.724 0.422 7.54 1.96 7.95
10/27/2020 11:15:00 PM 13.16 55.688 0.421 7.54 2.01 7.96
10/27/2020 11:30:00 PM 13.15 55.67 0.421 7.53 1.97 7.97
10/27/2020 11:45:00 PM 13.14 55.652 0.421 7.53 1.93 7.93
10/28/2020 12:00:00 AM 13.14 55.652 0.422 7.53 1.92 7.89
10/28/2020 12:15:00 AM 13.13 55.634 0.421 7.53 2.06 7.87
10/28/2020 12:30:00 AM 13.13 55.634 0.422 7.53 1.86 7.89
10/28/2020 12:45:00 AM 11.39 52.502 0.366 6.52 1.56 6.81
10/28/2020 1:00:00 AM 12.89 55.202 0.413 7.39 1.96 7.73
10/28/2020 1:15:00 AM 13.09 55.562 0.42 7.51 1.99 7.84
10/28/2020 1:30:00 AM 13.1 55.58 0.421 7.52 2.17 7.84
10/28/2020 1:45:00 AM 13.11 55.598 0.421 7.52 2.08 7.87
10/28/2020 2:00:00 AM 13.11 55.598 0.422 7.52 2.27 7.8
10/28/2020 2:15:00 AM 13.09 55.562 0.421 7.52 2.45 7.79
10/28/2020 2:30:00 AM 13.09 55.562 0.421 7.51 2.52 7.78
10/28/2020 2:45:00 AM 13.08 55.544 0.422 7.52 2.31 7.75
10/28/2020 3:00:00 AM 13.06 55.508 0.421 7.52 2.24 7.69
10/28/2020 3:15:00 AM 13.05 55.49 0.422 7.52 2.14 7.71
10/28/2020 3:30:00 AM 13.06 55.508 0.421 7.52 2.14 7.66
10/28/2020 3:45:00 AM 13.05 55.49 0.421 7.51 2.22 7.65
10/28/2020 4:00:00 AM 13.04 55.472 0.421 7.51 2.14 7.64
10/28/2020 4:15:00 AM 13.02 55.436 0.422 7.51 2.92 7.66
10/28/2020 4:30:00 AM 13.01 55.418 0.422 7.51 2.21 7.66
10/28/2020 4:45:00 AM 13 55.4 0.423 7.51 5.16 7.67
10/28/2020 5:00:00 AM 12.99 55.382 0.422 7.51 2.59 7.67
10/28/2020 5:15:00 AM 12.98 55.364 0.422 7.51 2.18 7.63
10/28/2020 5:30:00 AM 12.96 55.328 0.422 7.51 1.98 7.64
10/28/2020 5:45:00 AM 12.95 55.31 0.422 7.51 1.92 7.65
10/28/2020 6:00:00 AM 12.94 55.292 0.422 7.5 2.38 7.63
10/28/2020 6:15:00 AM 12.94 55.292 0.422 7.49 2.28 7.57
10/28/2020 6:30:00 AM 12.93 55.274 0.422 7.5 2.21 7.63
10/28/2020 6:45:00 AM 11.19 52.142 0.367 6.5 1.67 6.61
10/28/2020 7:00:00 AM 12.68 54.824 0.414 7.37 2.02 7.46
10/28/2020 7:15:00 AM 12.86 55.148 0.422 7.48 2.25 7.59
10/28/2020 7:30:00 AM 12.88 55.184 0.422 7.49 2.24 7.62
10/28/2020 7:45:00 AM 12.87 55.166 0.423 7.5 2.21 7.62
10/28/2020 8:00:00 AM 12.87 55.166 0.423 7.5 2.56 7.58
10/28/2020 8:15:00 AM 12.87 55.166 0.424 7.5 2.23 7.57
10/28/2020 8:30:00 AM 12.85 55.13 0.422 7.5 2.12 7.56
10/28/2020 8:45:00 AM 12.84 55.112 0.422 7.49 2.13 7.55
10/28/2020 9:00:00 AM 12.83 55.094 0.423 7.5 2.07 7.57
10/28/2020 9:15:00 AM 12.84 55.112 0.423 7.5 2.31 7.64
10/28/2020 9:30:00 AM 12.85 55.13 0.422 7.5 2.02 7.71
10/28/2020 9:45:00 AM 12.87 55.166 0.423 7.51 1.85 7.74
10/28/2020 10:00:00 AM 12.87 55.166 0.423 7.51 2.27 7.81
10/28/2020 10:15:00 AM 12.89 55.202 0.422 7.52 2.19 7.89
10/28/2020 10:30:00 AM 12.9 55.22 0.424 7.52 2.03 7.94
10/28/2020 10:45:00 AM 12.93 55.274 0.423 7.53 2.13 8.05
10/28/2020 11:00:00 AM 12.94 55.292 0.423 7.53 2.89 8.07
10/28/2020 11:15:00 AM 12.96 55.328 0.422 7.54 2.1 8.12
10/28/2020 11:30:00 AM 12.99 55.382 0.423 7.55 2.65 8.24
10/28/2020 11:45:00 AM 13.04 55.472 0.422 7.55 2.23 8.38
10/28/2020 12:00:00 PM 13.05 55.49 0.421 7.56 2.1 8.46
10/28/2020 12:15:00 PM 13.07 55.526 0.422 7.57 1.94 8.47
10/28/2020 12:30:00 PM 13.09 55.562 0.423 7.56 2.04 8.34
10/28/2020 12:45:00 PM 13.14 55.652 0.422 7.57 2.27 8.51
10/28/2020 1:00:00 PM 13.16 55.688 0.422 7.58 2.19 8.61
10/28/2020 1:15:00 PM 13.16 55.688 0.422 7.58 2.05 8.65
10/28/2020 1:30:00 PM 13.17 55.706 0.422 7.59 2.09 8.68
10/28/2020 1:45:00 PM 13.19 55.742 0.421 7.59 2.16 8.68
10/28/2020 2:00:00 PM 13.2 55.76 0.422 7.59 2.31 8.65
10/28/2020 2:15:00 PM 13.22 55.796 0.421 7.59 2.3 8.6
10/28/2020 2:30:00 PM 13.24 55.832 0.421 7.6 2.15 8.7
10/28/2020 2:45:00 PM 13.27 55.886 0.421 7.6 2.04 8.67
10/28/2020 3:00:00 PM 13.28 55.904 0.423 7.6 2.08 8.81
10/28/2020 3:15:00 PM 13.29 55.922 0.422 7.6 2 8.76
10/28/2020 3:30:00 PM 13.31 55.958 0.422 7.61 1.99 8.78
10/28/2020 3:45:00 PM 13.3 55.94 0.422 7.6 2.02 8.73
10/28/2020 4:00:00 PM 13.3 55.94 0.422 7.6 2.18 8.68
10/28/2020 4:15:00 PM 13.29 55.922 0.422 7.59 2.1 8.64
10/28/2020 4:30:00 PM 13.29 55.922 0.422 7.59 2.2 8.57
10/28/2020 4:45:00 PM 13.3 55.94 0.422 7.58 2.24 8.53
10/28/2020 5:00:00 PM 11.54 52.772 0.366 6.58 1.72 7.4
10/28/2020 5:15:00 PM 13.06 55.508 0.415 7.45 2.03 8.34
10/28/2020 5:30:00 PM 13.25 55.85 0.422 7.56 1.97 8.41
10/28/2020 5:45:00 PM 13.27 55.886 0.423 7.57 2.12 8.26
10/28/2020 6:00:00 PM 13.26 55.868 0.422 7.56 2.18 8.26
10/28/2020 6:15:00 PM 13.26 55.868 0.422 7.56 2.07 8.2
10/28/2020 6:30:00 PM 13.25 55.85 0.422 7.55 2.08 8.14
10/28/2020 6:45:00 PM 13.24 55.832 0.423 7.55 2.11 8.1
10/28/2020 7:00:00 PM 13.22 55.796 0.423 7.55 2.11 8.04
10/28/2020 7:15:00 PM 13.2 55.76 0.422 7.54 2.41 7.99
10/28/2020 7:30:00 PM 13.19 55.742 0.424 7.54 2.21 7.94
10/28/2020 7:45:00 PM 13.17 55.706 0.423 7.53 2.45 7.92
10/28/2020 8:00:00 PM 13.15 55.67 0.423 7.53 3.31 7.84
10/28/2020 8:15:00 PM 13.13 55.634 0.422 7.53 2.73 7.85
10/28/2020 8:30:00 PM 13.12 55.616 0.423 7.52 2.36 7.82
10/28/2020 8:45:00 PM 13.11 55.598 0.423 7.52 2.45 7.84
10/28/2020 9:00:00 PM 13.11 55.598 0.422 7.52 2.45 7.8
10/28/2020 9:15:00 PM 13.09 55.562 0.423 7.52 2.31 7.76
10/28/2020 9:30:00 PM 13.08 55.544 0.423 7.52 2.34 7.77
10/28/2020 9:45:00 PM 13.07 55.526 0.423 7.52 2.53 7.75
10/28/2020 10:00:00 PM 13.08 55.544 0.423 7.51 2.19 7.79
10/28/2020 10:15:00 PM 13.05 55.49 0.423 7.51 2.21 7.76
10/28/2020 10:30:00 PM 13.04 55.472 0.423 7.52 2.25 7.76
10/28/2020 10:45:00 PM 13.04 55.472 0.422 7.51 2.17 7.75
10/28/2020 11:00:00 PM 13.02 55.436 0.424 7.51 2.19 7.78
10/28/2020 11:15:00 PM 13.01 55.418 0.424 7.51 2 7.69
10/28/2020 11:30:00 PM 13 55.4 0.423 7.51 2.45 7.64
10/28/2020 11:45:00 PM 12.97 55.346 0.423 7.51 2.2 7.73
10/29/2020 12:00:00 AM 12.95 55.31 0.422 7.51 2.31 7.75
10/29/2020 12:15:00 AM 12.94 55.292 0.422 7.51 2.74 7.77
10/29/2020 12:30:00 AM 12.94 55.292 0.423 7.51 2.41 7.77
10/29/2020 12:45:00 AM 12.93 55.274 0.423 7.51 2.15 7.72
10/29/2020 1:00:00 AM 12.91 55.238 0.424 7.51 2.1 7.69
10/29/2020 1:15:00 AM 12.89 55.202 0.423 7.51 2.19 7.76
10/29/2020 1:30:00 AM 12.88 55.184 0.423 7.51 2.12 7.74
10/29/2020 1:45:00 AM 12.87 55.166 0.423 7.51 2.15 7.76
10/29/2020 2:00:00 AM 12.86 55.148 0.424 7.5 2.88 7.68
10/29/2020 2:15:00 AM 12.85 55.13 0.424 7.5 2.33 7.72
10/29/2020 2:30:00 AM 12.85 55.13 0.423 7.5 2.31 7.73
10/29/2020 2:45:00 AM 12.85 55.13 0.423 7.5 2.3 7.71
10/29/2020 3:00:00 AM 12.86 55.148 0.423 7.5 2.17 7.68
10/29/2020 3:15:00 AM 12.85 55.13 0.423 7.5 2.07 7.65
10/29/2020 3:30:00 AM 12.84 55.112 0.423 7.5 4.82 7.66
10/29/2020 3:45:00 AM 12.85 55.13 0.423 7.5 2.6 7.69
10/29/2020 4:00:00 AM 12.85 55.13 0.422 7.5 2.19 7.68
10/29/2020 4:15:00 AM 12.86 55.148 0.423 7.5 1.98 7.69
10/29/2020 4:30:00 AM 12.84 55.112 0.424 7.5 2.07 7.69
10/29/2020 4:45:00 AM 12.85 55.13 0.423 7.5 2.46 7.62
10/29/2020 5:00:00 AM 12.85 55.13 0.423 7.5 2.39 7.64
10/29/2020 5:15:00 AM 12.84 55.112 0.422 7.5 2.7 7.63
10/29/2020 5:30:00 AM 11.14 52.052 0.368 6.51 2.15 6.63
10/29/2020 5:45:00 AM 12.6 54.68 0.415 7.36 2.19 7.53
10/29/2020 6:00:00 AM 12.79 55.022 0.421 7.48 2.34 7.61
10/29/2020 6:15:00 AM 12.83 55.094 0.421 7.49 2.54 7.6
10/29/2020 6:30:00 AM 12.83 55.094 0.422 7.5 2.74 7.56
10/29/2020 6:45:00 AM 12.81 55.058 0.42 7.5 2.42 7.58
10/29/2020 7:00:00 AM 12.8 55.04 0.42 7.49 2.25 7.57
10/29/2020 7:15:00 AM 11.08 51.944 0.364 6.49 1.89 6.55
10/29/2020 7:30:00 AM 12.54 54.572 0.411 7.36 2.08 7.38
10/29/2020 7:45:00 AM 12.71 54.878 0.419 7.47 2.54 7.5
10/29/2020 8:00:00 AM 12.72 54.896 0.419 7.48 2.33 7.45
10/29/2020 8:15:00 AM 12.69 54.842 0.418 7.48 2.05 7.52
10/29/2020 8:30:00 AM 12.65 54.77 0.418 7.48 6.06 7.43
10/29/2020 8:45:00 AM 12.63 54.734 0.418 7.48 3.21 7.51
10/29/2020 9:00:00 AM 12.6 54.68 0.416 7.49 2.55 7.52
10/29/2020 9:15:00 AM 12.56 54.608 0.414 7.49 2.44 7.64
10/29/2020 9:30:00 AM 12.52 54.536 0.413 7.49 2.53 7.68
10/29/2020 9:45:00 AM 12.48 54.464 0.412 7.49 2.48 7.74
10/29/2020 10:00:00 AM 12.45 54.41 0.41 7.5 2.37 7.76
10/29/2020 10:15:00 AM 12.42 54.356 0.408 7.5 2.47 7.82
10/29/2020 10:30:00 AM 12.38 54.284 0.407 7.5 2.6 7.89
10/29/2020 10:45:00 AM 12.36 54.248 0.405 7.5 2.74 7.93
10/29/2020 11:00:00 AM 12.34 54.212 0.405 7.51 2.66 8.03
10/29/2020 11:15:00 AM 12.32 54.176 0.404 7.51 2.6 8.03
10/29/2020 11:30:00 AM 12.31 54.158 0.404 7.51 2.54 8.08
10/29/2020 11:45:00 AM 12.31 54.158 0.402 7.52 2.56 8.08
10/29/2020 12:00:00 PM 12.32 54.176 0.401 7.52 2.56 8.12
10/29/2020 12:15:00 PM 12.31 54.158 0.403 7.52 2.79 8.07
10/29/2020 12:30:00 PM 12.3 54.14 0.401 7.52 2.58 8.1
10/29/2020 12:45:00 PM 12.29 54.122 0.401 7.52 2.52 8.17
10/29/2020 1:00:00 PM 12.29 54.122 0.4 7.53 2.79 8.29
10/29/2020 1:15:00 PM 12.3 54.14 0.4 7.54 2.72 8.32
10/29/2020 1:30:00 PM 12.31 54.158 0.4 7.54 2.66 8.37
10/29/2020 1:45:00 PM 12.31 54.158 0.4 7.55 2.75 8.42
10/29/2020 2:00:00 PM 12.31 54.158 0.4 7.55 2.71 8.4
10/29/2020 2:15:00 PM 12.32 54.176 0.401 7.55 3.23 8.44
10/29/2020 2:30:00 PM 12.33 54.194 0.4 7.55 3.17 8.45
10/29/2020 2:45:00 PM 12.33 54.194 0.4 7.55 3.81 8.44
10/29/2020 3:00:00 PM 12.33 54.194 0.398 7.55 3.51 8.42
10/29/2020 3:15:00 PM 12.32 54.176 0.397 7.55 3.61 8.47
10/29/2020 3:30:00 PM 12.33 54.194 0.397 7.55 3.52 8.45
10/29/2020 3:45:00 PM 12.33 54.194 0.397 7.55 3.38 8.46
10/29/2020 4:00:00 PM 12.32 54.176 0.396 7.55 3.48 8.45
10/29/2020 4:15:00 PM 12.31 54.158 0.395 7.54 4.02 8.43
10/29/2020 4:30:00 PM 12.32 54.176 0.395 7.54 3.42 8.33
10/29/2020 4:45:00 PM 12.31 54.158 0.394 7.53 3.92 8.25
10/29/2020 5:00:00 PM 12.28 54.104 0.393 7.54 4.08 8.39
10/29/2020 5:15:00 PM 12.25 54.05 0.392 7.54 4.17 8.41
10/29/2020 5:30:00 PM 12.24 54.032 0.391 7.54 4.65 8.38
10/29/2020 5:45:00 PM 12.21 53.978 0.39 7.54 4.82 8.42
10/29/2020 6:00:00 PM 10.58 51.044 0.338 6.55 4.21 7.3
10/29/2020 6:15:00 PM 11.94 53.492 0.381 7.42 5.36 8.3
10/29/2020 6:30:00 PM 10.54 50.972 0.336 6.55 5.14 7.34
10/29/2020 6:45:00 PM 11.92 53.456 0.379 7.41 8.38 8.27
10/29/2020 7:00:00 PM 12.09 53.762 0.384 7.53 15.8 8.47
10/29/2020 7:15:00 PM 12.12 53.816 0.384 7.55 15.06 8.5
10/29/2020 7:30:00 PM 12.11 53.798 0.383 7.56 13.27 8.6
10/29/2020 7:45:00 PM 12.11 53.798 0.381 7.57 13.2 8.63
10/29/2020 8:00:00 PM 12.09 53.762 0.379 7.58 12.33 8.64
10/29/2020 8:15:00 PM 12.08 53.744 0.379 7.58 10.79 8.63
10/29/2020 8:30:00 PM 12.06 53.708 0.378 7.58 11.41 8.67
10/29/2020 8:45:00 PM 12.05 53.69 0.377 7.57 10.37 8.61
10/29/2020 9:00:00 PM 12.03 53.654 0.378 7.57 10.45 8.6
10/29/2020 9:15:00 PM 12.02 53.636 0.378 7.57 10.43 8.63
10/29/2020 9:30:00 PM 12 53.6 0.376 7.57 9.66 8.63
10/29/2020 9:45:00 PM 11.99 53.582 0.376 7.57 10.39 8.57
10/29/2020 10:00:00 PM 11.98 53.564 0.377 7.57 10.27 8.6
10/29/2020 10:15:00 PM 11.97 53.546 0.376 7.57 9.55 8.59
10/29/2020 10:30:00 PM 11.96 53.528 0.376 7.57 10.8 8.56
10/29/2020 10:45:00 PM 11.95 53.51 0.375 7.57 10.75 8.54
10/29/2020 11:00:00 PM 11.94 53.492 0.376 7.57 10.99 8.51
10/29/2020 11:15:00 PM 11.92 53.456 0.376 7.56 10.89 8.5
10/29/2020 11:30:00 PM 11.91 53.438 0.377 7.56 11.51 8.49
10/29/2020 11:45:00 PM 11.9 53.42 0.376 7.56 11.07 8.47
10/30/2020 12:00:00 AM 11.89 53.402 0.375 7.56 10.57 8.45
10/30/2020 12:15:00 AM 11.89 53.402 0.375 7.55 10.33 8.4
10/30/2020 12:30:00 AM 11.88 53.384 0.374 7.55 10.31 8.4
10/30/2020 12:45:00 AM 11.86 53.348 0.373 7.56 10.86 8.47
10/30/2020 1:00:00 AM 11.85 53.33 0.372 7.56 10.94 8.51
10/30/2020 1:15:00 AM 11.84 53.312 0.371 7.56 9.65 8.51
10/30/2020 1:30:00 AM 11.82 53.276 0.371 7.56 10.09 8.56
10/30/2020 1:45:00 AM 11.79 53.222 0.37 7.56 9.61 8.58
10/30/2020 2:00:00 AM 11.78 53.204 0.37 7.56 9.84 8.55
10/30/2020 2:15:00 AM 11.75 53.15 0.37 7.56 9.58 8.59
10/30/2020 2:30:00 AM 11.72 53.096 0.37 7.56 9.96 8.65
10/30/2020 2:45:00 AM 11.7 53.06 0.37 7.56 9.73 8.62
10/30/2020 3:00:00 AM 11.69 53.042 0.371 7.56 9.46 8.6
10/30/2020 3:15:00 AM 11.67 53.006 0.371 7.56 9.25 8.64
10/30/2020 3:30:00 AM 11.64 52.952 0.371 7.56 8.58 8.66
10/30/2020 3:45:00 AM 11.63 52.934 0.371 7.56 9.36 8.68
10/30/2020 4:00:00 AM 11.61 52.898 0.37 7.56 9.55 8.63
10/30/2020 4:15:00 AM 11.58 52.844 0.369 7.57 9.04 8.68
10/30/2020 4:30:00 AM 11.55 52.79 0.369 7.57 9.81 8.74
10/30/2020 4:45:00 AM 11.51 52.718 0.368 7.57 9.31 8.77
10/30/2020 5:00:00 AM 11.48 52.664 0.367 7.57 9.52 8.81
10/30/2020 5:15:00 AM 11.45 52.61 0.366 7.57 9.22 8.82
10/30/2020 5:30:00 AM 11.43 52.574 0.366 7.57 9.86 8.81
10/30/2020 5:45:00 AM 11.41 52.538 0.365 7.56 9.45 8.79
10/30/2020 6:00:00 AM 11.4 52.52 0.365 7.56 9.4 8.83
10/30/2020 6:15:00 AM 11.38 52.484 0.364 7.56 9.68 8.81
10/30/2020 6:30:00 AM 11.36 52.448 0.363 7.55 9.22 8.8
10/30/2020 6:45:00 AM 11.35 52.43 0.363 7.55 8.69 8.75
10/30/2020 7:00:00 AM 11.33 52.394 0.362 7.54 24.8 8.7
10/30/2020 7:15:00 AM 11.3 52.34 0.361 7.54 11.91 8.71
10/30/2020 7:30:00 AM 11.29 52.322 0.361 7.54 9.73 8.7
10/30/2020 7:45:00 AM 11.26 52.268 0.36 7.54 8.48 8.73
10/30/2020 8:00:00 AM 11.24 52.232 0.36 7.54 8.09 8.75
10/30/2020 8:15:00 AM 11.21 52.178 0.36 7.54 7.67 8.78
10/30/2020 8:30:00 AM 11.17 52.106 0.36 7.54 7.72 8.81
10/30/2020 8:45:00 AM 11.15 52.07 0.359 7.54 8.56 8.83
10/30/2020 9:00:00 AM 11.13 52.034 0.359 7.53 8 8.74
10/30/2020 9:15:00 AM 11.1 51.98 0.359 7.53 8.99 8.8
10/30/2020 9:30:00 AM 11.07 51.926 0.359 7.53 33.75 8.83
10/30/2020 9:45:00 AM 11.07 51.926 0.359 7.52 12.07 8.76
10/30/2020 10:00:00 AM 11.06 51.908 0.359 7.54 8.48 8.89
10/30/2020 10:15:00 AM 11.08 51.944 0.359 7.53 7.26 8.79
10/30/2020 10:30:00 AM 11.08 51.944 0.358 7.55 8.31 9.01
10/30/2020 10:45:00 AM 11.1 51.98 0.359 7.55 7.4 9.1
10/30/2020 11:00:00 AM 11.13 52.034 0.359 7.56 7.16 9.16
10/30/2020 11:15:00 AM 11.16 52.088 0.359 7.56 7.35 9.16
10/30/2020 11:30:00 AM 11.19 52.142 0.359 7.56 8.01 9.24
10/30/2020 11:45:00 AM 11.21 52.178 0.359 7.57 7.24 9.28
10/30/2020 12:00:00 PM 11.25 52.25 0.359 7.57 7.84 9.33
10/30/2020 12:15:00 PM 11.3 52.34 0.359 7.58 8.03 9.4
10/30/2020 12:30:00 PM 11.37 52.466 0.359 7.58 8.07 9.46
10/30/2020 12:45:00 PM 11.43 52.574 0.359 7.58 7.89 9.48
10/30/2020 1:00:00 PM 11.5 52.7 0.359 7.59 7.85 9.51
10/30/2020 1:15:00 PM 11.54 52.772 0.36 7.59 7.35 9.51
10/30/2020 1:30:00 PM 11.55 52.79 0.36 7.59 7.79 9.44
10/30/2020 1:45:00 PM 11.52 52.736 0.36 7.59 7.17 9.49
10/30/2020 2:00:00 PM 11.5 52.7 0.36 7.59 7.11 9.5
10/30/2020 2:15:00 PM 11.47 52.646 0.36 7.59 7.22 9.49
10/30/2020 2:30:00 PM 11.46 52.628 0.36 7.59 7.42 9.46
10/30/2020 2:45:00 PM 11.45 52.61 0.36 7.59 7.04 9.55
10/30/2020 3:00:00 PM 11.43 52.574 0.361 7.59 8.22 9.52
10/30/2020 3:15:00 PM 11.42 52.556 0.361 7.6 7.03 9.58
10/30/2020 3:30:00 PM 11.41 52.538 0.361 7.6 6.48 9.59
10/30/2020 3:45:00 PM 11.41 52.538 0.361 7.6 6.93 9.62
10/30/2020 4:00:00 PM 11.42 52.556 0.362 7.6 6.84 9.58
10/30/2020 4:15:00 PM 11.42 52.556 0.362 7.6 6.76 9.51
10/30/2020 4:30:00 PM 11.44 52.592 0.362 7.6 6.39 9.51
10/30/2020 4:45:00 PM 11.43 52.574 0.362 7.59 6.56 9.52
10/30/2020 5:00:00 PM 11.43 52.574 0.363 7.59 6.47 9.49
10/30/2020 5:15:00 PM 11.4 52.52 0.363 7.59 6.19 9.52
10/30/2020 5:30:00 PM 11.38 52.484 0.363 7.59 6.12 9.51
10/30/2020 5:45:00 PM 11.36 52.448 0.364 7.59 6.46 9.43
10/30/2020 6:00:00 PM 11.34 52.412 0.364 7.58 6 9.42
10/30/2020 6:15:00 PM 11.3 52.34 0.363 7.58 5.92 9.46
10/30/2020 6:30:00 PM 11.27 52.286 0.364 7.58 6.28 9.38
10/30/2020 6:45:00 PM 11.25 52.25 0.364 7.57 5.84 9.33
10/30/2020 7:00:00 PM 11.24 52.232 0.364 7.56 5.87 9.2
10/30/2020 7:15:00 PM 9.72 49.496 0.317 6.54 4.83 7.94
10/30/2020 7:30:00 PM 10.98 51.764 0.358 7.42 5.78 9.05
10/30/2020 7:45:00 PM 11.12 52.016 0.363 7.53 5.76 9.16
10/30/2020 8:00:00 PM 11.11 51.998 0.364 7.54 9.9 9.13
10/30/2020 8:15:00 PM 11.08 51.944 0.365 7.54 7.06 9.11
10/30/2020 8:30:00 PM 11.04 51.872 0.365 7.53 6.1 9.07
10/30/2020 8:45:00 PM 11 51.8 0.365 7.53 5.85 9.07
10/30/2020 9:00:00 PM 10.95 51.71 0.365 7.53 5.84 9.06
10/30/2020 9:15:00 PM 10.9 51.62 0.365 7.53 5.86 9.1
10/30/2020 9:30:00 PM 10.85 51.53 0.365 7.53 5.96 9.12
10/30/2020 9:45:00 PM 10.82 51.476 0.365 7.53 5.92 9.12
10/30/2020 10:00:00 PM 10.79 51.422 0.365 7.53 5.65 9.05
10/30/2020 10:15:00 PM 10.76 51.368 0.365 7.53 5.76 9.12
10/30/2020 10:30:00 PM 10.73 51.314 0.365 7.52 5.73 9.13
10/30/2020 10:45:00 PM 10.71 51.278 0.366 7.52 5.6 9.13
10/30/2020 11:00:00 PM 10.68 51.224 0.366 7.52 5.42 9.07
10/30/2020 11:15:00 PM 10.65 51.17 0.366 7.52 5.21 9.11
10/30/2020 11:30:00 PM 10.59 51.062 0.366 7.52 5.1 9.16
10/30/2020 11:45:00 PM 10.55 50.99 0.367 7.52 5.41 9.12
10/31/2020 12:00:00 AM 10.49 50.882 0.367 7.52 5.28 9.14
10/31/2020 12:15:00 AM 10.45 50.81 0.367 7.52 5.15 9.17
10/31/2020 12:30:00 AM 10.41 50.738 0.367 7.52 4.99 9.13
10/31/2020 12:45:00 AM 10.37 50.666 0.367 7.52 5.1 9.15
10/31/2020 1:00:00 AM 10.34 50.612 0.368 7.51 5.53 9.13
10/31/2020 1:15:00 AM 10.3 50.54 0.368 7.52 5.2 9.21
10/31/2020 1:30:00 AM 10.27 50.486 0.368 7.52 5.37 9.22
10/31/2020 1:45:00 AM 10.25 50.45 0.368 7.52 5.35 9.25
10/31/2020 2:00:00 AM 10.23 50.414 0.368 7.52 5.46 9.23
10/31/2020 2:15:00 AM 10.21 50.378 0.368 7.52 5.33 9.24
10/31/2020 2:30:00 AM 10.19 50.342 0.368 7.52 5.72 9.26
10/31/2020 2:45:00 AM 10.17 50.306 0.368 7.52 5.42 9.26
10/31/2020 3:00:00 AM 10.14 50.252 0.369 7.52 5.35 9.27
10/31/2020 3:15:00 AM 10.12 50.216 0.369 7.52 5.3 9.28
10/31/2020 3:30:00 AM 10.09 50.162 0.369 7.52 5.21 9.22
10/31/2020 3:45:00 AM 10.07 50.126 0.369 7.51 5.09 9.23
10/31/2020 4:00:00 AM 10.04 50.072 0.369 7.51 5.11 9.22
10/31/2020 4:15:00 AM 10.02 50.036 0.37 7.51 5.18 9.24
10/31/2020 4:30:00 AM 9.98 49.964 0.37 7.51 4.99 9.24
10/31/2020 4:45:00 AM 9.94 49.892 0.371 7.51 4.94 9.32
10/31/2020 5:00:00 AM 9.89 49.802 0.37 7.51 5.39 9.3
10/31/2020 5:15:00 AM 9.85 49.73 0.371 7.5 5.29 9.25
10/31/2020 5:30:00 AM 9.79 49.622 0.371 7.51 5.04 9.23
10/31/2020 5:45:00 AM 9.74 49.532 0.371 7.5 5.06 9.23
10/31/2020 6:00:00 AM 9.68 49.424 0.372 7.5 5.01 9.25
10/31/2020 6:15:00 AM 9.61 49.298 0.372 7.5 4.97 9.24
10/31/2020 6:30:00 AM 9.56 49.208 0.373 7.5 5.42 9.22
10/31/2020 6:45:00 AM 9.51 49.118 0.373 7.5 5.44 9.22
10/31/2020 7:00:00 AM 9.45 49.01 0.373 7.49 5.02 9.27
10/31/2020 7:15:00 AM 9.4 48.92 0.374 7.5 5.16 9.35
10/31/2020 7:30:00 AM 9.34 48.812 0.374 7.5 5.15 9.34
10/31/2020 7:45:00 AM 9.3 48.74 0.375 7.49 4.98 9.37
10/31/2020 8:00:00 AM 9.28 48.704 0.375 7.49 4.86 9.37
10/31/2020 8:15:00 AM 9.26 48.668 0.375 7.49 5.96 9.3
10/31/2020 8:30:00 AM 9.23 48.614 0.376 7.5 5.64 9.46
10/31/2020 8:45:00 AM 9.25 48.65 0.376 7.49 5.29 9.44
10/31/2020 9:00:00 AM 9.26 48.668 0.376 7.49 5.45 9.36
10/31/2020 9:15:00 AM 9.28 48.704 0.376 7.5 5.11 9.38
10/31/2020 9:30:00 AM 9.3 48.74 0.377 7.49 4.96 9.36
10/31/2020 9:45:00 AM 9.31 48.758 0.377 7.49 5.01 9.39
10/31/2020 10:00:00 AM 9.34 48.812 0.377 7.5 4.97 9.51
10/31/2020 10:15:00 AM 9.36 48.848 0.378 7.51 4.99 9.58
10/31/2020 10:30:00 AM 9.38 48.884 0.378 7.52 4.81 9.68
10/31/2020 10:45:00 AM 9.41 48.938 0.378 7.52 4.9 9.73
10/31/2020 11:00:00 AM 9.45 49.01 0.378 7.53 4.84 9.83
10/31/2020 11:15:00 AM 9.5 49.1 0.378 7.53 4.61 9.92
10/31/2020 11:30:00 AM 9.56 49.208 0.378 7.54 4.7 9.96
10/31/2020 11:45:00 AM 9.62 49.316 0.379 7.55 4.72 10.04
10/31/2020 12:00:00 PM 9.68 49.424 0.379 7.56 4.58 10.09
10/31/2020 12:15:00 PM 9.74 49.532 0.379 7.56 4.51 10.14
10/31/2020 12:30:00 PM 9.77 49.586 0.379 7.57 4.73 10.15
10/31/2020 12:45:00 PM 9.79 49.622 0.379 7.57 4.48 10.17
10/31/2020 1:00:00 PM 9.82 49.676 0.38 7.57 4.43 10.21
10/31/2020 1:15:00 PM 9.84 49.712 0.38 7.57 5.17 10.18
10/31/2020 1:30:00 PM 9.84 49.712 0.368 7.58 4.84 10.2
10/31/2020 1:45:00 PM 9.85 49.73 0.378 7.58 4.76 10.26
10/31/2020 2:00:00 PM 9.87 49.766 0.38 7.58 4.53 10.26
10/31/2020 2:15:00 PM 9.88 49.784 0.381 7.58 4.5 10.27
10/31/2020 2:30:00 PM 9.91 49.838 0.381 7.59 4.5 10.33
10/31/2020 2:45:00 PM 9.95 49.91 0.381 7.59 4.46 10.3
10/31/2020 3:00:00 PM 9.97 49.946 0.381 7.59 4.97 10.33
10/31/2020 3:15:00 PM 10 50 0.381 7.6 4.59 10.36
10/31/2020 3:30:00 PM 10.03 50.054 0.382 7.6 4.59 10.3
10/31/2020 3:45:00 PM 10.06 50.108 0.382 7.6 4.43 10.37
10/31/2020 4:00:00 PM 10.07 50.126 0.382 7.6 4.68 10.35
10/31/2020 4:15:00 PM 10.09 50.162 0.382 7.6 4.5 10.33
10/31/2020 4:30:00 PM 10.08 50.144 0.383 7.6 4.49 10.38
10/31/2020 4:45:00 PM 10.09 50.162 0.383 7.6 4.46 10.36
10/31/2020 5:00:00 PM 10.07 50.126 0.384 7.61 4.51 10.3
10/31/2020 5:15:00 PM 10.05 50.09 0.384 7.6 4.23 10.24
10/31/2020 5:30:00 PM 10.02 50.036 0.385 7.6 4.57 10.23
10/31/2020 5:45:00 PM 9.99 49.982 0.385 7.59 4.5 10.1
10/31/2020 6:00:00 PM 9.96 49.928 0.385 7.58 4.56 10.1
10/31/2020 6:15:00 PM 9.93 49.874 0.386 7.58 4.48 9.98
10/31/2020 6:30:00 PM 9.89 49.802 0.386 7.58 4.36 10.02
10/31/2020 6:45:00 PM 9.86 49.748 0.387 7.57 4.55 9.95
10/31/2020 7:00:00 PM 9.83 49.694 0.387 7.56 4.46 9.83
10/31/2020 7:15:00 PM 9.8 49.64 0.387 7.56 4.54 9.8
10/31/2020 7:30:00 PM 9.78 49.604 0.388 7.55 4.23 9.75
10/31/2020 7:45:00 PM 8.45 47.21 0.338 6.54 3.81 8.4
10/31/2020 8:00:00 PM 9.55 49.19 0.382 7.41 4.17 9.51
10/31/2020 8:15:00 PM 9.68 49.424 0.388 7.53 4.76 9.64
10/31/2020 8:30:00 PM 9.67 49.406 0.389 7.54 4.69 9.69
10/31/2020 8:45:00 PM 9.65 49.37 0.39 7.54 4.39 9.7
10/31/2020 9:00:00 PM 9.62 49.316 0.39 7.54 4.57 9.65
10/31/2020 9:15:00 PM 9.59 49.262 0.391 7.54 4.55 9.69
10/31/2020 9:30:00 PM 9.56 49.208 0.391 7.54 4.55 9.73
10/31/2020 9:45:00 PM 9.54 49.172 0.391 7.54 4.38 9.73
10/31/2020 10:00:00 PM 9.52 49.136 0.393 7.54 4.42 9.73
10/31/2020 10:15:00 PM 9.48 49.064 0.393 7.53 4.39 9.69
10/31/2020 10:30:00 PM 9.46 49.028 0.393 7.54 4.48 9.62
10/31/2020 10:45:00 PM 9.43 48.974 0.393 7.53 4.47 9.59
10/31/2020 11:00:00 PM 9.39 48.902 0.393 7.53 4.45 9.54
10/31/2020 11:15:00 PM 9.34 48.812 0.394 7.53 4.41 9.58
10/31/2020 11:30:00 PM 9.3 48.74 0.395 7.52 4.27 9.56
10/31/2020 11:45:00 PM 9.26 48.668 0.396 7.52 4.31 9.52
11/1/2020 12:00:00 AM 9.23 48.614 0.396 7.52 4.26 9.55
11/1/2020 12:15:00 AM 9.21 48.578 0.396 7.52 4.34 9.49
11/1/2020 12:30:00 AM 9.2 48.56 0.397 7.51 4.31 9.5
11/1/2020 12:45:00 AM 9.19 48.542 0.397 7.51 4.29 9.46
11/1/2020 1:00:00 AM 9.17 48.506 0.397 7.51 4.05 9.46
11/1/2020 1:15:00 AM 9.18 48.524 0.397 7.51 4.18 9.33
11/1/2020 1:30:00 AM 9.17 48.506 0.398 7.51 4.68 9.37
11/1/2020 1:45:00 AM 9.16 48.488 0.399 7.5 4.43 9.33
11/1/2020 2:00:00 AM 9.15 48.47 0.399 7.5 4.48 9.29
11/1/2020 2:15:00 AM 9.14 48.452 0.4 7.5 4.43 9.3
11/1/2020 2:30:00 AM 9.14 48.452 0.4 7.5 4.28 9.33
11/1/2020 2:45:00 AM 9.13 48.434 0.401 7.49 4.24 9.31
11/1/2020 3:00:00 AM 9.12 48.416 0.4 7.5 4.12 9.28
11/1/2020 3:15:00 AM 9.11 48.398 0.402 7.5 3.83 9.25
11/1/2020 3:30:00 AM 9.12 48.416 0.403 7.49 3.88 9.18
11/1/2020 3:45:00 AM 9.12 48.416 0.403 7.49 3.94 9.24
11/1/2020 4:00:00 AM 9.12 48.416 0.404 7.49 4.05 9.23
11/1/2020 4:15:00 AM 9.12 48.416 0.404 7.49 4.18 9.28
11/1/2020 4:30:00 AM 9.12 48.416 0.404 7.49 4.11 9.22
11/1/2020 4:45:00 AM 9.12 48.416 0.404 7.48 4.09 9.14
11/1/2020 5:00:00 AM 9.11 48.398 0.404 7.49 4.01 9.19
11/1/2020 5:15:00 AM 9.12 48.416 0.404 7.49 3.91 9.17
11/1/2020 5:30:00 AM 9.11 48.398 0.404 7.48 4.05 9.15
11/1/2020 5:45:00 AM 9.11 48.398 0.404 7.48 4.28 9.14
11/1/2020 6:00:00 AM 9.11 48.398 0.406 7.49 3.94 9.23
11/1/2020 6:15:00 AM 9.12 48.416 0.406 7.48 5.78 9.22
11/1/2020 6:30:00 AM 9.11 48.398 0.405 7.49 5.63 9.31
11/1/2020 6:45:00 AM 9.11 48.398 0.406 7.48 4.78 9.15
11/1/2020 7:00:00 AM 9.11 48.398 0.405 7.49 4.7 9.25
11/1/2020 7:15:00 AM 9.11 48.398 0.405 7.5 4.54 9.28
11/1/2020 7:30:00 AM 9.11 48.398 0.405 7.5 4.07 9.44
11/1/2020 7:45:00 AM 9.12 48.416 0.406 7.49 3.95 9.4
11/1/2020 8:00:00 AM 7.95 46.31 0.354 6.5 3.75 8.02
11/1/2020 8:15:00 AM 9.02 48.236 0.4 7.36 4.9 9.27
11/1/2020 8:30:00 AM 9.2 48.56 0.406 7.49 4.79 9.37
11/1/2020 8:45:00 AM 9.28 48.704 0.407 7.51 4.38 9.46
11/1/2020 9:00:00 AM 8.12 46.616 0.354 6.52 3.8 8.16
11/1/2020 9:15:00 AM 9.24 48.632 0.401 7.39 4.13 9.45
11/1/2020 9:30:00 AM 9.47 49.046 0.407 7.5 4.66 9.38
11/1/2020 9:45:00 AM 9.59 49.262 0.408 7.52 4.32 9.47
11/1/2020 10:00:00 AM 9.65 49.37 0.408 7.53 4.23 9.6
11/1/2020 10:15:00 AM 9.7 49.46 0.408 7.52 4.25 9.55
11/1/2020 10:30:00 AM 9.74 49.532 0.408 7.52 4.01 9.44
11/1/2020 10:45:00 AM 9.78 49.604 0.408 7.54 3.98 9.47
11/1/2020 11:00:00 AM 9.8 49.64 0.408 7.53 3.93 9.38
11/1/2020 11:15:00 AM 9.8 49.64 0.408 7.52 4.09 9.39
11/1/2020 11:30:00 AM 9.8 49.64 0.407 7.53 4.14 9.37
11/1/2020 11:45:00 AM 9.79 49.622 0.407 7.53 4.07 9.33
11/1/2020 12:00:00 PM 9.8 49.64 0.406 7.52 3.97 9.22
11/1/2020 12:15:00 PM 9.8 49.64 0.405 7.52 3.8 9.14
11/1/2020 12:30:00 PM 9.8 49.64 0.404 7.52 3.83 9.36
11/1/2020 12:45:00 PM 9.81 49.658 0.402 7.52 4.21 9.36
11/1/2020 1:00:00 PM 9.82 49.676 0.402 7.52 4.09 9.36
11/1/2020 1:15:00 PM 9.83 49.694 0.402 7.53 4.11 9.36
11/1/2020 1:30:00 PM 9.87 49.766 0.402 7.52 3.93 9.17
11/1/2020 1:45:00 PM 9.91 49.838 0.402 7.52 4.32 9.34
11/1/2020 2:00:00 PM 9.94 49.892 0.403 7.54 4.03 9.48
11/1/2020 2:15:00 PM 9.98 49.964 0.404 7.53 3.92 9.48
11/1/2020 2:30:00 PM 10.03 50.054 0.404 7.53 4.05 9.55
11/1/2020 2:45:00 PM 10.08 50.144 0.404 7.53 3.96 9.36
11/1/2020 3:00:00 PM 10.13 50.234 0.404 7.53 4.13 9.44
11/1/2020 3:15:00 PM 10.17 50.306 0.404 7.54 3.97 9.47
11/1/2020 3:30:00 PM 10.22 50.396 0.404 7.55 4.01 9.39
11/1/2020 3:45:00 PM 10.25 50.45 0.405 7.54 3.9 9.43
11/1/2020 4:00:00 PM 10.28 50.504 0.404 7.55 4.25 9.48
11/1/2020 4:15:00 PM 10.3 50.54 0.405 7.55 4.2 9.47
11/1/2020 4:30:00 PM 10.31 50.558 0.405 7.56 4.04 9.43
11/1/2020 4:45:00 PM 10.31 50.558 0.405 7.55 4.11 9.39
11/1/2020 5:00:00 PM 10.31 50.558 0.405 7.54 4.3 9.38
11/1/2020 5:15:00 PM 10.3 50.54 0.405 7.54 4.1 9.3
11/1/2020 5:30:00 PM 10.29 50.522 0.404 7.54 4.25 9.21
11/1/2020 5:45:00 PM 10.26 50.468 0.404 7.53 4.44 9.19
11/1/2020 6:00:00 PM 10.22 50.396 0.405 7.53 4.13 9.26
11/1/2020 6:15:00 PM 10.18 50.324 0.405 7.53 4.32 9.28
11/1/2020 6:30:00 PM 10.13 50.234 0.405 7.53 4.15 9.33
11/1/2020 6:45:00 PM 10.07 50.126 0.405 7.53 4.22 9.27
11/1/2020 7:00:00 PM 10.01 50.018 0.405 7.53 4.32 9.31
11/1/2020 7:15:00 PM 9.94 49.892 0.405 7.54 4.24 9.41
11/1/2020 7:30:00 PM 9.89 49.802 0.405 7.54 5.85 9.42
11/1/2020 7:45:00 PM 9.85 49.73 0.405 7.53 4.4 9.37
11/1/2020 8:00:00 PM 9.78 49.604 0.405 7.53 4.42 9.43
11/1/2020 8:15:00 PM 9.74 49.532 0.404 7.53 4.21 9.36
11/1/2020 8:30:00 PM 9.69 49.442 0.404 7.53 4.32 9.37
11/1/2020 8:45:00 PM 9.6 49.28 0.404 7.53 4.15 9.37
11/1/2020 9:00:00 PM 9.53 49.154 0.404 7.53 4.11 9.35
11/1/2020 9:15:00 PM 9.46 49.028 0.404 7.52 4.04 9.28
11/1/2020 9:30:00 PM 9.37 48.866 0.403 7.53 5.77 9.32
11/1/2020 9:45:00 PM 9.29 48.722 0.404 7.53 5.23 9.43
11/1/2020 10:00:00 PM 9.21 48.578 0.404 7.54 5.05 9.54
11/1/2020 10:15:00 PM 9.14 48.452 0.405 7.54 5.12 9.6
11/1/2020 10:30:00 PM 9.06 48.308 0.405 7.55 4.97 9.51
11/1/2020 10:45:00 PM 8.99 48.182 0.406 7.55 5.04 9.56
11/1/2020 11:00:00 PM 8.92 48.056 0.406 7.55 4.99 9.54
11/1/2020 11:15:00 PM 8.86 47.948 0.405 7.55 4.94 9.61
11/1/2020 11:30:00 PM 8.81 47.858 0.404 7.55 4.82 9.59
11/1/2020 11:45:00 PM 8.74 47.732 0.405 7.55 4.8 9.57
11/2/2020 12:00:00 AM 8.69 47.642 0.405 7.55 4.8 9.61
11/2/2020 12:15:00 AM 8.63 47.534 0.405 7.55 4.82 9.61
11/2/2020 12:30:00 AM 8.58 47.444 0.405 7.54 4.83 9.58
11/2/2020 12:45:00 AM 8.54 47.372 0.405 7.54 4.83 9.59
11/2/2020 1:00:00 AM 8.48 47.264 0.405 7.54 4.74 9.57
11/2/2020 1:15:00 AM 8.44 47.192 0.405 7.54 4.76 9.58
11/2/2020 1:30:00 AM 8.4 47.12 0.404 7.55 4.78 9.63
11/2/2020 1:45:00 AM 8.34 47.012 0.404 7.55 4.78 9.62
11/2/2020 2:00:00 AM 8.27 46.886 0.404 7.54 4.67 9.62
11/2/2020 2:15:00 AM 8.21 46.778 0.404 7.55 4.71 9.65
11/2/2020 2:30:00 AM 8.16 46.688 0.404 7.54 4.89 9.72
11/2/2020 2:45:00 AM 8.11 46.598 0.403 7.55 4.87 9.71
11/2/2020 3:00:00 AM 8.07 46.526 0.403 7.55 4.8 9.75
11/2/2020 3:15:00 AM 8.03 46.454 0.403 7.55 4.76 9.69
11/2/2020 3:30:00 AM 7.99 46.382 0.403 7.55 5.16 9.79
11/2/2020 3:45:00 AM 7.96 46.328 0.403 7.55 4.99 9.79
11/2/2020 4:00:00 AM 7.93 46.274 0.403 7.55 4.81 9.79
11/2/2020 4:15:00 AM 7.89 46.202 0.403 7.55 4.76 9.78
11/2/2020 4:30:00 AM 7.85 46.13 0.403 7.55 4.73 9.82
11/2/2020 4:45:00 AM 7.81 46.058 0.403 7.55 4.76 9.81
11/2/2020 5:00:00 AM 7.78 46.004 0.403 7.55 4.93 9.89
11/2/2020 5:15:00 AM 7.74 45.932 0.403 7.54 4.72 9.8
11/2/2020 5:30:00 AM 7.68 45.824 0.403 7.55 4.87 9.9
11/2/2020 5:45:00 AM 7.64 45.752 0.403 7.55 5.5 9.86
11/2/2020 6:00:00 AM 7.58 45.644 0.403 7.55 4.99 9.91
11/2/2020 6:15:00 AM 7.53 45.554 0.403 7.55 4.91 9.94
11/2/2020 6:30:00 AM 7.47 45.446 0.403 7.55 4.8 9.97
11/2/2020 6:45:00 AM 7.43 45.374 0.403 7.55 5.18 9.93
11/2/2020 7:00:00 AM 7.39 45.302 0.403 7.55 4.86 9.96
11/2/2020 7:15:00 AM 7.36 45.248 0.402 7.55 4.81 9.97
11/2/2020 7:30:00 AM 7.35 45.23 0.402 7.55 4.7 10.01
11/2/2020 7:45:00 AM 7.34 45.212 0.402 7.55 4.67 10.06
11/2/2020 8:00:00 AM 7.32 45.176 0.402 7.55 4.7 10.04
11/2/2020 8:15:00 AM 7.29 45.122 0.402 7.56 4.64 10.14
11/2/2020 8:30:00 AM 7.33 45.194 0.402 7.57 4.73 10.22
11/2/2020 8:45:00 AM 7.33 45.194 0.401 7.57 4.73 10.33
11/2/2020 9:00:00 AM 7.33 45.194 0.401 7.58 4.66 10.36
11/2/2020 9:15:00 AM 7.36 45.248 0.402 7.58 4.75 10.39
11/2/2020 9:30:00 AM 7.38 45.284 0.401 7.6 4.63 10.52
11/2/2020 9:45:00 AM 7.41 45.338 0.402 7.6 4.58 10.62
11/2/2020 10:00:00 AM 7.48 45.464 0.401 7.62 4.66 10.75
11/2/2020 10:15:00 AM 7.58 45.644 0.401 7.62 4.57 10.7
11/2/2020 10:30:00 AM 7.69 45.842 0.401 7.63 4.58 10.81
11/2/2020 10:45:00 AM 7.77 45.986 0.4 7.63 4.61 10.85
11/2/2020 11:00:00 AM 7.85 46.13 0.4 7.64 4.51 10.91
11/2/2020 11:15:00 AM 7.94 46.292 0.401 7.64 4.54 10.92
11/2/2020 11:30:00 AM 8.01 46.418 0.401 7.64 4.4 10.89
11/2/2020 11:45:00 AM 8.12 46.616 0.401 7.64 4.65 10.89
11/2/2020 12:00:00 PM 8.2 46.76 0.401 7.65 4.72 10.95
11/2/2020 12:15:00 PM 8.31 46.958 0.401 7.65 4.57 11
11/2/2020 12:30:00 PM 8.41 47.138 0.4 7.67 4.53 11.14
11/2/2020 12:45:00 PM 8.49 47.282 0.4 7.67 4.57 11.03
11/2/2020 1:00:00 PM 8.57 47.426 0.401 7.67 4.52 11.08
11/2/2020 1:15:00 PM 8.61 47.498 0.401 7.68 4.59 11.13
11/2/2020 1:30:00 PM 8.64 47.552 0.401 7.68 4.53 11.07
11/2/2020 1:45:00 PM 8.66 47.588 0.401 7.69 4.53 11.15
11/2/2020 2:00:00 PM 8.67 47.606 0.4 7.68 4.42 11.12
11/2/2020 2:15:00 PM 8.64 47.552 0.401 7.69 4.45 11.12
11/2/2020 2:30:00 PM 8.62 47.516 0.401 7.7 4.63 11.16
11/2/2020 2:45:00 PM 8.59 47.462 0.401 7.69 4.49 11.11
11/2/2020 3:00:00 PM 8.54 47.372 0.401 7.69 4.5 11.08
11/2/2020 3:15:00 PM 8.49 47.282 0.401 7.69 4.64 11.06
11/2/2020 3:30:00 PM 8.43 47.174 0.401 7.69 4.64 11.06
11/2/2020 3:45:00 PM 8.36 47.048 0.402 7.69 4.54 11.07
11/2/2020 4:00:00 PM 8.29 46.922 0.402 7.68 5.34 10.99
11/2/2020 4:15:00 PM 8.24 46.832 0.402 7.68 5.04 10.93
11/2/2020 4:30:00 PM 8.16 46.688 0.402 7.67 4.86 10.91
11/2/2020 4:45:00 PM 8.09 46.562 0.403 7.67 4.73 10.94
11/2/2020 5:00:00 PM 8.03 46.454 0.403 7.66 4.68 10.82
11/2/2020 5:15:00 PM 7.95 46.31 0.403 7.66 4.75 10.85
11/2/2020 5:30:00 PM 7.9 46.22 0.404 7.65 4.94 10.79
11/2/2020 5:45:00 PM 7.84 46.112 0.404 7.65 5.2 10.73
11/2/2020 6:00:00 PM 7.79 46.022 0.404 7.64 4.83 10.74
11/2/2020 6:15:00 PM 7.75 45.95 0.404 7.64 4.89 10.7
11/2/2020 6:30:00 PM 7.73 45.914 0.404 7.63 4.96 10.67
11/2/2020 6:45:00 PM 7.7 45.86 0.404 7.63 4.92 10.6
11/2/2020 7:00:00 PM 7.68 45.824 0.404 7.62 4.8 10.6
11/2/2020 7:15:00 PM 7.65 45.77 0.404 7.62 4.74 10.51
11/2/2020 7:30:00 PM 7.64 45.752 0.404 7.61 4.96 10.57
11/2/2020 7:45:00 PM 7.61 45.698 0.404 7.61 4.82 10.57
11/2/2020 8:00:00 PM 7.61 45.698 0.405 7.6 4.99 10.44
11/2/2020 8:15:00 PM 7.58 45.644 0.405 7.6 4.9 10.46
11/2/2020 8:30:00 PM 7.56 45.608 0.405 7.59 4.91 10.42
11/2/2020 8:45:00 PM 7.55 45.59 0.404 7.58 4.78 10.32
11/2/2020 9:00:00 PM 7.51 45.518 0.405 7.59 4.73 10.35
11/2/2020 9:15:00 PM 7.49 45.482 0.406 7.58 4.72 10.25
11/2/2020 9:30:00 PM 7.47 45.446 0.406 7.58 4.59 10.24
11/2/2020 9:45:00 PM 7.43 45.374 0.406 7.58 4.66 10.27
11/2/2020 10:00:00 PM 7.4 45.32 0.407 7.57 4.61 10.19
11/2/2020 10:15:00 PM 7.37 45.266 0.406 7.56 4.98 10.17
11/2/2020 10:30:00 PM 7.34 45.212 0.406 7.56 4.68 10.2
11/2/2020 10:45:00 PM 7.3 45.14 0.407 7.57 4.63 10.25
11/2/2020 11:00:00 PM 7.27 45.086 0.407 7.55 4.59 10.13
11/2/2020 11:15:00 PM 7.22 44.996 0.407 7.56 4.58 10.23
11/2/2020 11:30:00 PM 7.2 44.96 0.407 7.55 4.81 10.18
11/2/2020 11:45:00 PM 7.17 44.906 0.407 7.54 4.86 10.13
11/3/2020 12:00:00 AM 6.19 43.142 0.354 6.54 4.26 8.81
11/3/2020 12:15:00 AM 6.97 44.546 0.4 7.41 4.96 9.93
11/3/2020 12:30:00 AM 7.04 44.672 0.406 7.53 4.93 10.02
11/3/2020 12:45:00 AM 6.99 44.582 0.407 7.55 4.96 10.22
11/3/2020 1:00:00 AM 6.98 44.564 0.408 7.55 4.88 10.23
11/3/2020 1:15:00 AM 6.93 44.474 0.407 7.54 4.73 10.22
11/3/2020 1:30:00 AM 6.88 44.384 0.409 7.54 4.89 10.13
11/3/2020 1:45:00 AM 6.83 44.294 0.409 7.54 4.73 10.19
11/3/2020 2:00:00 AM 6.78 44.204 0.409 7.53 4.85 10.15
11/3/2020 2:15:00 AM 6.73 44.114 0.409 7.54 4.71 10.2
11/3/2020 2:30:00 AM 6.68 44.024 0.409 7.53 4.97 10.18
11/3/2020 2:45:00 AM 6.64 43.952 0.409 7.54 4.87 10.16
11/3/2020 3:00:00 AM 6.62 43.916 0.409 7.53 4.81 10.28
11/3/2020 3:15:00 AM 6.59 43.862 0.409 7.53 4.8 10.26
11/3/2020 3:30:00 AM 6.57 43.826 0.409 7.53 4.59 10.25
11/3/2020 3:45:00 AM 6.56 43.808 0.409 7.52 4.54 10.21
11/3/2020 4:00:00 AM 6.53 43.754 0.409 7.53 4.5 10.24
11/3/2020 4:15:00 AM 6.5 43.7 0.409 7.53 4.54 10.28
11/3/2020 4:30:00 AM 6.49 43.682 0.409 7.53 4.48 10.24
11/3/2020 4:45:00 AM 6.45 43.61 0.409 7.52 4.63 10.27
11/3/2020 5:00:00 AM 6.45 43.61 0.409 7.53 4.67 10.24
11/3/2020 5:15:00 AM 6.44 43.592 0.409 7.52 4.83 10.28
11/3/2020 5:30:00 AM 5.55 41.99 0.356 6.52 4.03 8.99
11/3/2020 5:45:00 AM 6.28 43.304 0.403 7.4 4.85 10.22
11/3/2020 6:00:00 AM 6.36 43.448 0.409 7.51 4.96 10.32
11/3/2020 6:15:00 AM 6.36 43.448 0.41 7.53 4.81 10.41
11/3/2020 6:30:00 AM 6.37 43.466 0.41 7.52 4.78 10.36
11/3/2020 6:45:00 AM 6.33 43.394 0.411 7.53 4.64 10.42
11/3/2020 7:00:00 AM 6.29 43.322 0.41 7.53 4.78 10.46
11/3/2020 7:15:00 AM 6.28 43.304 0.411 7.53 4.61 10.46
11/3/2020 7:30:00 AM 6.29 43.322 0.411 7.54 4.44 10.49
11/3/2020 7:45:00 AM 6.3 43.34 0.411 7.54 4.37 10.5
11/3/2020 8:00:00 AM 6.31 43.358 0.41 7.54 4.42 10.52
11/3/2020 8:15:00 AM 6.35 43.43 0.411 7.54 4.31 10.56
11/3/2020 8:30:00 AM 6.4 43.52 0.41 7.54 4.41 10.6
11/3/2020 8:45:00 AM 6.47 43.646 0.41 7.55 4.84 10.73
11/3/2020 9:00:00 AM 6.48 43.664 0.41 7.55 4.5 10.72
11/3/2020 9:15:00 AM 6.56 43.808 0.411 7.56 4.62 10.7
11/3/2020 9:30:00 AM 6.6 43.88 0.411 7.56 4.51 10.78
11/3/2020 9:45:00 AM 6.67 44.006 0.41 7.56 4.6 10.78
11/3/2020 10:00:00 AM 6.77 44.186 0.411 7.56 4.62 10.76
11/3/2020 10:15:00 AM 6.92 44.456 0.411 7.56 4.5 10.71
11/3/2020 10:30:00 AM 7.06 44.708 0.411 7.59 4.27 10.9
11/3/2020 10:45:00 AM 7.17 44.906 0.41 7.59 4.19 11.04
11/3/2020 11:00:00 AM 7.31 45.158 0.41 7.59 4.19 10.95
11/3/2020 11:15:00 AM 7.43 45.374 0.41 7.58 4.13 10.8
11/3/2020 11:30:00 AM 7.54 45.572 0.41 7.58 4.19 10.74
11/3/2020 11:45:00 AM 7.68 45.824 0.411 7.58 4.39 10.78
11/3/2020 12:00:00 PM 7.8 46.04 0.411 7.58 4.31 10.86
11/3/2020 12:15:00 PM 7.94 46.292 0.411 7.59 4.25 10.84
11/3/2020 12:30:00 PM 8.09 46.562 0.412 7.58 4.2 10.75
11/3/2020 12:45:00 PM 8.24 46.832 0.411 7.58 4.32 10.73
11/3/2020 1:00:00 PM 8.36 47.048 0.412 7.58 4.25 10.71
11/3/2020 1:15:00 PM 8.5 47.3 0.413 7.59 5.8 10.77
11/3/2020 1:30:00 PM 8.59 47.462 0.413 7.59 4.45 10.84
11/3/2020 1:45:00 PM 8.68 47.624 0.413 7.6 4.77 10.7
11/3/2020 2:00:00 PM 8.75 47.75 0.411 7.59 4.31 10.69
11/3/2020 2:15:00 PM 8.79 47.822 0.412 7.61 4.15 10.73
11/3/2020 2:30:00 PM 8.81 47.858 0.412 7.61 4.13 10.71
11/3/2020 2:45:00 PM 8.84 47.912 0.413 7.61 4.15 10.67
11/3/2020 3:00:00 PM 8.86 47.948 0.413 7.6 4.06 10.71
11/3/2020 3:15:00 PM 8.86 47.948 0.411 7.6 4.04 10.56
11/3/2020 3:30:00 PM 8.87 47.966 0.411 7.6 4.12 10.6
11/3/2020 3:45:00 PM 8.84 47.912 0.413 7.62 4.15 10.81
11/3/2020 4:00:00 PM 8.83 47.894 0.413 7.61 4.11 10.73
11/3/2020 4:15:00 PM 8.8 47.84 0.413 7.6 4.05 10.67
11/3/2020 4:30:00 PM 8.78 47.804 0.412 7.6 3.96 10.66
11/3/2020 4:45:00 PM 8.75 47.75 0.412 7.59 4.14 10.57
11/3/2020 5:00:00 PM 8.7 47.66 0.412 7.6 4.15 10.61
11/3/2020 5:15:00 PM 8.68 47.624 0.413 7.59 4.17 10.47
11/3/2020 5:30:00 PM 8.65 47.57 0.413 7.58 4.38 10.34
11/3/2020 5:45:00 PM 8.61 47.498 0.413 7.58 4.41 10.34
11/3/2020 6:00:00 PM 8.57 47.426 0.414 7.57 4.21 10.21
11/3/2020 6:15:00 PM 8.55 47.39 0.414 7.55 4.16 10.1
11/3/2020 6:30:00 PM 8.51 47.318 0.415 7.55 4.3 10.02
11/3/2020 6:45:00 PM 8.46 47.228 0.414 7.54 4.29 9.99
11/3/2020 7:00:00 PM 8.43 47.174 0.415 7.54 4.41 9.93
11/3/2020 7:15:00 PM 8.4 47.12 0.414 7.53 4.52 9.95
11/3/2020 7:30:00 PM 8.36 47.048 0.415 7.53 4.39 9.99
11/3/2020 7:45:00 PM 8.32 46.976 0.416 7.54 4.4 9.99
11/3/2020 8:00:00 PM 8.29 46.922 0.414 7.53 4.39 9.93
11/3/2020 8:15:00 PM 8.25 46.85 0.415 7.53 4.49 9.93
11/3/2020 8:30:00 PM 8.21 46.778 0.414 7.53 4.62 9.92
11/3/2020 8:45:00 PM 8.17 46.706 0.415 7.53 4.62 9.88
11/3/2020 9:00:00 PM 8.17 46.706 0.415 7.52 4.42 9.81
11/3/2020 9:15:00 PM 8.13 46.634 0.416 7.51 4.56 9.7
11/3/2020 9:30:00 PM 8.1 46.58 0.415 7.5 4.66 9.66
11/3/2020 9:45:00 PM 8.08 46.544 0.416 7.5 5.17 9.63
11/3/2020 10:00:00 PM 8.03 46.454 0.416 7.5 4.77 9.67
11/3/2020 10:15:00 PM 8 46.4 0.416 7.51 4.48 9.73
11/3/2020 10:30:00 PM 7.99 46.382 0.416 7.5 4.4 9.65
11/3/2020 10:45:00 PM 7.93 46.274 0.416 7.51 4.49 9.67
11/3/2020 11:00:00 PM 7.91 46.238 0.416 7.5 4.43 9.69
11/3/2020 11:15:00 PM 7.87 46.166 0.416 7.5 4.6 9.63
11/3/2020 11:30:00 PM 7.85 46.13 0.416 7.5 4.54 9.75
11/3/2020 11:45:00 PM 7.82 46.076 0.417 7.5 4.4 9.65
11/4/2020 12:00:00 AM 7.79 46.022 0.416 7.49 4.34 9.55
11/4/2020 12:15:00 AM 7.75 45.95 0.416 7.49 4.12 9.52
11/4/2020 12:30:00 AM 7.7 45.86 0.417 7.49 4.18 9.68
11/4/2020 12:45:00 AM 7.68 45.824 0.417 7.49 4.08 9.64
11/4/2020 1:00:00 AM 7.65 45.77 0.417 7.49 4.16 9.63
11/4/2020 1:15:00 AM 7.6 45.68 0.417 7.49 4.16 9.63
11/4/2020 1:30:00 AM 7.57 45.626 0.417 7.49 4.15 9.69
11/4/2020 1:45:00 AM 7.52 45.536 0.418 7.49 4.07 9.57
11/4/2020 2:00:00 AM 7.49 45.482 0.417 7.48 4.1 9.6
11/4/2020 2:15:00 AM 7.43 45.374 0.417 7.48 4.15 9.65
11/4/2020 2:30:00 AM 7.4 45.32 0.417 7.48 4.24 9.66
11/4/2020 2:45:00 AM 6.38 43.484 0.363 6.5 3.47 8.39
11/4/2020 3:00:00 AM 7.18 44.924 0.41 7.35 3.9 9.52
11/4/2020 3:15:00 AM 7.26 45.068 0.417 7.46 4.36 9.58
11/4/2020 3:30:00 AM 7.24 45.032 0.418 7.47 4.14 9.62
11/4/2020 3:45:00 AM 7.19 44.942 0.418 7.47 4.03 9.65
11/4/2020 4:00:00 AM 7.16 44.888 0.418 7.47 4.18 9.65
11/4/2020 4:15:00 AM 7.13 44.834 0.418 7.47 4.05 9.59
11/4/2020 4:30:00 AM 7.07 44.726 0.418 7.47 4.03 9.63
11/4/2020 4:45:00 AM 7.01 44.618 0.418 7.47 4.1 9.7
11/4/2020 5:00:00 AM 6.98 44.564 0.418 7.47 4.02 9.64
11/4/2020 5:15:00 AM 6.94 44.492 0.418 7.47 4.04 9.69
11/4/2020 5:30:00 AM 6.91 44.438 0.419 7.46 4.01 9.63
11/4/2020 5:45:00 AM 6.87 44.366 0.419 7.46 4.12 9.57
11/4/2020 6:00:00 AM 6.82 44.276 0.419 7.47 4.17 9.67
11/4/2020 6:15:00 AM 6.76 44.168 0.419 7.47 4.01 9.79
11/4/2020 6:30:00 AM 6.73 44.114 0.419 7.47 4.47 9.87
11/4/2020 6:45:00 AM 6.67 44.006 0.419 7.47 4.63 9.87
11/4/2020 7:00:00 AM 6.62 43.916 0.419 7.48 4.45 9.91
11/4/2020 7:15:00 AM 6.58 43.844 0.419 7.48 4.82 10.02
11/4/2020 7:30:00 AM 6.53 43.754 0.42 7.49 4.19 10.05
11/4/2020 7:45:00 AM 6.6 43.88 0.42 7.48 4.08 10.04
11/4/2020 8:00:00 AM 6.59 43.862 0.42 7.47 4.01 9.95
11/4/2020 8:15:00 AM 6.58 43.844 0.42 7.48 4.13 10.02
11/4/2020 8:30:00 AM 6.64 43.952 0.42 7.49 4.43 10.13
11/4/2020 8:45:00 AM 6.7 44.06 0.42 7.5 4.18 10.38
11/4/2020 9:00:00 AM 6.74 44.132 0.42 7.52 4.21 10.49
11/4/2020 9:15:00 AM 6.79 44.222 0.42 7.52 5.12 10.57
11/4/2020 9:30:00 AM 6.87 44.366 0.42 7.52 4.33 10.47
11/4/2020 9:45:00 AM 6.95 44.51 0.42 7.51 4.12 10.34
11/4/2020 10:00:00 AM 7.06 44.708 0.42 7.51 4.68 10.34
11/4/2020 10:15:00 AM 7.25 45.05 0.42 7.53 21.72 10.55
11/4/2020 10:30:00 AM 7.43 45.374 0.419 7.56 7.51 10.8
11/4/2020 10:45:00 AM 7.58 45.644 0.42 7.56 4.74 10.91
11/4/2020 11:00:00 AM 7.75 45.95 0.42 7.56 4.59 10.82
11/4/2020 11:15:00 AM 7.9 46.22 0.42 7.57 4.22 10.64
11/4/2020 11:30:00 AM 8.02 46.436 0.42 7.54 4.33 10.54
11/4/2020 11:45:00 AM 8.16 46.688 0.42 7.53 90.56 10.32
11/4/2020 12:00:00 PM 8.3 46.94 0.421 7.53 22.54 10.33
11/4/2020 12:15:00 PM 8.46 47.228 0.421 7.52 8.4 10.12
11/4/2020 12:30:00 PM 8.59 47.462 0.421 7.51 6.1 10.07
11/4/2020 12:45:00 PM 8.74 47.732 0.422 7.5 5.21 9.98
11/4/2020 1:00:00 PM 8.9 48.02 0.422 7.51 5.13 9.88
11/4/2020 1:15:00 PM 9 48.2 0.422 7.49 5.18 9.62
11/4/2020 1:30:00 PM 9.18 48.524 0.422 7.51 4.76 9.73
11/4/2020 1:45:00 PM 9.23 48.614 0.422 7.5 6.21 9.53
11/4/2020 2:00:00 PM 9.42 48.956 0.422 7.54 4.94 9.78
11/4/2020 2:15:00 PM 9.54 49.172 0.422 7.55 4.73 9.82
11/4/2020 2:30:00 PM 9.58 49.244 0.421 7.55 4.64 9.98
11/4/2020 2:45:00 PM 9.65 49.37 0.421 7.57 4.57 10.19
11/4/2020 3:00:00 PM 9.69 49.442 0.421 7.57 4.52 10.18
11/4/2020 3:15:00 PM 9.68 49.424 0.422 7.56 4.5 9.99
11/4/2020 3:30:00 PM 9.68 49.424 0.421 7.53 4.52 9.45
11/4/2020 3:45:00 PM 9.67 49.406 0.421 7.54 4.62 9.32
11/4/2020 4:00:00 PM 9.67 49.406 0.421 7.56 4.49 9.49
11/4/2020 4:15:00 PM 9.64 49.352 0.421 7.55 4.51 9.68
11/4/2020 4:30:00 PM 9.62 49.316 0.421 7.52 4.42 9.53
11/4/2020 4:45:00 PM 9.59 49.262 0.421 7.54 4.4 9.65
11/4/2020 5:00:00 PM 9.55 49.19 0.422 7.54 4.67 9.69
11/4/2020 5:15:00 PM 9.52 49.136 0.422 7.55 4.5 9.5
11/4/2020 5:30:00 PM 9.49 49.082 0.423 7.51 4.95 9.29
11/4/2020 5:45:00 PM 9.46 49.028 0.423 7.52 4.37 9.49
11/4/2020 6:00:00 PM 9.42 48.956 0.423 7.51 4.45 9.51
11/4/2020 6:15:00 PM 9.38 48.884 0.422 7.52 4.55 9.64
11/4/2020 6:30:00 PM 9.34 48.812 0.422 7.52 4.57 9.4
11/4/2020 6:45:00 PM 9.31 48.758 0.423 7.51 4.47 9.49
11/4/2020 7:00:00 PM 9.29 48.722 0.422 7.51 4.48 9.47
11/4/2020 7:15:00 PM 9.26 48.668 0.423 7.5 4.56 9.43
11/4/2020 7:30:00 PM 9.23 48.614 0.423 7.5 4.42 9.4
11/4/2020 7:45:00 PM 9.21 48.578 0.423 7.51 4.41 9.54
11/4/2020 8:00:00 PM 9.2 48.56 0.423 7.5 4.52 9.41
11/4/2020 8:15:00 PM 9.19 48.542 0.423 7.48 4.47 9.17
11/4/2020 8:30:00 PM 9.17 48.506 0.424 7.48 4.45 9.12
11/4/2020 8:45:00 PM 9.17 48.506 0.422 7.48 4.66 9.28
11/4/2020 9:00:00 PM 9.14 48.452 0.423 7.49 4.49 9.3
11/4/2020 9:15:00 PM 9.12 48.416 0.423 7.49 4.41 9.23
11/4/2020 9:30:00 PM 9.11 48.398 0.423 7.5 4.29 9.31
11/4/2020 9:45:00 PM 9.08 48.344 0.424 7.5 4.86 9.31
11/4/2020 10:00:00 PM 9.04 48.272 0.423 7.51 4.58 9.51
11/4/2020 10:15:00 PM 9.03 48.254 0.423 7.51 4.49 9.52
11/4/2020 10:30:00 PM 8.98 48.164 0.423 7.51 4.59 9.49
11/4/2020 10:45:00 PM 8.96 48.128 0.424 7.5 4.43 9.39
11/4/2020 11:00:00 PM 8.91 48.038 0.424 7.51 4.35 9.51
11/4/2020 11:15:00 PM 8.89 48.002 0.424 7.5 4.46 9.49
11/4/2020 11:30:00 PM 8.88 47.984 0.423 7.5 4.4 9.38
11/4/2020 11:45:00 PM 8.86 47.948 0.424 7.49 4.5 9.34
11/5/2020 12:00:00 AM 8.82 47.876 0.425 7.49 4.71 9.34
11/5/2020 12:15:00 AM 8.77 47.786 0.426 7.5 4.42 9.35
11/5/2020 12:30:00 AM 8.74 47.732 0.424 7.5 4.47 9.35
11/5/2020 12:45:00 AM 8.69 47.642 0.425 7.5 4.29 9.39
11/5/2020 1:00:00 AM 8.66 47.588 0.425 7.5 4.53 9.44
11/5/2020 1:15:00 AM 8.62 47.516 0.424 7.5 4.43 9.34
11/5/2020 1:30:00 AM 8.59 47.462 0.425 7.49 4.44 9.38
11/5/2020 1:45:00 AM 8.55 47.39 0.425 7.49 4.46 9.37
11/5/2020 2:00:00 AM 8.52 47.336 0.426 7.49 4.33 9.3
11/5/2020 2:15:00 AM 8.5 47.3 0.425 7.49 4.27 9.32
11/5/2020 2:30:00 AM 8.42 47.156 0.426 7.5 4.42 9.45
11/5/2020 2:45:00 AM 8.41 47.138 0.426 7.48 4.38 9.37
11/5/2020 3:00:00 AM 8.36 47.048 0.427 7.48 4.77 9.31
11/5/2020 3:15:00 AM 8.32 46.976 0.426 7.48 4.63 9.4
11/5/2020 3:30:00 AM 8.27 46.886 0.426 7.48 4.73 9.41
11/5/2020 3:45:00 AM 8.27 46.886 0.426 7.47 4.32 9.26
11/5/2020 4:00:00 AM 8.21 46.778 0.426 7.46 4.26 9.13
11/5/2020 4:15:00 AM 8.13 46.634 0.426 7.48 4.44 9.36
11/5/2020 4:30:00 AM 8.1 46.58 0.426 7.48 4.27 9.44
11/5/2020 4:45:00 AM 8.05 46.49 0.427 7.49 4.58 9.53
11/5/2020 5:00:00 AM 8.01 46.418 0.427 7.48 4.58 9.52
11/5/2020 5:15:00 AM 7.98 46.364 0.427 7.47 4.59 9.37
11/5/2020 5:30:00 AM 7.93 46.274 0.425 7.48 4.49 9.6
11/5/2020 5:45:00 AM 7.89 46.202 0.426 7.48 4.56 9.53
11/5/2020 6:00:00 AM 7.87 46.166 0.427 7.46 4.56 9.35
11/5/2020 6:15:00 AM 7.78 46.004 0.426 7.48 4.78 9.54
11/5/2020 6:30:00 AM 7.72 45.896 0.427 7.49 4.82 9.78
11/5/2020 6:45:00 AM 7.67 45.806 0.427 7.49 4.68 9.73
11/5/2020 7:00:00 AM 7.68 45.824 0.426 7.48 7.56 9.51
11/5/2020 7:15:00 AM 7.64 45.752 0.426 7.48 6.01 9.55
11/5/2020 7:30:00 AM 7.6 45.68 0.426 7.49 4.79 9.73
11/5/2020 7:45:00 AM 7.59 45.662 0.426 7.48 5.68 9.74
11/5/2020 8:00:00 AM 7.62 45.716 0.426 7.49 4.99 9.75
11/5/2020 8:15:00 AM 7.65 45.77 0.426 7.48 4.76 9.69
11/5/2020 8:30:00 AM 7.68 45.824 0.427 7.48 4.69 9.78
11/5/2020 8:45:00 AM 7.73 45.914 0.425 7.5 4.36 9.9
11/5/2020 9:00:00 AM 7.77 45.986 0.426 7.52 4.19 10.28
11/5/2020 9:15:00 AM 7.84 46.112 0.426 7.54 4.2 10.4
11/5/2020 9:30:00 AM 7.9 46.22 0.426 7.54 4.27 10.43
11/5/2020 9:45:00 AM 7.98 46.364 0.426 7.54 4.2 10.37
11/5/2020 10:00:00 AM 8.1 46.58 0.426 7.53 4.09 10.29
11/5/2020 10:15:00 AM 8.27 46.886 0.426 7.53 4.23 10.28
11/5/2020 10:30:00 AM 8.46 47.228 0.426 7.54 5.64 10.25
11/5/2020 10:45:00 AM 8.63 47.534 0.426 7.54 10.35 10.13
11/5/2020 11:00:00 AM 8.77 47.786 0.426 7.55 5.45 10.15
11/5/2020 11:15:00 AM 8.88 47.984 0.426 7.53 4.68 10.16
11/5/2020 11:30:00 AM 9.01 48.218 0.426 7.53 4.29 9.85
11/5/2020 11:45:00 AM 9.19 48.542 0.426 7.54 4.22 9.55
11/5/2020 12:00:00 PM 9.32 48.776 0.426 7.52 4.75 9.48
11/5/2020 12:15:00 PM 9.43 48.974 0.425 7.51 4.25 9.25
11/5/2020 12:30:00 PM 9.49 49.082 0.425 7.46 4.99 8.79
11/5/2020 12:45:00 PM 9.63 49.334 0.426 7.45 5.75 8.6
11/5/2020 1:00:00 PM 9.75 49.55 0.426 7.44 4.93 8.37
11/5/2020 1:15:00 PM 9.86 49.748 0.427 7.44 4.4 8.3
11/5/2020 1:30:00 PM 9.96 49.928 0.427 7.43 4.73 8.29
11/5/2020 1:45:00 PM 10.04 50.072 0.425 7.42 4.21 7.91
11/5/2020 2:00:00 PM 10.11 50.198 0.425 7.39 5.72 7.45
11/5/2020 2:15:00 PM 10.21 50.378 0.427 7.41 4.61 7.48
11/5/2020 2:30:00 PM 10.26 50.468 0.426 7.39 4.16 7.2
11/5/2020 2:45:00 PM 10.35 50.63 0.426 7.39 4.49 7.32
11/5/2020 3:00:00 PM 10.4 50.72 0.426 7.39 4.39 7.2
11/5/2020 3:15:00 PM 10.45 50.81 0.427 7.38 3.84 7.05
11/5/2020 3:30:00 PM 10.47 50.846 0.427 7.39 3.75 6.85
11/5/2020 3:45:00 PM 10.5 50.9 0.427 7.38 3.86 6.78
11/5/2020 4:00:00 PM 10.52 50.936 0.426 7.38 4.26 6.42
11/5/2020 4:15:00 PM 10.53 50.954 0.426 7.4 4.59 6.81
11/5/2020 4:30:00 PM 10.54 50.972 0.425 7.43 3.81 7.08
11/5/2020 4:45:00 PM 10.53 50.954 0.425 7.43 3.8 7.4
11/5/2020 5:00:00 PM 10.51 50.918 0.427 7.42 3.85 7.24
11/5/2020 5:15:00 PM 10.5 50.9 0.426 7.44 4.13 7.01
11/5/2020 5:30:00 PM 10.47 50.846 0.425 7.48 4.7 7.81
11/5/2020 5:45:00 PM 10.47 50.846 0.426 7.51 3.79 8.07
11/5/2020 6:00:00 PM 10.42 50.756 0.425 7.51 3.94 8.38
11/5/2020 6:15:00 PM 10.39 50.702 0.426 7.52 3.91 8.54
11/5/2020 6:30:00 PM 10.36 50.648 0.426 7.49 3.92 8.39
11/5/2020 6:45:00 PM 10.33 50.594 0.427 7.51 3.89 8.63
11/5/2020 7:00:00 PM 10.3 50.54 0.425 7.5 3.86 8.75
11/5/2020 7:15:00 PM 10.27 50.486 0.425 7.49 3.9 8.59
11/5/2020 7:30:00 PM 8.89 48.002 0.37 6.51 3.4 7.56
11/5/2020 7:45:00 PM 10.05 50.09 0.419 7.36 3.82 8.33
11/5/2020 8:00:00 PM 10.18 50.324 0.425 7.45 3.96 8.16
11/5/2020 8:15:00 PM 10.19 50.342 0.425 7.49 3.91 8.72
11/5/2020 8:30:00 PM 10.18 50.324 0.427 7.48 3.94 8.25
11/5/2020 8:45:00 PM 10.15 50.27 0.427 7.49 4.04 8.52
11/5/2020 9:00:00 PM 10.14 50.252 0.427 7.47 3.85 8.46
11/5/2020 9:15:00 PM 10.12 50.216 0.425 7.47 3.83 8.4
11/5/2020 9:30:00 PM 10.09 50.162 0.426 7.49 3.83 8.78
11/5/2020 9:45:00 PM 10.06 50.108 0.426 7.49 3.97 8.82
11/5/2020 10:00:00 PM 10.03 50.054 0.427 7.48 3.91 8.64
11/5/2020 10:15:00 PM 10.01 50.018 0.427 7.48 3.73 8.7
11/5/2020 10:30:00 PM 9.99 49.982 0.425 7.47 3.83 8.52
11/5/2020 10:45:00 PM 9.96 49.928 0.426 7.46 3.87 8.61
11/5/2020 11:00:00 PM 9.94 49.892 0.427 7.47 3.88 8.65
11/5/2020 11:15:00 PM 9.93 49.874 0.427 7.46 3.86 8.57
11/5/2020 11:30:00 PM 9.89 49.802 0.426 7.47 3.88 8.73
11/5/2020 11:45:00 PM 9.88 49.784 0.428 7.45 3.98 8.57
11/6/2020 12:00:00 AM 8.53 47.354 0.371 6.46 3.13 7.52
11/6/2020 12:15:00 AM 9.62 49.316 0.419 7.35 3.7 8.75
11/6/2020 12:30:00 AM 9.74 49.532 0.426 7.47 3.92 8.85
11/6/2020 12:45:00 AM 9.74 49.532 0.427 7.47 3.84 8.6
11/6/2020 1:00:00 AM 9.72 49.496 0.428 7.46 3.7 8.66
11/6/2020 1:15:00 AM 9.67 49.406 0.428 7.48 3.7 8.9
11/6/2020 1:30:00 AM 9.62 49.316 0.428 7.49 3.83 8.92
11/6/2020 1:45:00 AM 9.6 49.28 0.429 7.48 3.77 8.88
11/6/2020 2:00:00 AM 9.6 49.28 0.429 7.47 3.74 8.84
11/6/2020 2:15:00 AM 9.58 49.244 0.428 7.47 3.8 8.75
11/6/2020 2:30:00 AM 9.55 49.19 0.429 7.47 3.89 8.73
11/6/2020 2:45:00 AM 9.52 49.136 0.429 7.47 3.85 8.74
11/6/2020 3:00:00 AM 9.52 49.136 0.429 7.47 3.8 8.83
11/6/2020 3:15:00 AM 9.48 49.064 0.43 7.48 3.72 8.96
11/6/2020 3:30:00 AM 9.47 49.046 0.429 7.47 3.81 8.96
11/6/2020 3:45:00 AM 9.46 49.028 0.429 7.46 3.74 8.75
11/6/2020 4:00:00 AM 9.44 48.992 0.43 7.46 3.83 8.77
11/6/2020 4:15:00 AM 9.4 48.92 0.43 7.46 4 8.84
11/6/2020 4:30:00 AM 9.4 48.92 0.43 7.45 3.95 8.85
11/6/2020 4:45:00 AM 9.37 48.866 0.431 7.45 3.92 8.71
11/6/2020 5:00:00 AM 9.34 48.812 0.43 7.46 3.88 8.84
11/6/2020 5:15:00 AM 9.3 48.74 0.43 7.46 4.09 8.97
11/6/2020 5:30:00 AM 9.29 48.722 0.431 7.45 3.89 8.83
11/6/2020 5:45:00 AM 9.27 48.686 0.43 7.44 3.79 8.76
11/6/2020 6:00:00 AM 9.22 48.596 0.43 7.45 3.89 8.86
11/6/2020 6:15:00 AM 9.2 48.56 0.43 7.45 3.91 8.87
11/6/2020 6:30:00 AM 9.17 48.506 0.43 7.45 3.9 8.88
11/6/2020 6:45:00 AM 9.13 48.434 0.43 7.45 4.37 8.98
11/6/2020 7:00:00 AM 9.12 48.416 0.43 7.44 3.96 8.79
11/6/2020 7:15:00 AM 9.07 48.326 0.431 7.45 3.98 8.9
11/6/2020 7:30:00 AM 9.06 48.308 0.431 7.44 4.29 8.87
11/6/2020 7:45:00 AM 9.04 48.272 0.431 7.46 3.99 9.04
11/6/2020 8:00:00 AM 9.04 48.272 0.431 7.46 3.94 9.04
11/6/2020 8:15:00 AM 9.01 48.218 0.43 7.46 3.93 9.06
11/6/2020 8:30:00 AM 8.99 48.182 0.431 7.48 3.94 9.29
11/6/2020 8:45:00 AM 9 48.2 0.43 7.48 3.86 9.28
11/6/2020 9:00:00 AM 9.04 48.272 0.43 7.48 3.69 9.41
11/6/2020 9:15:00 AM 9.07 48.326 0.431 7.5 3.86 9.68
11/6/2020 9:30:00 AM 9.11 48.398 0.431 7.51 3.95 9.67
11/6/2020 9:45:00 AM 9.16 48.488 0.431 7.5 3.85 9.49
11/6/2020 10:00:00 AM 9.23 48.614 0.43 7.5 3.88 9.54
11/6/2020 10:15:00 AM 9.32 48.776 0.431 7.47 3.79 9.07
11/6/2020 10:30:00 AM 9.48 49.064 0.43 7.47 3.74 8.95
11/6/2020 10:45:00 AM 9.65 49.37 0.431 7.48 3.91 9.02
11/6/2020 11:00:00 AM 9.73 49.514 0.43 7.44 3.81 7.83
11/6/2020 11:15:00 AM 9.83 49.694 0.431 7.41 3.62 7.47
11/6/2020 11:30:00 AM 9.96 49.928 0.431 7.4 3.63 7.38
11/6/2020 11:45:00 AM 10.04 50.072 0.43 7.37 3.69 6.55
11/6/2020 12:00:00 PM 10.17 50.306 0.431 7.37 3.9 6.55
11/6/2020 12:15:00 PM 10.24 50.432 0.429 7.35 3.88 6.39
11/6/2020 12:30:00 PM 10.32 50.576 0.429 7.35 3.84 6.22
11/6/2020 12:45:00 PM 10.41 50.738 0.431 7.33 3.76 5.77
11/6/2020 1:00:00 PM 10.52 50.936 0.432 7.31 3.68 5.48
11/6/2020 1:15:00 PM 10.56 51.008 0.431 7.28 3.67 4.95
11/6/2020 1:30:00 PM 10.62 51.116 0.433 7.26 3.99 4.53
11/6/2020 1:45:00 PM 10.67 51.206 0.434 7.23 3.97 4.25
11/6/2020 2:00:00 PM 10.71 51.278 0.435 7.22 4.07 3.94
11/6/2020 2:15:00 PM 10.79 51.422 0.437 7.22 3.9 3.85
11/6/2020 2:30:00 PM 10.83 51.494 0.435 7.22 4.17 3.49
11/6/2020 2:45:00 PM 10.87 51.566 0.438 7.2 4.02 3.24
11/6/2020 3:00:00 PM 10.93 51.674 0.44 7.18 3.84 2.92
11/6/2020 3:15:00 PM 10.95 51.71 0.445 7.14 4.22 2.51
11/6/2020 3:30:00 PM 11.01 51.818 0.454 7.11 3.98 2.57
11/6/2020 3:45:00 PM 11.08 51.944 0.46 7.11 3.98 2.45
11/6/2020 4:00:00 PM 11.12 52.016 0.467 7.1 3.82 2.46
11/6/2020 4:15:00 PM 11.13 52.034 0.471 7.09 3.9 2.61
11/6/2020 4:30:00 PM 11.14 52.052 0.481 7.06 3.81 2.4
11/6/2020 4:45:00 PM 11.15 52.07 0.485 7.04 3.85 2.39
11/6/2020 5:00:00 PM 11.17 52.106 0.487 7.05 3.81 2.66
11/6/2020 5:15:00 PM 11.18 52.124 0.486 7.06 3.79 3
11/6/2020 5:30:00 PM 11.17 52.106 0.483 7.06 4.2 3.27
11/6/2020 5:45:00 PM 11.15 52.07 0.482 7.06 4.07 3.31
11/6/2020 6:00:00 PM 11.15 52.07 0.476 7.09 4.05 3.93
11/6/2020 6:15:00 PM 11.13 52.034 0.474 7.11 3.8 4.01
11/6/2020 6:30:00 PM 11.09 51.962 0.47 7.13 3.86 4.05
11/6/2020 6:45:00 PM 11.04 51.872 0.466 7.14 3.87 4.29
11/6/2020 7:00:00 PM 10.99 51.782 0.461 7.22 3.83 5.11
11/6/2020 7:15:00 PM 10.95 51.71 0.458 7.19 3.69 5.11
11/6/2020 7:30:00 PM 10.9 51.62 0.451 7.26 3.72 5.59
11/6/2020 7:45:00 PM 10.85 51.53 0.452 7.24 3.93 5.97
11/6/2020 8:00:00 PM 10.79 51.422 0.441 7.32 4.67 6.67
11/6/2020 8:15:00 PM 10.75 51.35 0.437 7.37 4.47 6.79
11/6/2020 8:30:00 PM 10.7 51.26 0.435 7.4 4.11 7.26
11/6/2020 8:45:00 PM 10.68 51.224 0.434 7.4 4.05 7.23
11/6/2020 9:00:00 PM 10.62 51.116 0.433 7.44 3.97 7.75
11/6/2020 9:15:00 PM 10.57 51.026 0.432 7.46 4.1 8.16
11/6/2020 9:30:00 PM 10.56 51.008 0.432 7.44 4.02 7.95
11/6/2020 9:45:00 PM 10.52 50.936 0.432 7.47 4.02 8.17
11/6/2020 10:00:00 PM 10.47 50.846 0.43 7.48 3.94 8.6
11/6/2020 10:15:00 PM 10.44 50.792 0.429 7.47 4.05 8.39
11/6/2020 10:30:00 PM 10.4 50.72 0.43 7.47 3.94 8.25
11/6/2020 10:45:00 PM 10.38 50.684 0.431 7.46 3.98 8.26
11/6/2020 11:00:00 PM 10.34 50.612 0.43 7.48 4.07 8.69
11/6/2020 11:15:00 PM 10.3 50.54 0.43 7.49 4.04 8.76
11/6/2020 11:30:00 PM 10.29 50.522 0.431 7.46 3.98 8.5
11/6/2020 11:45:00 PM 10.26 50.468 0.431 7.46 3.95 8.45
11/7/2020 12:00:00 AM 10.21 50.378 0.43 7.47 3.88 8.42
11/7/2020 12:15:00 AM 10.15 50.27 0.431 7.48 3.89 8.57
11/7/2020 12:30:00 AM 10.09 50.162 0.43 7.48 3.81 8.7
11/7/2020 12:45:00 AM 10.09 50.162 0.43 7.46 3.88 8.46
11/7/2020 1:00:00 AM 10.05 50.09 0.431 7.45 3.9 8.48
11/7/2020 1:15:00 AM 9.99 49.982 0.431 7.46 3.95 8.51
11/7/2020 1:30:00 AM 9.93 49.874 0.431 7.47 3.82 8.48
11/7/2020 1:45:00 AM 9.92 49.856 0.433 7.46 3.68 8.57
11/7/2020 2:00:00 AM 9.87 49.766 0.431 7.46 3.8 8.62
11/7/2020 2:15:00 AM 9.85 49.73 0.432 7.46 3.84 8.55
11/7/2020 2:30:00 AM 9.79 49.622 0.431 7.46 4.13 8.66
11/7/2020 2:45:00 AM 9.78 49.604 0.432 7.44 3.95 8.53
11/7/2020 3:00:00 AM 9.72 49.496 0.433 7.44 3.78 8.53
11/7/2020 3:15:00 AM 9.67 49.406 0.432 7.44 3.69 8.54
11/7/2020 3:30:00 AM 9.67 49.406 0.433 7.43 3.86 8.45
11/7/2020 3:45:00 AM 9.54 49.172 0.432 7.46 3.69 8.8
11/7/2020 4:00:00 AM 9.49 49.082 0.436 7.41 144.89 8.3
11/7/2020 4:15:00 AM 9.45 49.01 0.434 7.43 32.64 8.43
11/7/2020 4:30:00 AM 9.45 49.01 0.433 7.43 11.92 8.53
11/7/2020 4:45:00 AM 9.34 48.812 0.433 7.46 6.36 8.76
11/7/2020 5:00:00 AM 9.27 48.686 0.432 7.47 4.94 8.97
11/7/2020 5:15:00 AM 9.26 48.668 0.433 7.46 19.42 8.86
11/7/2020 5:30:00 AM 9.19 48.542 0.431 7.46 7.4 8.88
11/7/2020 5:45:00 AM 9.17 48.506 0.432 7.46 5.1 8.88
11/7/2020 6:00:00 AM 9.14 48.452 0.434 7.44 5.35 8.55
11/7/2020 6:15:00 AM 9.05 48.29 0.432 7.46 5.59 8.89
11/7/2020 6:30:00 AM 9.01 48.218 0.432 7.46 4.98 8.86
11/7/2020 6:45:00 AM 8.97 48.146 0.432 7.47 4.81 8.92
11/7/2020 7:00:00 AM 8.96 48.128 0.432 7.46 4.46 8.87
11/7/2020 7:15:00 AM 8.93 48.074 0.432 7.45 4.54 8.91
11/7/2020 7:30:00 AM 8.86 47.948 0.432 7.46 4.56 8.99
11/7/2020 7:45:00 AM 8.78 47.804 0.432 7.47 4.41 9.1
11/7/2020 8:00:00 AM 8.77 47.786 0.432 7.48 4.4 9.2
11/7/2020 8:15:00 AM 8.76 47.768 0.432 7.49 4.47 9.35
11/7/2020 8:30:00 AM 8.79 47.822 0.432 7.5 4.28 9.52
11/7/2020 8:45:00 AM 8.83 47.894 0.432 7.52 4.24 9.7
11/7/2020 9:00:00 AM 8.87 47.966 0.431 7.52 4.17 9.75
11/7/2020 9:15:00 AM 8.92 48.056 0.431 7.53 4.21 9.79
11/7/2020 9:30:00 AM 8.98 48.164 0.432 7.53 4.28 9.93
11/7/2020 9:45:00 AM 9.05 48.29 0.431 7.54 4.36 9.94
11/7/2020 10:00:00 AM 9.18 48.524 0.431 7.53 4.53 9.86
11/7/2020 10:15:00 AM 9.3 48.74 0.432 7.5 4.36 9.53
11/7/2020 10:30:00 AM 9.43 48.974 0.433 7.46 4.14 9.04
11/7/2020 10:45:00 AM 9.52 49.136 0.433 7.42 4.18 8.44
11/7/2020 11:00:00 AM 9.63 49.334 0.436 7.36 4.09 7.23
11/7/2020 11:15:00 AM 9.68 49.424 0.442 7.28 4.22 5.85
11/7/2020 11:30:00 AM 9.78 49.604 0.443 7.26 4.11 4.94
11/7/2020 11:45:00 AM 9.87 49.766 0.447 7.22 3.95 4.26
11/7/2020 12:00:00 PM 9.96 49.928 0.45 7.2 4.4 3.99
11/7/2020 12:15:00 PM 10.14 50.252 0.447 7.23 4.85 4.84
11/7/2020 12:30:00 PM 10.13 50.234 0.446 7.2 4.22 3.87
11/7/2020 12:45:00 PM 10.17 50.306 0.455 7.16 3.92 3.38
11/7/2020 1:00:00 PM 10.23 50.414 0.46 7.13 4.02 2.75
11/7/2020 1:15:00 PM 10.29 50.522 0.467 7.11 4.05 2.51
11/7/2020 1:30:00 PM 10.36 50.648 0.488 7.07 4.07 2.5
11/7/2020 1:45:00 PM 10.42 50.756 0.493 7.05 4.15 2.2
11/7/2020 2:00:00 PM 10.49 50.882 0.513 7.03 4.05 2.05
11/7/2020 2:15:00 PM 10.56 51.008 0.518 7.02 3.98 1.97
11/7/2020 2:30:00 PM 10.63 51.134 0.531 7 4.04 1.77
11/7/2020 2:45:00 PM 10.71 51.278 0.537 6.98 4.58 1.88
11/7/2020 3:00:00 PM 10.75 51.35 0.542 6.97 4.16 1.74
11/7/2020 3:15:00 PM 10.8 51.44 0.552 6.95 4.06 1.68
11/7/2020 3:30:00 PM 10.84 51.512 0.558 6.93 4.12 1.52
11/7/2020 3:45:00 PM 10.87 51.566 0.565 6.92 4.03 1.42
11/7/2020 4:00:00 PM 10.91 51.638 0.567 6.92 4.1 1.43
11/7/2020 4:15:00 PM 10.99 51.782 0.567 6.92 4.15 1.34
11/7/2020 4:30:00 PM 11.05 51.89 0.57 6.91 4.23 1.43
11/7/2020 4:45:00 PM 11.08 51.944 0.567 6.91 4.23 1.47
11/7/2020 5:00:00 PM 11.09 51.962 0.57 6.92 4.17 1.52
11/7/2020 5:15:00 PM 11.12 52.016 0.568 6.92 4.05 1.68
11/7/2020 5:30:00 PM 11.13 52.034 0.559 6.93 4.01 1.71
11/7/2020 5:45:00 PM 11.13 52.034 0.561 6.93 4.15 1.77
11/7/2020 6:00:00 PM 11.12 52.016 0.564 6.93 4.05 1.75
11/7/2020 6:15:00 PM 11.11 51.998 0.556 6.93 4.06 1.97
11/7/2020 6:30:00 PM 11.09 51.962 0.554 6.95 4.03 2.11
11/7/2020 6:45:00 PM 11.07 51.926 0.552 6.95 4.05 2.14
11/7/2020 7:00:00 PM 11.04 51.872 0.547 6.97 4.11 2.36
11/7/2020 7:15:00 PM 11.01 51.818 0.546 6.95 4.29 2.31
11/7/2020 7:30:00 PM 10.98 51.764 0.544 6.97 4.98 2.64
11/7/2020 7:45:00 PM 10.95 51.71 0.538 6.98 4.54 2.86
11/7/2020 8:00:00 PM 10.92 51.656 0.531 6.99 4.29 3.08
11/7/2020 8:15:00 PM 10.88 51.584 0.531 7 4.09 3.03
11/7/2020 8:30:00 PM 10.86 51.548 0.528 6.98 4.06 2.88
11/7/2020 8:45:00 PM 10.82 51.476 0.526 7.02 4.24 3.1
11/7/2020 9:00:00 PM 10.79 51.422 0.519 7.01 4.14 3.12
11/7/2020 9:15:00 PM 10.78 51.404 0.524 7.01 4.02 3.34
11/7/2020 9:30:00 PM 10.76 51.368 0.516 7.01 4.14 3.18
11/7/2020 9:45:00 PM 10.73 51.314 0.518 7.02 4.07 3.09
11/7/2020 10:00:00 PM 10.7 51.26 0.516 7.03 4.07 3.24
11/7/2020 10:15:00 PM 10.67 51.206 0.52 7.01 4.24 3.25
11/7/2020 10:30:00 PM 10.63 51.134 0.514 7.02 4.18 3.19
11/7/2020 10:45:00 PM 10.58 51.044 0.506 7.05 4.24 3.39
11/7/2020 11:00:00 PM 10.56 51.008 0.506 7.04 4.11 3.4
11/7/2020 11:15:00 PM 10.54 50.972 0.507 7.03 4.24 3.35
11/7/2020 11:30:00 PM 10.49 50.882 0.5 7.04 4.47 3.45
11/7/2020 11:45:00 PM 10.46 50.828 0.5 7.03 4.53 3.45
11/8/2020 12:00:00 AM 10.45 50.81 0.494 7.07 4.15 3.83
11/8/2020 12:15:00 AM 10.41 50.738 0.498 7.05 4.21 3.75
11/8/2020 12:30:00 AM 8.97 48.146 0.43 6.11 3.46 3.28
11/8/2020 12:45:00 AM 10.14 50.252 0.491 6.94 4.05 3.7
11/8/2020 1:00:00 AM 10.26 50.468 0.49 7.06 4.21 3.89
11/8/2020 1:15:00 AM 10.21 50.378 0.478 7.13 4.23 4.52
11/8/2020 1:30:00 AM 10.21 50.378 0.483 7.11 4.08 4.4
11/8/2020 1:45:00 AM 8.79 47.822 0.417 6.16 3.48 3.91
11/8/2020 2:00:00 AM 9.93 49.874 0.474 6.97 3.95 4.64
11/8/2020 2:15:00 AM 10.05 50.09 0.482 7.09 4.07 4.36
11/8/2020 2:30:00 AM 10 50 0.476 7.13 4.16 4.87
11/8/2020 2:45:00 AM 10.02 50.036 0.484 7.09 3.99 4.54
11/8/2020 3:00:00 AM 9.97 49.946 0.488 7.09 4.11 4.42
11/8/2020 3:15:00 AM 9.93 49.874 0.486 7.07 4.08 4.49
11/8/2020 3:30:00 AM 9.86 49.748 0.48 7.12 4.09 4.71
11/8/2020 3:45:00 AM 9.83 49.694 0.476 7.13 4.09 4.77
11/8/2020 4:00:00 AM 9.76 49.568 0.467 7.12 4.06 5.26
11/8/2020 4:15:00 AM 9.71 49.478 0.465 7.17 4.09 5.62
11/8/2020 4:30:00 AM 9.66 49.388 0.467 7.16 4.09 5.46
11/8/2020 4:45:00 AM 9.53 49.154 0.461 7.23 4.25 5.9
11/8/2020 5:00:00 AM 8.22 46.796 0.397 6.25 3.55 5.12
11/8/2020 5:15:00 AM 9.26 48.668 0.447 7.11 4.13 6.21
11/8/2020 5:30:00 AM 9.39 48.902 0.459 7.14 4.15 5.98
11/8/2020 5:45:00 AM 9.38 48.884 0.458 7.21 4.16 6.08
11/8/2020 6:00:00 AM 9.34 48.812 0.458 7.2 4.15 6.26
11/8/2020 6:15:00 AM 9.3 48.74 0.454 7.2 4.15 6.48
11/8/2020 6:30:00 AM 9.23 48.614 0.462 7.21 5.16 6.48
11/8/2020 6:45:00 AM 9.17 48.506 0.46 7.19 4.67 6.39
11/8/2020 7:00:00 AM 9.06 48.308 0.456 7.27 4.6 6.82
11/8/2020 7:15:00 AM 9.03 48.254 0.449 7.28 4.4 6.91
11/8/2020 7:30:00 AM 9 48.2 0.453 7.23 4.34 6.81
11/8/2020 7:45:00 AM 8.99 48.182 0.459 7.26 4.12 6.51
11/8/2020 8:00:00 AM 9 48.2 0.456 7.24 4.19 6.44
11/8/2020 8:15:00 AM 9.04 48.272 0.461 7.23 4.33 6.38
11/8/2020 8:30:00 AM 9 48.2 0.453 7.28 5.37 6.9
11/8/2020 8:45:00 AM 9.03 48.254 0.449 7.31 5.57 7.13
11/8/2020 9:00:00 AM 9.05 48.29 0.447 7.3 4.57 7.24
11/8/2020 9:15:00 AM 9.11 48.398 0.453 7.27 4.22 6.73
11/8/2020 9:30:00 AM 9.14 48.452 0.456 7.24 4.25 6.32
11/8/2020 9:45:00 AM 9.19 48.542 0.458 7.23 4.22 6.19
11/8/2020 10:00:00 AM 9.26 48.668 0.469 7.17 3.99 5.6
11/8/2020 10:15:00 AM 9.33 48.794 0.47 7.22 4.09 5.55
11/8/2020 10:30:00 AM 8.21 46.778 0.406 6.25 3.55 5.19
11/8/2020 10:45:00 AM 9.37 48.866 0.458 7.05 4.03 5.52
11/8/2020 11:00:00 AM 9.61 49.298 0.472 7.17 4.13 5.27
11/8/2020 11:15:00 AM 9.74 49.532 0.478 7.15 4.17 4.89
11/8/2020 11:30:00 AM 9.87 49.766 0.48 7.12 4.18 4.54
11/8/2020 11:45:00 AM 9.96 49.928 0.486 7.11 4.04 4.11
11/8/2020 12:00:00 PM 10.05 50.09 0.489 7.1 4.12 3.68
11/8/2020 12:15:00 PM 10.12 50.216 0.498 7.08 4.1 3.45
11/8/2020 12:30:00 PM 10.17 50.306 0.504 7.06 4.13 2.96
11/8/2020 12:45:00 PM 10.24 50.432 0.506 7.05 4.3 2.41
11/8/2020 1:00:00 PM 10.33 50.594 0.52 7.02 4.24 2.12
11/8/2020 1:15:00 PM 10.43 50.774 0.532 7 4.44 2
11/8/2020 1:30:00 PM 10.58 51.044 0.534 6.99 4.4 1.99
11/8/2020 1:45:00 PM 10.67 51.206 0.533 6.99 4.43 2.22
11/8/2020 2:00:00 PM 10.73 51.314 0.533 6.99 4.4 2.33
11/8/2020 2:15:00 PM 10.78 51.404 0.539 6.99 4.39 2.16
11/8/2020 2:30:00 PM 10.81 51.458 0.544 6.98 4.46 1.88
11/8/2020 2:45:00 PM 10.85 51.53 0.551 6.96 4.3 1.71
11/8/2020 3:00:00 PM 10.91 51.638 0.56 6.95 4.34 1.51
11/8/2020 3:15:00 PM 10.95 51.71 0.566 6.93 4.47 1.42
11/8/2020 3:30:00 PM 11 51.8 0.565 6.94 4.44 1.38
11/8/2020 3:45:00 PM 11.04 51.872 0.567 6.94 4.4 1.41
11/8/2020 4:00:00 PM 11.08 51.944 0.571 6.93 4.43 1.42
11/8/2020 4:15:00 PM 11.12 52.016 0.573 6.92 4.27 1.41
11/8/2020 4:30:00 PM 11.13 52.034 0.577 6.93 4.36 1.4
11/8/2020 4:45:00 PM 11.15 52.07 0.578 6.93 4.52 1.38
11/8/2020 5:00:00 PM 11.17 52.106 0.582 6.92 4.39 1.35
11/8/2020 5:15:00 PM 11.18 52.124 0.584 6.91 4.39 1.31
11/8/2020 5:30:00 PM 11.17 52.106 0.582 6.91 4.41 1.28
11/8/2020 5:45:00 PM 11.18 52.124 0.581 6.91 5.71 1.38
11/8/2020 6:00:00 PM 11.17 52.106 0.573 6.92 4.92 1.38
11/8/2020 6:15:00 PM 11.14 52.052 0.573 6.93 4.55 1.52
11/8/2020 6:30:00 PM 11.12 52.016 0.577 6.93 4.92 1.48
11/8/2020 6:45:00 PM 11.11 51.998 0.58 6.92 4.57 1.42
11/8/2020 7:00:00 PM 11.08 51.944 0.578 6.92 4.53 1.44
11/8/2020 7:15:00 PM 11.05 51.89 0.572 6.93 4.46 1.54
11/8/2020 7:30:00 PM 11.04 51.872 0.568 6.94 4.39 1.67
11/8/2020 7:45:00 PM 11.01 51.818 0.576 6.93 4.26 1.62
11/8/2020 8:00:00 PM 10.97 51.746 0.574 6.94 4.39 1.64
11/8/2020 8:15:00 PM 10.93 51.674 0.568 6.94 4.26 1.66
11/8/2020 8:30:00 PM 10.91 51.638 0.57 6.93 4.3 1.7
11/8/2020 8:45:00 PM 10.88 51.584 0.565 6.94 4.33 1.84
11/8/2020 9:00:00 PM 10.86 51.548 0.563 6.95 4.22 2.01
11/8/2020 9:15:00 PM 10.83 51.494 0.553 6.96 4.48 2.19
11/8/2020 9:30:00 PM 10.8 51.44 0.548 6.96 4.42 2.13
11/8/2020 9:45:00 PM 10.78 51.404 0.551 6.96 4.32 2.08
11/8/2020 10:00:00 PM 10.77 51.386 0.559 6.95 4.34 1.93
11/8/2020 10:15:00 PM 10.74 51.332 0.555 6.96 4.29 1.97
11/8/2020 10:30:00 PM 10.71 51.278 0.55 6.96 4.34 2.22
11/8/2020 10:45:00 PM 10.69 51.242 0.551 6.96 4.43 2.08
11/8/2020 11:00:00 PM 10.68 51.224 0.552 6.96 4.34 1.93
11/8/2020 11:15:00 PM 10.67 51.206 0.55 6.96 4.6 1.9
11/8/2020 11:30:00 PM 10.63 51.134 0.547 6.97 5.33 2.03
11/8/2020 11:45:00 PM 10.59 51.062 0.541 6.98 5.47 2.15
11/9/2020 12:00:00 AM 10.59 51.062 0.548 6.98 5.09 2.05
11/9/2020 12:15:00 AM 10.57 51.026 0.546 6.98 4.91 2.27
11/9/2020 12:30:00 AM 10.54 50.972 0.543 6.97 4.7 2.21
11/9/2020 12:45:00 AM 10.51 50.918 0.544 6.97 4.52 2.25
11/9/2020 1:00:00 AM 10.48 50.864 0.544 6.97 4.54 2.26
11/9/2020 1:15:00 AM 10.46 50.828 0.541 6.98 5.23 2.45
11/9/2020 1:30:00 AM 10.41 50.738 0.53 7.01 4.65 2.84
11/9/2020 1:45:00 AM 10.38 50.684 0.534 7 4.44 2.69
11/9/2020 2:00:00 AM 10.38 50.684 0.541 6.99 4.31 2.31
11/9/2020 2:15:00 AM 10.35 50.63 0.543 6.98 4.34 2.4
11/9/2020 2:30:00 AM 10.33 50.594 0.547 6.97 5.32 2.38
11/9/2020 2:45:00 AM 8.92 48.056 0.47 6.05 3.87 1.98
11/9/2020 3:00:00 AM 10.06 50.108 0.532 6.85 4.41 2.26
11/9/2020 3:15:00 AM 10.18 50.324 0.54 6.96 4.42 2.24
11/9/2020 3:30:00 AM 10.19 50.342 0.544 6.96 4.25 2.06
11/9/2020 3:45:00 AM 10.15 50.27 0.534 6.98 4.23 2.26
11/9/2020 4:00:00 AM 10.1 50.18 0.538 6.97 4.21 2.29
11/9/2020 4:15:00 AM 10.09 50.162 0.539 6.97 4.25 2.23
11/9/2020 4:30:00 AM 10.07 50.126 0.54 6.97 4.34 2.47
11/9/2020 4:45:00 AM 10 50 0.533 6.97 4.36 2.42
11/9/2020 5:00:00 AM 9.99 49.982 0.536 6.97 4.29 2.41
11/9/2020 5:15:00 AM 9.94 49.892 0.538 6.98 4.25 2.64
11/9/2020 5:30:00 AM 9.9 49.82 0.533 6.98 4.32 2.7
11/9/2020 5:45:00 AM 9.87 49.766 0.527 7 4.32 2.85
11/9/2020 6:00:00 AM 9.83 49.694 0.528 6.99 4.35 2.91
11/9/2020 6:15:00 AM 9.78 49.604 0.527 7 4.33 2.91
11/9/2020 6:30:00 AM 9.75 49.55 0.529 7 8.33 3.09
11/9/2020 6:45:00 AM 9.74 49.532 0.522 7.01 6.52 2.95
11/9/2020 7:00:00 AM 9.7 49.46 0.517 7.03 5.06 3.23
11/9/2020 7:15:00 AM 9.67 49.406 0.516 7.02 4.74 2.99
11/9/2020 7:30:00 AM 9.67 49.406 0.517 7.01 4.47 2.89
11/9/2020 7:45:00 AM 9.65 49.37 0.522 7 4.49 2.54
11/9/2020 8:00:00 AM 9.63 49.334 0.523 7 4.82 2.71
11/9/2020 8:15:00 AM 9.57 49.226 0.509 7.02 4.47 2.87
11/9/2020 8:30:00 AM 9.59 49.262 0.513 7.02 4.47 3.02
11/9/2020 8:45:00 AM 9.64 49.352 0.519 7.01 4.39 2.62
11/9/2020 9:00:00 AM 9.68 49.424 0.513 7.03 71.55 3.12
11/9/2020 9:15:00 AM 9.7 49.46 0.518 7.02 15.9 3.13
11/9/2020 9:30:00 AM 9.71 49.478 0.518 7 6.99 2.78
11/9/2020 9:45:00 AM 9.76 49.568 0.531 6.98 5.61 2.45
11/9/2020 10:00:00 AM 9.79 49.622 0.539 6.95 4.99 2.16
11/9/2020 10:15:00 AM 9.85 49.73 0.54 6.95 4.57 1.9
11/9/2020 10:30:00 AM 9.9 49.82 0.554 6.93 4.44 1.75
11/9/2020 10:45:00 AM 9.95 49.91 0.559 6.89 4.5 1.52
11/9/2020 11:00:00 AM 10 50 0.556 6.89 4.49 1.52
11/9/2020 11:15:00 AM 10.07 50.126 0.57 6.88 4.52 1.42
11/9/2020 11:30:00 AM 10.13 50.234 0.575 6.86 4.45 1.39
11/9/2020 11:45:00 AM 10.18 50.324 0.578 6.84 4.48 1.31
11/9/2020 12:00:00 PM 10.24 50.432 0.589 6.84 4.45 1.26
11/9/2020 12:15:00 PM 10.3 50.54 0.594 6.84 4.54 1.26
11/9/2020 12:30:00 PM 10.36 50.648 0.6 6.83 4.5 1.19
11/9/2020 12:45:00 PM 10.42 50.756 0.601 6.83 4.48 1.25
11/9/2020 1:00:00 PM 10.49 50.882 0.611 6.82 4.39 1.19
11/9/2020 1:15:00 PM 10.56 51.008 0.611 6.82 4.57 1.18
11/9/2020 1:30:00 PM 10.66 51.188 0.617 6.82 4.42 1.18
11/9/2020 1:45:00 PM 10.73 51.314 0.624 6.82 4.4 1.16
11/9/2020 2:00:00 PM 10.82 51.476 0.625 6.82 4.4 1.19
11/9/2020 2:15:00 PM 10.88 51.584 0.624 6.82 4.44 1.17
11/9/2020 2:30:00 PM 10.96 51.728 0.631 6.81 4.41 1.2
11/9/2020 2:45:00 PM 11 51.8 0.634 6.81 4.33 1.14
11/9/2020 3:00:00 PM 11.06 51.908 0.639 6.8 4.57 1.12
11/9/2020 3:15:00 PM 11.11 51.998 0.635 6.8 4.55 1.16
11/9/2020 3:30:00 PM 11.16 52.088 0.636 6.79 4.53 1.16
11/9/2020 3:45:00 PM 11.2 52.16 0.639 6.79 4.45 1.1
11/9/2020 4:00:00 PM 11.22 52.196 0.64 6.79 4.53 1.1
11/9/2020 4:15:00 PM 11.26 52.268 0.642 6.79 4.55 1.1
11/9/2020 4:30:00 PM 11.31 52.358 0.638 6.8 4.52 1.1
11/9/2020 4:45:00 PM 11.33 52.394 0.639 6.8 4.44 1.09
11/9/2020 5:00:00 PM 11.36 52.448 0.639 6.8 4.38 1.1
11/9/2020 5:15:00 PM 11.38 52.484 0.637 6.8 4.39 1.12
11/9/2020 5:30:00 PM 9.9 49.82 0.551 5.9 3.68 0.96
11/9/2020 5:45:00 PM 11.22 52.196 0.623 6.69 4.32 1.14
11/9/2020 6:00:00 PM 11.4 52.52 0.633 6.8 4.4 1.12
11/9/2020 6:15:00 PM 11.45 52.61 0.635 6.81 4.49 1.08
11/9/2020 6:30:00 PM 11.47 52.646 0.636 6.81 4.36 1.08
11/9/2020 6:45:00 PM 11.47 52.646 0.636 6.8 4.4 1.09
11/9/2020 7:00:00 PM 11.46 52.628 0.637 6.81 4.6 1.08
11/9/2020 7:15:00 PM 11.45 52.61 0.634 6.81 4.73 1.16
11/9/2020 7:30:00 PM 11.46 52.628 0.635 6.81 5.33 1.14
11/9/2020 7:45:00 PM 11.47 52.646 0.633 6.82 4.71 1.11
11/9/2020 8:00:00 PM 11.45 52.61 0.635 6.82 4.72 1.08
11/9/2020 8:15:00 PM 11.44 52.592 0.635 6.82 4.57 1.12
11/9/2020 8:30:00 PM 11.42 52.556 0.636 6.82 4.53 1.1
11/9/2020 8:45:00 PM 11.41 52.538 0.635 6.81 4.7 1.1
11/9/2020 9:00:00 PM 11.4 52.52 0.635 6.81 4.46 1.1
11/9/2020 9:15:00 PM 11.39 52.502 0.636 6.82 4.56 1.1
11/9/2020 9:30:00 PM 11.38 52.484 0.637 6.82 4.58 1.13
11/9/2020 9:45:00 PM 11.37 52.466 0.634 6.82 4.52 1.11
11/9/2020 10:00:00 PM 11.36 52.448 0.62 6.83 4.64 1.2
11/9/2020 10:15:00 PM 11.35 52.43 0.625 6.83 4.45 1.21
11/9/2020 10:30:00 PM 11.33 52.394 0.622 6.83 4.41 1.16
11/9/2020 10:45:00 PM 11.34 52.412 0.63 6.83 4.57 1.15
11/9/2020 11:00:00 PM 11.33 52.394 0.628 6.83 4.36 1.17
11/9/2020 11:15:00 PM 11.33 52.394 0.627 6.83 4.25 1.14
11/9/2020 11:30:00 PM 11.31 52.358 0.631 6.83 4.29 1.15
11/9/2020 11:45:00 PM 11.29 52.322 0.631 6.82 4.24 1.14
11/10/2020 12:00:00 AM 11.27 52.286 0.63 6.82 4.38 1.12
11/10/2020 12:15:00 AM 11.26 52.268 0.631 6.82 4.28 1.14
11/10/2020 12:30:00 AM 11.24 52.232 0.633 6.82 4.29 1.12
11/10/2020 12:45:00 AM 11.24 52.232 0.624 6.83 4.43 1.12
11/10/2020 1:00:00 AM 11.23 52.214 0.629 6.83 4.33 1.11
11/10/2020 1:15:00 AM 11.21 52.178 0.629 6.83 4.37 1.12
11/10/2020 1:30:00 AM 11.18 52.124 0.626 6.83 4.53 1.11
11/10/2020 1:45:00 AM 11.16 52.088 0.627 6.83 4.48 1.11
11/10/2020 2:00:00 AM 9.67 49.406 0.551 5.92 3.86 0.97
11/10/2020 2:15:00 AM 10.92 51.656 0.617 6.71 4.28 1.08
11/10/2020 2:30:00 AM 11.09 51.962 0.628 6.81 4.31 1.16
11/10/2020 2:45:00 AM 11.08 51.944 0.632 6.83 4.41 1.17
11/10/2020 3:00:00 AM 11.05 51.89 0.622 6.83 4.48 1.16
11/10/2020 3:15:00 AM 11.04 51.872 0.628 6.83 4.27 1.13
11/10/2020 3:30:00 AM 11.01 51.818 0.625 6.83 4.27 1.21
11/10/2020 3:45:00 AM 10.98 51.764 0.624 6.83 4.35 1.17
11/10/2020 4:00:00 AM 10.98 51.764 0.626 6.83 4.25 1.14
11/10/2020 4:15:00 AM 10.94 51.692 0.622 6.84 4.37 1.16
11/10/2020 4:30:00 AM 10.9 51.62 0.615 6.85 7.22 1.36
11/10/2020 4:45:00 AM 10.88 51.584 0.619 6.84 5.73 1.42
11/10/2020 5:00:00 AM 10.88 51.584 0.618 6.84 4.73 1.31
11/10/2020 5:15:00 AM 10.87 51.566 0.617 6.84 4.43 1.35
11/10/2020 5:30:00 AM 10.84 51.512 0.61 6.84 4.27 1.38
11/10/2020 5:45:00 AM 10.81 51.458 0.616 6.84 4.23 1.35
11/10/2020 6:00:00 AM 10.76 51.368 0.614 6.85 4.2 1.32
11/10/2020 6:15:00 AM 10.75 51.35 0.607 6.84 4.13 1.32
11/10/2020 6:30:00 AM 10.74 51.332 0.613 6.85 3.86 1.28
11/10/2020 6:45:00 AM 10.71 51.278 0.615 6.86 4.22 1.28
11/10/2020 7:00:00 AM 10.67 51.206 0.615 6.85 4.23 1.31
11/10/2020 7:15:00 AM 10.65 51.17 0.607 6.85 4.14 1.3
11/10/2020 7:30:00 AM 10.62 51.116 0.616 6.86 4.06 1.3
11/10/2020 7:45:00 AM 10.59 51.062 0.612 6.86 4.15 1.3
11/10/2020 8:00:00 AM 10.57 51.026 0.609 6.86 4.22 1.29
11/10/2020 8:15:00 AM 10.55 50.99 0.612 6.86 4.21 1.3
11/10/2020 8:30:00 AM 10.56 51.008 0.617 6.85 4.25 1.31
11/10/2020 8:45:00 AM 10.57 51.026 0.609 6.85 4.16 1.3
11/10/2020 9:00:00 AM 10.59 51.062 0.61 6.85 4.09 1.26
11/10/2020 9:15:00 AM 10.59 51.062 0.613 6.85 4.04 1.31
11/10/2020 9:30:00 AM 10.61 51.098 0.607 6.85 4 1.32
11/10/2020 9:45:00 AM 10.64 51.152 0.621 6.85 4.31 1.22
11/10/2020 10:00:00 AM 10.65 51.17 0.621 6.85 4.22 1.21
11/10/2020 10:15:00 AM 10.67 51.206 0.62 6.84 4.11 1.19
11/10/2020 10:30:00 AM 10.69 51.242 0.624 6.83 5.02 1.16
11/10/2020 10:45:00 AM 10.73 51.314 0.625 6.83 4.56 1.13
11/10/2020 11:00:00 AM 10.77 51.386 0.631 6.81 4.8 1.11
11/10/2020 11:15:00 AM 10.82 51.476 0.635 6.8 4.5 1.12
11/10/2020 11:30:00 AM 10.87 51.566 0.637 6.8 4.75 1.1
11/10/2020 11:45:00 AM 10.92 51.656 0.641 6.8 4.63 1.12
11/10/2020 12:00:00 PM 11 51.8 0.64 6.8 4.64 1.15
11/10/2020 12:15:00 PM 11.06 51.908 0.642 6.8 4.64 1.1
11/10/2020 12:30:00 PM 11.11 51.998 0.652 6.8 4.55 1.11
11/10/2020 12:45:00 PM 11.19 52.142 0.656 6.8 4.47 1.09
11/10/2020 1:00:00 PM 11.25 52.25 0.654 6.79 4.5 1.11
11/10/2020 1:15:00 PM 11.32 52.376 0.654 6.79 4.44 1.09
11/10/2020 1:30:00 PM 11.42 52.556 0.65 6.79 4.43 1.09
11/10/2020 1:45:00 PM 11.52 52.736 0.654 6.8 4.45 1.1
11/10/2020 2:00:00 PM 11.61 52.898 0.657 6.79 4.38 1.15
11/10/2020 2:15:00 PM 11.76 53.168 0.655 6.8 4.28 1.19
11/10/2020 2:30:00 PM 11.85 53.33 0.657 6.8 4.24 1.17
11/10/2020 2:45:00 PM 10.35 50.63 0.57 5.9 3.46 1.03
11/10/2020 3:00:00 PM 11.77 53.186 0.646 6.68 4.02 1.12
11/10/2020 3:15:00 PM 11.99 53.582 0.657 6.79 4.26 1.1
11/10/2020 3:30:00 PM 12.09 53.762 0.657 6.81 4.07 1.17
11/10/2020 3:45:00 PM 12.16 53.888 0.654 6.8 4.12 1.22
11/10/2020 4:00:00 PM 12.2 53.96 0.656 6.81 4.17 1.19
11/10/2020 4:15:00 PM 12.27 54.086 0.656 6.81 4.08 1.16
11/10/2020 4:30:00 PM 12.34 54.212 0.653 6.82 4.16 1.42
11/10/2020 4:45:00 PM 12.38 54.284 0.648 6.83 4.06 1.24
11/10/2020 5:00:00 PM 12.41 54.338 0.648 6.84 4.04 1.2
11/10/2020 5:15:00 PM 12.45 54.41 0.644 6.84 4.07 1.13
11/10/2020 5:30:00 PM 12.47 54.446 0.647 6.85 4.07 1.31
11/10/2020 5:45:00 PM 12.47 54.446 0.644 6.85 4.23 1.25
11/10/2020 6:00:00 PM 12.48 54.464 0.643 6.86 4.26 1.32
11/10/2020 6:15:00 PM 12.48 54.464 0.638 6.87 4.51 1.47
11/10/2020 6:30:00 PM 12.49 54.482 0.637 6.87 4.29 1.42
11/10/2020 6:45:00 PM 12.49 54.482 0.626 6.89 4.33 1.6
11/10/2020 7:00:00 PM 12.49 54.482 0.619 6.89 4.28 1.67
11/10/2020 7:15:00 PM 12.49 54.482 0.618 6.9 4.35 1.75
11/10/2020 7:30:00 PM 12.5 54.5 0.62 6.9 4.25 1.64
11/10/2020 7:45:00 PM 12.49 54.482 0.614 6.92 4.23 1.81
11/10/2020 8:00:00 PM 12.48 54.464 0.605 6.92 4.3 2.04
11/10/2020 8:15:00 PM 12.47 54.446 0.605 6.92 4.39 1.82
11/10/2020 8:30:00 PM 12.45 54.41 0.6 6.93 4.22 1.83
11/10/2020 8:45:00 PM 12.44 54.392 0.601 6.95 4.2 1.78
11/10/2020 9:00:00 PM 12.44 54.392 0.591 6.95 4.25 1.84
11/10/2020 9:15:00 PM 12.45 54.41 0.592 6.96 4.21 1.97
11/10/2020 9:30:00 PM 12.46 54.428 0.575 6.97 4.31 2.11
11/10/2020 9:45:00 PM 12.46 54.428 0.582 6.97 4.55 1.92
11/10/2020 10:00:00 PM 12.46 54.428 0.582 6.98 4.24 1.88
11/10/2020 10:15:00 PM 12.44 54.392 0.581 6.97 4.13 1.94
11/10/2020 10:30:00 PM 12.45 54.41 0.585 6.98 4.37 1.99
11/10/2020 10:45:00 PM 12.44 54.392 0.585 6.98 4.12 1.97
11/10/2020 11:00:00 PM 12.44 54.392 0.58 6.98 4.2 1.82
11/10/2020 11:15:00 PM 12.43 54.374 0.578 6.98 4.1 1.88
11/10/2020 11:30:00 PM 12.43 54.374 0.576 7 4.17 1.87
11/10/2020 11:45:00 PM 12.41 54.338 0.568 7.01 4.25 1.9
11/11/2020 12:00:00 AM 12.4 54.32 0.566 7.01 4.29 1.9
11/11/2020 12:15:00 AM 12.39 54.302 0.57 7.02 4.31 2.06
11/11/2020 12:30:00 AM 12.4 54.32 0.562 7.02 4.5 2.04
11/11/2020 12:45:00 AM 12.38 54.284 0.561 7.02 4.44 2.17
11/11/2020 1:00:00 AM 12.36 54.248 0.557 7.04 4.24 2.05
11/11/2020 1:15:00 AM 12.35 54.23 0.553 7.05 4.4 2.56
11/11/2020 1:30:00 AM 12.33 54.194 0.55 7.06 4.23 2.55
11/11/2020 1:45:00 AM 12.32 54.176 0.551 7.05 4.31 2.57
11/11/2020 2:00:00 AM 12.32 54.176 0.546 7.05 4.24 2.64
11/11/2020 2:15:00 AM 12.3 54.14 0.542 7.06 4.48 2.81
11/11/2020 2:30:00 AM 12.3 54.14 0.533 7.06 4.45 2.83
11/11/2020 2:45:00 AM 12.31 54.158 0.539 7.06 4.31 2.66
11/11/2020 3:00:00 AM 12.3 54.14 0.54 7.06 4.36 2.41
11/11/2020 3:15:00 AM 12.28 54.104 0.534 7.08 4.49 2.67
11/11/2020 3:30:00 AM 12.27 54.086 0.528 7.09 51.99 2.73
11/11/2020 3:45:00 AM 12.25 54.05 0.533 7.1 26.94 2.74
11/11/2020 4:00:00 AM 12.26 54.068 0.51 7.12 10.84 2.78
11/11/2020 4:15:00 AM 12.25 54.05 0.526 7.09 6.61 2.52
11/11/2020 4:30:00 AM 12.24 54.032 0.522 7.11 5.57 2.43
11/11/2020 4:45:00 AM 12.25 54.05 0.515 7.15 5.57 3.21
11/11/2020 5:00:00 AM 10.62 51.116 0.451 6.18 4.74 2.87
11/11/2020 5:15:00 AM 12.01 53.618 0.501 6.99 5.22 3.29
11/11/2020 5:30:00 AM 12.21 53.978 0.514 7.08 5.15 3.73
11/11/2020 5:45:00 AM 12.24 54.032 0.518 7.11 5.13 3.25
11/11/2020 6:00:00 AM 12.24 54.032 0.52 7.11 4.95 3.5
11/11/2020 6:15:00 AM 12.24 54.032 0.509 7.08 4.97 3.66
11/11/2020 6:30:00 AM 12.24 54.032 0.521 7.07 4.87 3.52
11/11/2020 6:45:00 AM 12.24 54.032 0.512 7.09 4.92 3.33
11/11/2020 7:00:00 AM 12.25 54.05 0.527 7.08 4.85 3.22
11/11/2020 7:15:00 AM 12.27 54.086 0.511 7.16 5.04 3.88
11/11/2020 7:30:00 AM 12.28 54.104 0.514 7.16 5.11 3.69
11/11/2020 7:45:00 AM 10.68 51.224 0.437 6.17 4.08 3.34
11/11/2020 8:00:00 AM 12.12 53.816 0.492 7.04 4.71 3.85
11/11/2020 8:15:00 AM 12.37 54.266 0.488 7.14 4.7 4.25
11/11/2020 8:30:00 AM 12.44 54.392 0.484 7.2 4.79 4.35
11/11/2020 8:45:00 AM 12.49 54.482 0.489 7.2 4.8 4.65
11/11/2020 9:00:00 AM 12.5 54.5 0.486 7.19 4.8 4.3
11/11/2020 9:15:00 AM 12.54 54.572 0.484 7.21 4.65 4.58
11/11/2020 9:30:00 AM 12.57 54.626 0.478 7.21 4.57 4.62
11/11/2020 9:45:00 AM 12.62 54.716 0.484 7.2 4.85 4.42
11/11/2020 10:00:00 AM 12.63 54.734 0.488 7.19 4.88 3.93
11/11/2020 10:15:00 AM 12.66 54.788 0.483 7.19 4.68 4.02
11/11/2020 10:30:00 AM 12.68 54.824 0.484 7.22 4.52 4.38
11/11/2020 10:45:00 AM 12.73 54.914 0.48 7.25 4.53 5.12
11/11/2020 11:00:00 AM 12.76 54.968 0.483 7.22 4.5 5.03
11/11/2020 11:15:00 AM 12.78 55.004 0.48 7.21 4.81 4.77
11/11/2020 11:30:00 AM 12.79 55.022 0.478 7.22 4.64 4.57
11/11/2020 11:45:00 AM 12.81 55.058 0.488 7.17 4.85 3.95
11/11/2020 12:00:00 PM 12.83 55.094 0.495 7.18 4.62 3.97
11/11/2020 12:15:00 PM 12.82 55.076 0.496 7.17 4.53 3.74
11/11/2020 12:30:00 PM 12.84 55.112 0.477 7.2 7.42 4.12
11/11/2020 12:45:00 PM 12.86 55.148 0.501 7.2 5.99 4.18
11/11/2020 1:00:00 PM 12.89 55.202 0.504 7.18 4.92 4
11/11/2020 1:15:00 PM 12.9 55.22 0.503 7.15 4.56 3.85
11/11/2020 1:30:00 PM 12.94 55.292 0.501 7.11 4.43 3.46
11/11/2020 1:45:00 PM 12.93 55.274 0.514 7.12 4.56 3.36
11/11/2020 2:00:00 PM 12.95 55.31 0.511 7.12 4.5 3.03
11/11/2020 2:15:00 PM 13.01 55.418 0.495 7.14 4.38 3.26
11/11/2020 2:30:00 PM 13.03 55.454 0.512 7.15 4.24 3.61
11/11/2020 2:45:00 PM 13.07 55.526 0.498 7.17 4.14 3.91
11/11/2020 3:00:00 PM 13.09 55.562 0.494 7.18 4.36 3.98
11/11/2020 3:15:00 PM 13.08 55.544 0.501 7.17 4.22 3.54
11/11/2020 3:30:00 PM 13.1 55.58 0.513 7.14 4.2 3.25
11/11/2020 3:45:00 PM 13.18 55.724 0.494 7.16 4.26 3.61
11/11/2020 4:00:00 PM 13.26 55.868 0.498 7.14 4.43 3.82
11/11/2020 4:15:00 PM 13.38 56.084 0.488 7.17 5.05 3.92
11/11/2020 4:30:00 PM 13.7 56.66 0.424 7.37 5.47 6.32
11/11/2020 4:45:00 PM 13.76 56.768 0.413 7.43 5.22 7.12
11/11/2020 5:00:00 PM 13.81 56.858 0.401 7.45 5.09 7.13
11/11/2020 5:15:00 PM 13.8 56.84 0.397 7.42 5.1 6.78
11/11/2020 5:30:00 PM 13.81 56.858 0.395 7.45 5.15 6.94
11/11/2020 5:45:00 PM 13.83 56.894 0.393 7.43 5.04 6.86
11/11/2020 6:00:00 PM 13.82 56.876 0.394 7.4 5.05 6.92
11/11/2020 6:15:00 PM 13.86 56.948 0.39 7.47 5.4 7.12
11/11/2020 6:30:00 PM 13.89 57.002 0.388 7.49 5.35 7.54
11/11/2020 6:45:00 PM 13.89 57.002 0.387 7.49 5.77 7.69
11/11/2020 7:00:00 PM 13.88 56.984 0.388 7.49 6.15 7.68
11/11/2020 7:15:00 PM 13.9 57.02 0.385 7.49 6.53 7.81
11/11/2020 7:30:00 PM 13.91 57.038 0.386 7.47 7.37 7.73
11/11/2020 7:45:00 PM 13.92 57.056 0.384 7.46 8.96 7.74
11/11/2020 8:00:00 PM 13.94 57.092 0.382 7.47 9.21 7.8
11/11/2020 8:15:00 PM 13.96 57.128 0.379 7.46 10.2 7.75
11/11/2020 8:30:00 PM 13.99 57.182 0.374 7.46 13.07 7.72
11/11/2020 8:45:00 PM 14 57.2 0.369 7.47 17.52 7.82
11/11/2020 9:00:00 PM 13.99 57.182 0.365 7.48 22.2 7.92
11/11/2020 9:15:00 PM 13.97 57.146 0.364 7.48 27.77 7.92
11/11/2020 9:30:00 PM 13.96 57.128 0.363 7.46 37.49 7.86
11/11/2020 9:45:00 PM 13.96 57.128 0.36 7.45 89.34 7.76
11/11/2020 10:00:00 PM 13.98 57.164 0.351 7.45 70.14 7.8
11/11/2020 10:15:00 PM 14 57.2 0.348 7.43 67.2 7.78
11/11/2020 10:30:00 PM 14.02 57.236 0.347 7.41 2315.28 7.26
11/11/2020 10:45:00 PM 14.05 57.29 0.339 7.43 390.93 7.37
11/11/2020 11:00:00 PM 14.05 57.29 0.347 7.43 586.4 7.59
11/11/2020 11:15:00 PM 14.05 57.29 0.349 7.43 134.33 7.58
11/11/2020 11:30:00 PM 14.04 57.272 0.351 7.42 66.57 7.43
11/11/2020 11:45:00 PM 14.05 57.29 0.35 7.42 61.67 7.35
11/12/2020 12:00:00 AM 14.07 57.326 0.349 7.42 68.61 7.37
11/12/2020 12:15:00 AM 14.08 57.344 0.349 7.42 61.57 7.38
11/12/2020 12:30:00 AM 14.11 57.398 0.347 7.43 58.24 7.35
11/12/2020 12:45:00 AM 14.12 57.416 0.347 7.43 59.82 7.46
11/12/2020 1:00:00 AM 14.15 57.47 0.345 7.44 61.65 7.68
11/12/2020 1:15:00 AM 14.16 57.488 0.343 7.43 84.99 7.65
11/12/2020 1:30:00 AM 14.18 57.524 0.342 7.44 119.02 7.61
11/12/2020 1:45:00 AM 14.2 57.56 0.34 7.41 84.34 7.7
11/12/2020 2:00:00 AM 14.23 57.614 0.333 7.44 58.62 7.89
11/12/2020 2:15:00 AM 14.27 57.686 0.338 7.45 46.67 8.04
11/12/2020 2:30:00 AM 14.29 57.722 0.339 7.44 44.06 7.93
11/12/2020 2:45:00 AM 14.3 57.74 0.339 7.44 41.55 7.9
11/12/2020 3:00:00 AM 14.31 57.758 0.339 7.44 39.89 7.89
11/12/2020 3:15:00 AM 14.33 57.794 0.338 7.44 44.94 7.83
11/12/2020 3:30:00 AM 14.34 57.812 0.337 7.43 44.9 7.77
11/12/2020 3:45:00 AM 14.35 57.83 0.335 7.42 47.25 7.72
11/12/2020 4:00:00 AM 14.36 57.848 0.333 7.42 49.02 7.72
11/12/2020 4:15:00 AM 14.37 57.866 0.331 7.42 51.04 7.72
11/12/2020 4:30:00 AM 14.38 57.884 0.328 7.41 46.35 7.6
11/12/2020 4:45:00 AM 14.4 57.92 0.327 7.42 49.23 7.75
11/12/2020 5:00:00 AM 14.41 57.938 0.325 7.42 47.66 7.82
11/12/2020 5:15:00 AM 14.41 57.938 0.324 7.42 50.57 7.86
11/12/2020 5:30:00 AM 14.41 57.938 0.324 7.42 52.67 7.85
11/12/2020 5:45:00 AM 14.4 57.92 0.324 7.41 45.88 7.76
11/12/2020 6:00:00 AM 14.39 57.902 0.324 7.41 44.28 7.72
11/12/2020 6:15:00 AM 14.38 57.884 0.323 7.43 43.11 7.78
11/12/2020 6:30:00 AM 14.37 57.866 0.323 7.42 42.15 7.84
11/12/2020 6:45:00 AM 14.35 57.83 0.323 7.42 40.77 7.85
11/12/2020 7:00:00 AM 14.33 57.794 0.323 7.42 44.77 7.83
11/12/2020 7:15:00 AM 14.32 57.776 0.324 7.43 41.67 7.82
11/12/2020 7:30:00 AM 14.3 57.74 0.324 7.43 40.98 7.89
11/12/2020 7:45:00 AM 14.28 57.704 0.323 7.42 41.65 7.85
11/12/2020 8:00:00 AM 14.27 57.686 0.323 7.43 39.23 7.9
11/12/2020 8:15:00 AM 14.25 57.65 0.324 7.43 38.21 7.87
11/12/2020 8:30:00 AM 14.24 57.632 0.324 7.43 37.09 7.92
11/12/2020 8:45:00 AM 14.23 57.614 0.325 7.43 37.94 7.85
11/12/2020 9:00:00 AM 14.22 57.596 0.326 7.43 37.2 7.92
11/12/2020 9:15:00 AM 14.2 57.56 0.326 7.43 36.05 7.88
11/12/2020 9:30:00 AM 14.18 57.524 0.326 7.42 38.59 7.92
11/12/2020 9:45:00 AM 14.17 57.506 0.327 7.43 37.03 7.88
11/12/2020 10:00:00 AM 14.14 57.452 0.328 7.43 32.31 7.81
11/12/2020 10:15:00 AM 14.1 57.38 0.329 7.43 33.42 7.83
11/12/2020 10:30:00 AM 14.07 57.326 0.329 7.43 33.34 7.88
11/12/2020 10:45:00 AM 14.04 57.272 0.33 7.43 34.06 7.71
11/12/2020 11:00:00 AM 14.01 57.218 0.33 7.44 32.21 7.91
11/12/2020 11:15:00 AM 14 57.2 0.331 7.43 33.78 8.01
11/12/2020 11:30:00 AM 13.99 57.182 0.332 7.44 34.68 7.97
11/12/2020 11:45:00 AM 13.97 57.146 0.332 7.44 37.78 8.01
11/12/2020 12:00:00 PM 13.96 57.128 0.333 7.44 34.17 8.04
11/12/2020 12:15:00 PM 13.94 57.092 0.335 7.42 232.19 7.71
11/12/2020 12:30:00 PM 13.91 57.038 0.335 7.43 87.36 7.91
11/12/2020 12:45:00 PM 13.9 57.02 0.336 7.44 46.71 8.01
11/12/2020 1:00:00 PM 13.86 56.948 0.336 7.45 39.04 8.09
11/12/2020 1:15:00 PM 13.81 56.858 0.337 7.45 33.09 8.05
11/12/2020 1:30:00 PM 13.79 56.822 0.338 7.44 34.52 8.08
11/12/2020 1:45:00 PM 13.76 56.768 0.339 7.45 35.52 7.92
11/12/2020 2:00:00 PM 13.74 56.732 0.339 7.45 33.72 8.05
11/12/2020 2:15:00 PM 13.72 56.696 0.34 7.45 32.77 8.11
11/12/2020 2:30:00 PM 11.88 53.384 0.297 6.46 27.92 6.97
11/12/2020 2:45:00 PM 13.42 56.156 0.336 7.31 30.75 7.87
11/12/2020 3:00:00 PM 13.59 56.462 0.342 7.43 33.62 8.13
11/12/2020 3:15:00 PM 13.58 56.444 0.343 7.44 33.07 8
11/12/2020 3:30:00 PM 13.55 56.39 0.344 7.44 32.84 8.06
11/12/2020 3:45:00 PM 13.51 56.318 0.345 7.45 32.98 8.08
11/12/2020 4:00:00 PM 13.46 56.228 0.345 7.44 32.21 8.02
11/12/2020 4:15:00 PM 13.41 56.138 0.341 7.41 127.81 7.79
11/12/2020 4:30:00 PM 13.37 56.066 0.346 7.41 60.44 7.91
11/12/2020 4:45:00 PM 13.31 55.958 0.344 7.42 66.68 8.17
11/12/2020 5:00:00 PM 13.27 55.886 0.347 7.42 1070.82 8.23
11/12/2020 5:15:00 PM 13.22 55.796 0.349 7.42 264 8.24
11/12/2020 5:30:00 PM 13.17 55.706 0.349 7.43 80.89 8.19
11/12/2020 5:45:00 PM 13.13 55.634 0.342 7.43 50.55 8.27
11/12/2020 6:00:00 PM 13.08 55.544 0.35 7.42 51.31 8.25
11/12/2020 6:15:00 PM 13.04 55.472 0.35 7.42 39.45 8.17
11/12/2020 6:30:00 PM 13 55.4 0.347 7.43 41.94 8.24
11/12/2020 6:45:00 PM 12.95 55.31 0.352 7.43 37.77 8.24
11/12/2020 7:00:00 PM 12.91 55.238 0.354 7.43 34.59 8.29
11/12/2020 7:15:00 PM 12.87 55.166 0.355 7.43 35.42 8.32
11/12/2020 7:30:00 PM 12.83 55.094 0.355 7.42 33.87 8.23
11/12/2020 7:45:00 PM 12.78 55.004 0.356 7.42 36.9 8.19
11/12/2020 8:00:00 PM 12.73 54.914 0.347 7.42 40.15 8.32
11/12/2020 8:15:00 PM 12.68 54.824 0.355 7.43 41.83 8.24
11/12/2020 8:30:00 PM 12.63 54.734 0.356 7.42 61.69 8.16
11/12/2020 8:45:00 PM 12.59 54.662 0.358 7.42 39.08 8.16
11/12/2020 9:00:00 PM 12.52 54.536 0.359 7.43 33.46 8.32
11/12/2020 9:15:00 PM 12.46 54.428 0.359 7.42 42.35 8.37
11/12/2020 9:30:00 PM 12.39 54.302 0.359 7.43 30.52 8.43
11/12/2020 9:45:00 PM 12.32 54.176 0.36 7.43 28.09 8.44
11/12/2020 10:00:00 PM 12.24 54.032 0.361 7.42 30.66 8.38
11/12/2020 10:15:00 PM 12.16 53.888 0.361 7.43 28.06 8.47
11/12/2020 10:30:00 PM 12.09 53.762 0.361 7.43 27.14 8.48
11/12/2020 10:45:00 PM 12.03 53.654 0.362 7.43 29.35 8.49
11/12/2020 11:00:00 PM 11.99 53.582 0.363 7.43 27.65 8.5
11/12/2020 11:15:00 PM 11.96 53.528 0.363 7.42 35.89 8.43
11/12/2020 11:30:00 PM 11.93 53.474 0.363 7.43 37.47 8.46
11/12/2020 11:45:00 PM 11.91 53.438 0.364 7.43 29.08 8.49
11/13/2020 12:00:00 AM 11.9 53.42 0.364 7.42 39.15 8.54
11/13/2020 12:15:00 AM 11.87 53.366 0.364 7.43 27.9 8.52
11/13/2020 12:30:00 AM 11.84 53.312 0.365 7.43 27.21 8.57
11/13/2020 12:45:00 AM 11.82 53.276 0.366 7.43 31.45 8.61
11/13/2020 1:00:00 AM 11.78 53.204 0.366 7.43 37.31 8.57
11/13/2020 1:15:00 AM 11.74 53.132 0.366 7.43 32.54 8.62
11/13/2020 1:30:00 AM 11.69 53.042 0.367 7.43 29.04 8.65
11/13/2020 1:45:00 AM 11.66 52.988 0.367 7.43 27.01 8.66
11/13/2020 2:00:00 AM 11.63 52.934 0.368 7.44 28.15 8.7
11/13/2020 2:15:00 AM 11.59 52.862 0.368 7.44 28.81 8.71
11/13/2020 2:30:00 AM 11.55 52.79 0.369 7.43 30.47 8.69
11/13/2020 2:45:00 AM 11.52 52.736 0.369 7.43 25.95 8.7
11/13/2020 3:00:00 AM 11.5 52.7 0.37 7.43 26.64 8.68
11/13/2020 3:15:00 AM 11.47 52.646 0.37 7.43 25.93 8.71
11/13/2020 3:30:00 AM 11.44 52.592 0.371 7.43 26.55 8.74
11/13/2020 3:45:00 AM 11.41 52.538 0.371 7.43 25.88 8.75
11/13/2020 4:00:00 AM 11.39 52.502 0.372 7.44 26.57 8.81
11/13/2020 4:15:00 AM 11.36 52.448 0.372 7.44 25.71 8.81
11/13/2020 4:30:00 AM 11.34 52.412 0.373 7.44 26.25 8.79
11/13/2020 4:45:00 AM 11.31 52.358 0.374 7.44 25.04 8.78
11/13/2020 5:00:00 AM 11.29 52.322 0.374 7.44 24.62 8.78
11/13/2020 5:15:00 AM 11.26 52.268 0.374 7.44 24.57 8.76
11/13/2020 5:30:00 AM 11.23 52.214 0.375 7.44 25.25 8.84
11/13/2020 5:45:00 AM 11.22 52.196 0.375 7.44 24.55 8.87
11/13/2020 6:00:00 AM 11.19 52.142 0.376 7.44 24.46 8.88
11/13/2020 6:15:00 AM 11.17 52.106 0.376 7.44 23.78 8.87
11/13/2020 6:30:00 AM 11.15 52.07 0.377 7.44 25.83 8.91
11/13/2020 6:45:00 AM 11.14 52.052 0.377 7.43 25.36 8.87
11/13/2020 7:00:00 AM 11.12 52.016 0.377 7.44 25.99 8.87
11/13/2020 7:15:00 AM 11.1 51.98 0.378 7.44 24.88 8.93
11/13/2020 7:30:00 AM 11.09 51.962 0.378 7.44 24.14 8.94
11/13/2020 7:45:00 AM 11.07 51.926 0.379 7.45 27.96 8.9
11/13/2020 8:00:00 AM 11.07 51.926 0.379 7.42 371.24 8.64
11/13/2020 8:15:00 AM 11.05 51.89 0.38 7.44 97.77 8.94
11/13/2020 8:30:00 AM 11.04 51.872 0.38 7.44 43.26 8.94
11/13/2020 8:45:00 AM 11.03 51.854 0.38 7.45 34.8 8.93
11/13/2020 9:00:00 AM 11.02 51.836 0.38 7.45 30.57 9.02
11/13/2020 9:15:00 AM 11.03 51.854 0.381 7.45 36.49 9.08
11/13/2020 9:30:00 AM 11.05 51.89 0.381 7.46 28.69 9.17
11/13/2020 9:45:00 AM 11.08 51.944 0.382 7.47 28.